Darstellungsparameter: Aktuell verwendete Einstellungen:
Skalierung der Graphiken ... ?
xyx+y,   Skalierungsfaktor:      Skalierung: Modus: x, Faktor: 1
Darstellungszeitraum ... ?
Vom - - bis: - -   Zeitraum: 20.11.2020 - 11.03.2021
Min/Max/Avg-Anzeige ... ?
Zeige MMA aktuell
Zeige MMA Monat
Zeige MMA alles
Zeige --A aktuell
Zeige --A Monat
Zeige --A alles
Keine MMA-Anzeige
MMA:
Minimum Maximum Average (ber die Originaldaten)
MMA-Basis: 14.04.2020 - 16.05.2020
Quicknavigation für Darstellung... ?
Tage:      1T, 2T, 3T, 5T -1T -2T -3T -5T +1T +2T +3T +5T
Wochen: 1W, 2W, 3W -1W -2W -3W +1W +2W +3W
Monate: 1M, 3M, 6M -1M -3M -6M +1M +3M +6M
Jahre:    1J, 3J, 5J, 10J -1J -3J -5J -10J +1J +3J +5J +10J
Nutze für die Darstellung ... ?
Originaldaten oder ...
Mittelwerte Minima Maxima auf...
Stundenbasis Tagesbasis Wochenbasis
Monatsbasis Jahresbasis      Datenbasis: Mittelwerte auf Stundenbasis
Darstellen als:
Statistik (Auto) Statistik J:M      Darstellung:
Zur Graphik,    zurück zur Übersicht aller Sensoren.
 
Tabellarische Datenbersicht: ?
 
Sensor: Nr:Datum:Temp:Abs-Feuchte:Windchill:Wind:
Aussen-T/F 1 20-11-2020 00:00:00 5.25833 C 6.56 g/m*3 5.26 C 4 km/h
2 20-11-2020 01:00:00 5.01667 C 6.36 g/m*3 5.02 C 2.80833 km/h
3 20-11-2020 02:00:00 4.475 C 6.15 g/m*3 4.47 C 2.93333 km/h
4 20-11-2020 03:00:00 3.00833 C 5.56 g/m*3 3.01 C 0.93333 km/h
5 20-11-2020 04:00:00 2.49167 C 5.42 g/m*3 2.49 C 0.53333 km/h
6 20-11-2020 05:00:00 2.825 C 5.61 g/m*3 2.83 C 2.93333 km/h
7 20-11-2020 06:00:00 3.21667 C 5.79 g/m*3 3.22 C 3.73333 km/h
8 20-11-2020 07:00:00 3.65 C 5.96 g/m*3 3.65 C 3.46667 km/h
9 20-11-2020 08:00:00 3.89167 C 6.06 g/m*3 3.89 C 4.4 km/h
10 20-11-2020 09:00:00 4.34167 C 6.24 g/m*3 4.34 C 4.4 km/h
11 20-11-2020 10:00:00 5.06667 C 6.49 g/m*3 3.83 C 5.9 km/h
12 20-11-2020 11:00:00 5.875 C 6.69 g/m*3 4.68 C 6.14167 km/h
13 20-11-2020 12:00:00 6.45833 C 6.81 g/m*3 6.46 C 4.26667 km/h
14 20-11-2020 13:00:00 6.75833 C 6.86 g/m*3 6.76 C 3.60833 km/h
15 20-11-2020 14:00:00 6.625 C 6.52 g/m*3 5.9 C 5.08333 km/h
16 20-11-2020 15:00:00 6.78333 C 6.43 g/m*3 6.78 C 1.46667 km/h
17 20-11-2020 16:00:00 6.825 C 6.56 g/m*3 6.83 C 0 km/h
18 20-11-2020 17:00:00 5.68333 C 6.25 g/m*3 5.68 C 0.26667 km/h
19 20-11-2020 18:00:00 3.74167 C 5.61 g/m*3 3.74 C 0.53333 km/h
20 20-11-2020 19:00:00 2.35 C 5.25 g/m*3 2.35 C 0 km/h
21 20-11-2020 20:00:00 1.31667 C 4.96 g/m*3 1.32 C 0 km/h
22 20-11-2020 21:00:00 0.76667 C 4.82 g/m*3 0.77 C 0 km/h
23 20-11-2020 22:00:00 0.3 C 4.7 g/m*3 0.3 C 0 km/h
24 20-11-2020 23:00:00 0.275 C 4.7 g/m*3 0.28 C 0.26667 km/h
25 21-11-2020 00:00:00 0.25 C 4.72 g/m*3 0.25 C 0.66667 km/h
Sensor: Nr:Datum:Temp:Abs-Feuchte:Windchill:Wind:
Aussen-T/F 26 21-11-2020 01:00:00 0.25833 C 4.73 g/m*3 0.26 C 0.66667 km/h
27 21-11-2020 02:00:00 0.2 C 4.72 g/m*3 0.2 C 0.26667 km/h
28 21-11-2020 03:00:00 0.24167 C 4.73 g/m*3 0.24 C 0.93333 km/h
29 21-11-2020 04:00:00 0.14167 C 4.7 g/m*3 0.14 C 1.6 km/h
30 21-11-2020 05:00:00 0.175 C 4.71 g/m*3 0.18 C 1.2 km/h
31 21-11-2020 06:00:00 0.24167 C 4.75 g/m*3 0.24 C 0.53333 km/h
32 21-11-2020 07:00:00 0.31667 C 4.8 g/m*3 0.32 C 0 km/h
33 21-11-2020 08:00:00 0.525 C 4.87 g/m*3 0.53 C 0.13333 km/h
34 21-11-2020 09:00:00 1.14167 C 5.08 g/m*3 1.14 C 0 km/h
35 21-11-2020 10:00:00 2.175 C 5.45 g/m*3 2.17 C 0.4 km/h
36 21-11-2020 11:00:00 3.41667 C 5.93 g/m*3 3.42 C 0.4 km/h
37 21-11-2020 12:00:00 5.40833 C 6.34 g/m*3 3.6 C 8.05833 km/h
38 21-11-2020 13:00:00 7.15 C 6.14 g/m*3 5.58 C 8.34167 km/h
39 21-11-2020 14:00:00 7.85 C 6.11 g/m*3 5.97 C 10.5 km/h
40 21-11-2020 15:00:00 7.99167 C 6 g/m*3 6.35 C 9.39167 km/h
41 21-11-2020 16:00:00 7.89167 C 6.08 g/m*3 7.89 C 2.94167 km/h
42 21-11-2020 17:00:00 7.21667 C 6.29 g/m*3 7.22 C 0 km/h
43 21-11-2020 18:00:00 5.65 C 5.98 g/m*3 5.65 C 2.8 km/h
44 21-11-2020 19:00:00 4.89167 C 5.91 g/m*3 4.89 C 0.66667 km/h
45 21-11-2020 20:00:00 4.14167 C 5.68 g/m*3 4.14 C 3.89167 km/h
46 21-11-2020 21:00:00 4.10833 C 5.65 g/m*3 2.88 C 5.49167 km/h
47 21-11-2020 22:00:00 4.60833 C 5.84 g/m*3 3.17 C 6.3 km/h
48 21-11-2020 23:00:00 5.53333 C 6.04 g/m*3 2.72 C 13.03333 km/h
49 22-11-2020 00:00:00 5.78333 C 6.08 g/m*3 3 C 13.16667 km/h
50 22-11-2020 01:00:00 5.98333 C 6.16 g/m*3 3.5 C 11.7 km/h
Sensor: Nr:Datum:Temp:Abs-Feuchte:Windchill:Wind:
Aussen-T/F 51 22-11-2020 02:00:00 6.3 C 6.22 g/m*3 3.93 C 11.43333 km/h
52 22-11-2020 03:00:00 6.30833 C 6.22 g/m*3 3.76 C 12.5 km/h
53 22-11-2020 04:00:00 6.50833 C 6.23 g/m*3 3.47 C 15.96667 km/h
54 22-11-2020 05:00:00 6.6 C 6.3 g/m*3 3.85 C 14.1 km/h
55 22-11-2020 06:00:00 6.80833 C 6.41 g/m*3 4.17 C 13.7 km/h
56 22-11-2020 07:00:00 6.88333 C 6.44 g/m*3 4.2 C 14.1 km/h
57 22-11-2020 08:00:00 6.875 C 6.51 g/m*3 4.15 C 14.36667 km/h
58 22-11-2020 09:00:00 7.275 C 6.7 g/m*3 4.72 C 13.83333 km/h
59 22-11-2020 10:00:00 7.625 C 6.81 g/m*3 4.82 C 16.23333 km/h
60 22-11-2020 11:00:00 8.1 C 6.98 g/m*3 5.7 C 14.1 km/h
61 22-11-2020 12:00:00 8.45 C 7.09 g/m*3 6.11 C 14.23333 km/h
62 22-11-2020 13:00:00 8.78333 C 7.22 g/m*3 6.59 C 13.7 km/h
63 22-11-2020 14:00:00 8.95 C 7.29 g/m*3 7.24 C 10.75833 km/h
64 22-11-2020 15:00:00 8.975 C 7.32 g/m*3 7.04 C 12.225 km/h
65 22-11-2020 16:00:00 8.875 C 7.38 g/m*3 7.58 C 8.48333 km/h
66 22-11-2020 17:00:00 8.73333 C 7.37 g/m*3 7.36 C 8.75 km/h
67 22-11-2020 18:00:00 8.53333 C 7.27 g/m*3 7.02 C 9.28333 km/h
68 22-11-2020 19:00:00 8.41667 C 7.25 g/m*3 7.64 C 6.025 km/h
69 22-11-2020 20:00:00 8.34167 C 7.24 g/m*3 7.48 C 6.29167 km/h
70 22-11-2020 21:00:00 8.3 C 7.31 g/m*3 7.51 C 6.025 km/h
71 22-11-2020 22:00:00 8.3 C 7.34 g/m*3 7 C 8.06667 km/h
72 22-11-2020 23:00:00 8.3 C 7.42 g/m*3 7.55 C 5.9 km/h
73 23-11-2020 00:00:00 8.21667 C 7.41 g/m*3 6.99 C 7.66667 km/h
74 23-11-2020 01:00:00 8.1 C 7.43 g/m*3 7.44 C 5.49167 km/h
75 23-11-2020 02:00:00 8.025 C 7.37 g/m*3 6.93 C 6.98333 km/h
Sensor: Nr:Datum:Temp:Abs-Feuchte:Windchill:Wind:
Aussen-T/F 76 23-11-2020 03:00:00 7.99167 C 7.35 g/m*3 6.69 C 7.8 km/h
77 23-11-2020 04:00:00 7.83333 C 7.4 g/m*3 6.98 C 6.01667 km/h
78 23-11-2020 05:00:00 7.81667 C 7.39 g/m*3 7.82 C 4.01667 km/h
79 23-11-2020 06:00:00 7.79167 C 7.42 g/m*3 6.85 C 6.29167 km/h
80 23-11-2020 07:00:00 7.69167 C 7.38 g/m*3 6.19 C 8.475 km/h
81 23-11-2020 08:00:00 7.75833 C 7.44 g/m*3 6.66 C 6.83333 km/h
82 23-11-2020 09:00:00 7.875 C 7.61 g/m*3 6.87 C 6.55833 km/h
83 23-11-2020 10:00:00 8.28333 C 7.74 g/m*3 7.57 C 5.76667 km/h
84 23-11-2020 11:00:00 8.84167 C 7.86 g/m*3 8.84 C 4.8 km/h
85 23-11-2020 12:00:00 9.20833 C 7.94 g/m*3 9.21 C 3.73333 km/h
86 23-11-2020 13:00:00 9.46667 C 7.96 g/m*3 9.47 C 1.46667 km/h
87 23-11-2020 14:00:00 9.75833 C 7.96 g/m*3 9.76 C 3.86667 km/h
88 23-11-2020 15:00:00 9.76667 C 7.96 g/m*3 9.77 C 0.26667 km/h
89 23-11-2020 16:00:00 9.23333 C 7.82 g/m*3 9.23 C 0.13333 km/h
90 23-11-2020 17:00:00 7.48333 C 7.12 g/m*3 7.48 C 2.66667 km/h
91 23-11-2020 18:00:00 5.45 C 6.45 g/m*3 5.45 C 0.13333 km/h
92 23-11-2020 19:00:00 4.73333 C 6.28 g/m*3 4.73 C 0.53333 km/h
93 23-11-2020 20:00:00 4.69167 C 6.35 g/m*3 4.69 C 0 km/h
94 23-11-2020 21:00:00 6.075 C 7 g/m*3 6.08 C 0.4 km/h
95 23-11-2020 22:00:00 6.75833 C 7.32 g/m*3 6.76 C 0.8 km/h
96 23-11-2020 23:00:00 6.95833 C 7.42 g/m*3 6.96 C 0 km/h
97 24-11-2020 00:00:00 6.93333 C 7.32 g/m*3 6.93 C 1.33333 km/h
98 24-11-2020 01:00:00 6.65 C 7.12 g/m*3 6.65 C 0.4 km/h
99 24-11-2020 02:00:00 6.45 C 6.98 g/m*3 6.45 C 2.40833 km/h
100 24-11-2020 03:00:00 6.3 C 6.88 g/m*3 6.3 C 1.46667 km/h
Sensor: Nr:Datum:Temp:Abs-Feuchte:Windchill:Wind:
Aussen-T/F 101 24-11-2020 04:00:00 6.05 C 6.81 g/m*3 6.05 C 1.73333 km/h
102 24-11-2020 05:00:00 5.86667 C 6.76 g/m*3 5.87 C 0.66667 km/h
103 24-11-2020 06:00:00 5.775 C 6.72 g/m*3 5.78 C 0.4 km/h
104 24-11-2020 07:00:00 5.6 C 6.65 g/m*3 5.6 C 3.86667 km/h
105 24-11-2020 08:00:00 5.30833 C 6.52 g/m*3 5.31 C 3.46667 km/h
106 24-11-2020 09:00:00 5.24167 C 6.49 g/m*3 5.24 C 2.66667 km/h
107 24-11-2020 10:00:00 5.99167 C 6.78 g/m*3 5.99 C 1.06667 km/h
108 24-11-2020 11:00:00 6.675 C 6.93 g/m*3 6.68 C 2.675 km/h
109 24-11-2020 12:00:00 7.19167 C 6.98 g/m*3 7.19 C 2.93333 km/h
110 24-11-2020 13:00:00 7.275 C 6.97 g/m*3 7.28 C 4.81667 km/h
111 24-11-2020 14:00:00 6.93333 C 6.86 g/m*3 6.93 C 4.275 km/h
112 24-11-2020 15:00:00 6.525 C 6.75 g/m*3 6.53 C 4.00833 km/h
113 24-11-2020 16:00:00 6.46667 C 6.74 g/m*3 6.47 C 1.06667 km/h
114 24-11-2020 17:00:00 6.51667 C 6.76 g/m*3 6.52 C 1.06667 km/h
115 24-11-2020 18:00:00 6.4 C 6.71 g/m*3 6.4 C 1.33333 km/h
116 24-11-2020 19:00:00 6.4 C 6.73 g/m*3 6.4 C 0.53333 km/h
117 24-11-2020 20:00:00 6.4 C 6.78 g/m*3 6.4 C 0.26667 km/h
118 24-11-2020 21:00:00 6.375 C 6.77 g/m*3 6.38 C 0 km/h
119 24-11-2020 22:00:00 6.3 C 6.75 g/m*3 6.3 C 0 km/h
120 24-11-2020 23:00:00 6.275 C 6.72 g/m*3 6.28 C 0.26667 km/h
121 25-11-2020 00:00:00 6.28333 C 6.65 g/m*3 6.28 C 0.4 km/h
122 25-11-2020 01:00:00 6.175 C 6.61 g/m*3 6.18 C 0 km/h
123 25-11-2020 02:00:00 6.05833 C 6.56 g/m*3 6.06 C 0.26667 km/h
124 25-11-2020 03:00:00 5.85 C 6.52 g/m*3 5.85 C 0.53333 km/h
125 25-11-2020 04:00:00 5.53333 C 6.41 g/m*3 5.53 C 0.4 km/h
Sensor: Nr:Datum:Temp:Abs-Feuchte:Windchill:Wind:
Aussen-T/F 126 25-11-2020 05:00:00 4.4 C 5.99 g/m*3 4.4 C 0.66667 km/h
127 25-11-2020 06:00:00 3.43333 C 5.72 g/m*3 3.43 C 1.46667 km/h
128 25-11-2020 07:00:00 2.78333 C 5.53 g/m*3 2.78 C 0.66667 km/h
129 25-11-2020 08:00:00 2.54167 C 5.48 g/m*3 2.54 C 0 km/h
130 25-11-2020 09:00:00 2.93333 C 5.66 g/m*3 2.93 C 0 km/h
131 25-11-2020 10:00:00 4.025 C 6.14 g/m*3 4.03 C 0 km/h
132 25-11-2020 11:00:00 5.58333 C 6.8 g/m*3 5.58 C 0.4 km/h
133 25-11-2020 12:00:00 5.75 C 6.78 g/m*3 5.75 C 0.26667 km/h
134 25-11-2020 13:00:00 6.20833 C 6.98 g/m*3 6.21 C 1.06667 km/h
135 25-11-2020 14:00:00 6.625 C 7.08 g/m*3 6.63 C 0.13333 km/h
136 25-11-2020 15:00:00 6.38333 C 6.92 g/m*3 6.38 C 1.33333 km/h
137 25-11-2020 16:00:00 5.975 C 6.65 g/m*3 4.88 C 5.9 km/h
138 25-11-2020 17:00:00 5.01667 C 6.25 g/m*3 5.02 C 1.6 km/h
139 25-11-2020 18:00:00 4.1 C 5.96 g/m*3 4.1 C 0 km/h
140 25-11-2020 19:00:00 3.48333 C 5.78 g/m*3 3.48 C 0.13333 km/h
141 25-11-2020 20:00:00 3.13333 C 5.7 g/m*3 3.13 C 0.53333 km/h
142 25-11-2020 21:00:00 2.475 C 5.45 g/m*3 2.48 C 0.66667 km/h
143 25-11-2020 22:00:00 2.13333 C 5.33 g/m*3 2.13 C 0 km/h
144 25-11-2020 23:00:00 1.86667 C 5.27 g/m*3 1.87 C 0.4 km/h
145 26-11-2020 00:00:00 1.63333 C 5.2 g/m*3 1.63 C 0 km/h
146 26-11-2020 01:00:00 1.95 C 5.32 g/m*3 1.95 C 0 km/h
147 26-11-2020 02:00:00 2.6 C 5.59 g/m*3 2.6 C 0.13333 km/h
148 26-11-2020 03:00:00 2.81667 C 5.7 g/m*3 2.82 C 0 km/h
149 26-11-2020 04:00:00 3.06667 C 5.79 g/m*3 3.07 C 0.26667 km/h
150 26-11-2020 05:00:00 3.3 C 5.88 g/m*3 3.3 C 0.66667 km/h
Sensor: Nr:Datum:Temp:Abs-Feuchte:Windchill:Wind:
Aussen-T/F 151 26-11-2020 06:00:00 3.025 C 5.75 g/m*3 3.03 C 0.93333 km/h
152 26-11-2020 07:00:00 2.81667 C 5.68 g/m*3 2.82 C 0.93333 km/h
153 26-11-2020 08:00:00 2.59167 C 5.55 g/m*3 2.59 C 2.53333 km/h
154 26-11-2020 09:00:00 2.55833 C 5.57 g/m*3 2.56 C 1.86667 km/h
155 26-11-2020 10:00:00 2.81667 C 5.67 g/m*3 2.82 C 1.06667 km/h
156 26-11-2020 11:00:00 3.55 C 5.96 g/m*3 3.55 C 2 km/h
157 26-11-2020 12:00:00 4.25 C 6.15 g/m*3 4.25 C 2.13333 km/h
158 26-11-2020 13:00:00 4.74167 C 6.23 g/m*3 4.74 C 3.2 km/h
159 26-11-2020 14:00:00 5.09167 C 6.28 g/m*3 5.09 C 3.88333 km/h
160 26-11-2020 15:00:00 5.13333 C 6.25 g/m*3 5.13 C 2.4 km/h
161 26-11-2020 16:00:00 4.81667 C 6.16 g/m*3 4.82 C 1.60833 km/h
162 26-11-2020 17:00:00 4.38333 C 6.03 g/m*3 4.38 C 1.86667 km/h
163 26-11-2020 18:00:00 4.16667 C 5.98 g/m*3 4.17 C 1.6 km/h
164 26-11-2020 19:00:00 4.1 C 5.95 g/m*3 4.1 C 0.13333 km/h
165 26-11-2020 20:00:00 3.85 C 5.83 g/m*3 3.85 C 0.93333 km/h
166 26-11-2020 21:00:00 2.8 C 5.45 g/m*3 2.8 C 1.2 km/h
167 26-11-2020 22:00:00 2.86667 C 5.54 g/m*3 2.87 C 0.53333 km/h
168 26-11-2020 23:00:00 2.59167 C 5.44 g/m*3 2.59 C 0 km/h
169 27-11-2020 00:00:00 2.25833 C 5.35 g/m*3 2.26 C 0 km/h
170 27-11-2020 01:00:00 2.84167 C 5.59 g/m*3 2.84 C 0 km/h
171 27-11-2020 02:00:00 3 C 5.65 g/m*3 3 C 0 km/h
172 27-11-2020 03:00:00 2.91667 C 5.62 g/m*3 2.92 C 0 km/h
173 27-11-2020 04:00:00 2.85833 C 5.59 g/m*3 2.86 C 0.26667 km/h
174 27-11-2020 05:00:00 2.75833 C 5.56 g/m*3 2.76 C 0.4 km/h
175 27-11-2020 06:00:00 2.7 C 5.54 g/m*3 2.7 C 0.4 km/h
Sensor: Nr:Datum:Temp:Abs-Feuchte:Windchill:Wind:
Aussen-T/F 176 27-11-2020 07:00:00 2.68333 C 5.53 g/m*3 2.68 C 0.13333 km/h
177 27-11-2020 08:00:00 2.8 C 5.6 g/m*3 2.8 C 0.13333 km/h
178 27-11-2020 09:00:00 2.96667 C 5.69 g/m*3 2.97 C 0 km/h
179 27-11-2020 10:00:00 3.45833 C 5.83 g/m*3 3.46 C 3.6 km/h
180 27-11-2020 11:00:00 3.85 C 5.91 g/m*3 3.85 C 2.4 km/h
181 27-11-2020 12:00:00 4.01667 C 5.89 g/m*3 2.94 C 5.075 km/h
182 27-11-2020 13:00:00 4.15 C 5.9 g/m*3 4.15 C 3.06667 km/h
183 27-11-2020 14:00:00 4.425 C 6.02 g/m*3 4.43 C 2.53333 km/h
184 27-11-2020 15:00:00 4.675 C 6.11 g/m*3 4.68 C 2.8 km/h
185 27-11-2020 16:00:00 4.6 C 6.09 g/m*3 4.6 C 1.6 km/h
186 27-11-2020 17:00:00 4.6 C 6.12 g/m*3 4.6 C 1.33333 km/h
187 27-11-2020 18:00:00 4.51667 C 6.12 g/m*3 4.52 C 1.33333 km/h
188 27-11-2020 19:00:00 4.45 C 6.09 g/m*3 4.45 C 0.53333 km/h
189 27-11-2020 20:00:00 4.38333 C 6.08 g/m*3 4.38 C 0.53333 km/h
190 27-11-2020 21:00:00 4.39167 C 6.07 g/m*3 4.39 C 0.26667 km/h
191 27-11-2020 22:00:00 4.30833 C 6.04 g/m*3 4.31 C 0 km/h
192 27-11-2020 23:00:00 4.05833 C 5.93 g/m*3 4.06 C 2.4 km/h
193 28-11-2020 00:00:00 3.75833 C 5.81 g/m*3 3.76 C 0.93333 km/h
194 28-11-2020 01:00:00 3.59167 C 5.75 g/m*3 3.59 C 2.66667 km/h
195 28-11-2020 02:00:00 3.425 C 5.7 g/m*3 3.43 C 1.86667 km/h
196 28-11-2020 03:00:00 3.24167 C 5.66 g/m*3 3.24 C 0.8 km/h
197 28-11-2020 04:00:00 2.95 C 5.57 g/m*3 2.95 C 2.26667 km/h
198 28-11-2020 05:00:00 2.88333 C 5.55 g/m*3 2.88 C 1.2 km/h
199 28-11-2020 06:00:00 2.73333 C 5.49 g/m*3 2.73 C 1.46667 km/h
200 28-11-2020 07:00:00 2.56667 C 5.43 g/m*3 2.57 C 0.66667 km/h
Sensor: Nr:Datum:Temp:Abs-Feuchte:Windchill:Wind:
Aussen-T/F 201 28-11-2020 08:00:00 2.41667 C 5.37 g/m*3 2.42 C 0.53333 km/h
202 28-11-2020 09:00:00 2.55833 C 5.42 g/m*3 2.56 C 1.73333 km/h
203 28-11-2020 10:00:00 2.925 C 5.49 g/m*3 2.93 C 2.8 km/h
204 28-11-2020 11:00:00 3.43333 C 5.59 g/m*3 3.43 C 3.2 km/h
205 28-11-2020 12:00:00 3.80833 C 5.62 g/m*3 3.81 C 4 km/h
206 28-11-2020 13:00:00 4.04167 C 5.67 g/m*3 2.96 C 5.08333 km/h
207 28-11-2020 14:00:00 4.15 C 5.73 g/m*3 4.15 C 4.80833 km/h
208 28-11-2020 15:00:00 3.875 C 5.67 g/m*3 3.88 C 1.33333 km/h
209 28-11-2020 16:00:00 3.59167 C 5.61 g/m*3 3.59 C 1.06667 km/h
210 28-11-2020 17:00:00 3.33333 C 5.55 g/m*3 3.33 C 3.34167 km/h
211 28-11-2020 18:00:00 3.2 C 5.53 g/m*3 3.2 C 2.66667 km/h
212 28-11-2020 19:00:00 3.00833 C 5.48 g/m*3 3.01 C 3.74167 km/h
213 28-11-2020 20:00:00 3.075 C 5.56 g/m*3 3.08 C 1.33333 km/h
214 28-11-2020 21:00:00 3.35833 C 5.66 g/m*3 3.36 C 1.33333 km/h
215 28-11-2020 22:00:00 3.63333 C 5.77 g/m*3 3.63 C 0.4 km/h
216 28-11-2020 23:00:00 3.76667 C 5.8 g/m*3 3.77 C 1.06667 km/h
217 29-11-2020 00:00:00 3.85833 C 5.75 g/m*3 3.86 C 4 km/h
218 29-11-2020 01:00:00 3.54167 C 5.51 g/m*3 1.56 C 7.51667 km/h
219 29-11-2020 02:00:00 2.86667 C 5.16 g/m*3 2.87 C 4.40833 km/h
220 29-11-2020 03:00:00 2.7 C 5.07 g/m*3 2.7 C 4.425 km/h
221 29-11-2020 04:00:00 2.48333 C 4.94 g/m*3 2.48 C 4.15 km/h
222 29-11-2020 05:00:00 2.3 C 4.87 g/m*3 2.3 C 2.94167 km/h
223 29-11-2020 06:00:00 2.18333 C 4.8 g/m*3 2.18 C 2.66667 km/h
224 29-11-2020 07:00:00 1.91667 C 4.67 g/m*3 1.92 C 3.34167 km/h
225 29-11-2020 08:00:00 1.71667 C 4.56 g/m*3 1.72 C 4.29167 km/h
Sensor: Nr:Datum:Temp:Abs-Feuchte:Windchill:Wind:
Aussen-T/F 226 29-11-2020 09:00:00 1.58333 C 4.47 g/m*3 0.11 C 5.225 km/h
227 29-11-2020 10:00:00 1.775 C 4.48 g/m*3 0.11 C 5.75833 km/h
228 29-11-2020 11:00:00 2.09167 C 4.47 g/m*3 -0.14 C 7.51667 km/h
229 29-11-2020 12:00:00 2.3 C 4.48 g/m*3 0.61 C 6.03333 km/h
230 29-11-2020 13:00:00 2.58333 C 4.48 g/m*3 0.05 C 8.88333 km/h
231 29-11-2020 14:00:00 2.59167 C 4.44 g/m*3 1 C 5.88333 km/h
232 29-11-2020 15:00:00 2.3 C 4.37 g/m*3 2.3 C 3.20833 km/h
233 29-11-2020 16:00:00 0.56667 C 4.11 g/m*3 0.57 C 2.8 km/h
234 29-11-2020 17:00:00 -0.85833 C 3.96 g/m*3 -0.86 C 1.2 km/h
235 29-11-2020 18:00:00 -1.75 C 3.84 g/m*3 -1.75 C 0 km/h
236 29-11-2020 19:00:00 -2.34167 C 3.75 g/m*3 -2.34 C 0 km/h
237 29-11-2020 20:00:00 -2.71667 C 3.69 g/m*3 -2.72 C 0.26667 km/h
238 29-11-2020 21:00:00 -3.19167 C 3.59 g/m*3 -3.19 C 0 km/h
239 29-11-2020 22:00:00 -3.46667 C 3.54 g/m*3 -3.47 C 0.53333 km/h
240 29-11-2020 23:00:00 -3.55833 C 3.55 g/m*3 -3.56 C 0 km/h
241 30-11-2020 00:00:00 -3.9 C 3.46 g/m*3 -3.9 C 0 km/h
242 30-11-2020 01:00:00 -4.30833 C 3.36 g/m*3 -4.31 C 0 km/h
243 30-11-2020 02:00:00 -4.55 C 3.31 g/m*3 -4.55 C 0 km/h
244 30-11-2020 03:00:00 -4.9 C 3.22 g/m*3 -4.9 C 0 km/h
245 30-11-2020 04:00:00 -5.24167 C 3.15 g/m*3 -5.24 C 0 km/h
246 30-11-2020 05:00:00 -5.35833 C 3.13 g/m*3 -5.36 C 0 km/h
247 30-11-2020 06:00:00 -5.21667 C 3.17 g/m*3 -5.22 C 0.26667 km/h
248 30-11-2020 07:00:00 -5.125 C 3.19 g/m*3 -5.13 C 0.13333 km/h
249 30-11-2020 08:00:00 -5.76667 C 3.03 g/m*3 -5.77 C 0.4 km/h
250 30-11-2020 09:00:00 -5.45833 C 3.12 g/m*3 -5.46 C 0.13333 km/h
Sensor: Nr:Datum:Temp:Abs-Feuchte:Windchill:Wind:
Aussen-T/F 251 30-11-2020 10:00:00 -4.81667 C 3.28 g/m*3 -4.82 C 0.53333 km/h
252 30-11-2020 11:00:00 -3.65833 C 3.56 g/m*3 -3.66 C 1.2 km/h
253 30-11-2020 12:00:00 -2.33333 C 3.94 g/m*3 -2.33 C 1.73333 km/h
254 30-11-2020 13:00:00 0.00833 C 4.66 g/m*3 0.01 C 3.475 km/h
255 30-11-2020 14:00:00 2.01667 C 5.22 g/m*3 2.02 C 3.88333 km/h
256 30-11-2020 15:00:00 2.25833 C 4.99 g/m*3 2.26 C 3.88333 km/h
257 30-11-2020 16:00:00 2.9 C 4.91 g/m*3 0.23 C 9.675 km/h
258 30-11-2020 17:00:00 2.825 C 4.88 g/m*3 0.38 C 8.74167 km/h
259 30-11-2020 18:00:00 3.075 C 4.93 g/m*3 -0.54 C 14.49167 km/h
260 30-11-2020 19:00:00 2.575 C 5.09 g/m*3 -0.53 C 11.29167 km/h
261 30-11-2020 20:00:00 2.10833 C 5.15 g/m*3 -1.51 C 13.29167 km/h
262 30-11-2020 21:00:00 1.90833 C 5.18 g/m*3 -0.23 C 7.125 km/h
263 30-11-2020 22:00:00 1.89167 C 5.22 g/m*3 1.89 C 4.825 km/h
264 30-11-2020 23:00:00 1.575 C 5.11 g/m*3 -1.94 C 12.21667 km/h
265 01-12-2020 00:00:00 1.25833 C 5.02 g/m*3 -2.12 C 11.29167 km/h
266 01-12-2020 01:00:00 1.375 C 5.06 g/m*3 -1.59 C 9.675 km/h
267 01-12-2020 02:00:00 1.49167 C 5.1 g/m*3 -1.08 C 8.30833 km/h
268 01-12-2020 03:00:00 1.61667 C 5.14 g/m*3 -1.78 C 11.7 km/h
269 01-12-2020 04:00:00 1.73333 C 5.18 g/m*3 -1.33 C 10.35833 km/h
270 01-12-2020 05:00:00 1.81667 C 5.21 g/m*3 -0.37 C 7.24167 km/h
271 01-12-2020 06:00:00 1.99167 C 5.28 g/m*3 -0.33 C 7.78333 km/h
272 01-12-2020 07:00:00 2.11667 C 5.33 g/m*3 2.12 C 3.075 km/h
273 01-12-2020 08:00:00 2.125 C 5.38 g/m*3 2.13 C 1.875 km/h
274 01-12-2020 09:00:00 2.325 C 5.45 g/m*3 2.33 C 1.06667 km/h
275 01-12-2020 10:00:00 2.70833 C 5.6 g/m*3 2.71 C 0.4 km/h
Sensor: Nr:Datum:Temp:Abs-Feuchte:Windchill:Wind:
Aussen-T/F 276 01-12-2020 11:00:00 3.06667 C 5.73 g/m*3 3.07 C 0.13333 km/h
277 01-12-2020 12:00:00 3.46667 C 5.92 g/m*3 3.47 C 0.4 km/h
278 01-12-2020 13:00:00 4.00833 C 6.14 g/m*3 4.01 C 0 km/h
279 01-12-2020 14:00:00 4.26667 C 6.21 g/m*3 4.27 C 0.4 km/h
280 01-12-2020 15:00:00 3.91667 C 6.07 g/m*3 3.92 C 0 km/h
281 01-12-2020 16:00:00 3.60833 C 5.95 g/m*3 3.61 C 0 km/h
282 01-12-2020 17:00:00 3.54167 C 5.92 g/m*3 3.54 C 0.13333 km/h
283 01-12-2020 18:00:00 3.575 C 5.93 g/m*3 3.58 C 0.13333 km/h
284 01-12-2020 19:00:00 3.6 C 5.94 g/m*3 3.6 C 0 km/h
285 01-12-2020 20:00:00 3.675 C 5.97 g/m*3 3.68 C 0 km/h
286 01-12-2020 21:00:00 3.55 C 5.97 g/m*3 3.55 C 0.4 km/h
287 01-12-2020 22:00:00 3.39167 C 5.89 g/m*3 3.39 C 0.4 km/h
288 01-12-2020 23:00:00 3.24167 C 5.84 g/m*3 3.24 C 0 km/h
289 02-12-2020 00:00:00 3.2 C 5.85 g/m*3 3.2 C 0 km/h
290 02-12-2020 01:00:00 3.10833 C 5.81 g/m*3 3.11 C 0 km/h
291 02-12-2020 02:00:00 2.89167 C 5.73 g/m*3 2.89 C 0 km/h
292 02-12-2020 03:00:00 2.75 C 5.67 g/m*3 2.75 C 1.06667 km/h
293 02-12-2020 04:00:00 2.65 C 5.63 g/m*3 2.65 C 0 km/h
294 02-12-2020 05:00:00 2.55 C 5.59 g/m*3 2.55 C 0 km/h
295 02-12-2020 06:00:00 2.4 C 5.54 g/m*3 2.4 C 0 km/h
296 02-12-2020 07:00:00 2.4 C 5.54 g/m*3 2.4 C 0 km/h
297 02-12-2020 08:00:00 2.46667 C 5.56 g/m*3 2.47 C 0 km/h
298 02-12-2020 09:00:00 2.7 C 5.65 g/m*3 2.7 C 0.26667 km/h
299 02-12-2020 10:00:00 2.925 C 5.74 g/m*3 2.93 C 0.66667 km/h
300 02-12-2020 11:00:00 3.075 C 5.77 g/m*3 3.08 C 3.06667 km/h
Sensor: Nr:Datum:Temp:Abs-Feuchte:Windchill:Wind:
Aussen-T/F 301 02-12-2020 12:00:00 3.23333 C 5.8 g/m*3 3.23 C 1.46667 km/h
302 02-12-2020 13:00:00 3.53333 C 5.9 g/m*3 3.53 C 1.06667 km/h
303 02-12-2020 14:00:00 3.83333 C 5.95 g/m*3 3.83 C 2.55 km/h
304 02-12-2020 15:00:00 3.65833 C 5.8 g/m*3 3.66 C 0.26667 km/h
305 02-12-2020 16:00:00 3.375 C 5.68 g/m*3 3.38 C 0.13333 km/h
306 02-12-2020 17:00:00 2.94167 C 5.55 g/m*3 2.94 C 0.66667 km/h
307 02-12-2020 18:00:00 2.6 C 5.44 g/m*3 2.6 C 0.26667 km/h
308 02-12-2020 19:00:00 2.425 C 5.4 g/m*3 2.42 C 0.13333 km/h
309 02-12-2020 20:00:00 2.4 C 5.42 g/m*3 2.4 C 0 km/h
310 02-12-2020 21:00:00 2.38333 C 5.42 g/m*3 2.38 C 0.4 km/h
311 02-12-2020 22:00:00 2.36667 C 5.41 g/m*3 2.37 C 0 km/h
312 02-12-2020 23:00:00 2.26667 C 5.38 g/m*3 2.27 C 0 km/h
313 03-12-2020 00:00:00 2.28333 C 5.38 g/m*3 2.28 C 1.33333 km/h
314 03-12-2020 01:00:00 2.33333 C 5.4 g/m*3 2.33 C 2.13333 km/h
315 03-12-2020 02:00:00 2.575 C 5.49 g/m*3 2.58 C 3.33333 km/h
316 03-12-2020 03:00:00 2.6 C 5.5 g/m*3 2.6 C 1.33333 km/h
317 03-12-2020 04:00:00 2.51667 C 5.47 g/m*3 2.52 C 3.73333 km/h
318 03-12-2020 05:00:00 2.44167 C 5.49 g/m*3 2.44 C 0.26667 km/h
319 03-12-2020 06:00:00 2.575 C 5.55 g/m*3 2.58 C 0 km/h
320 03-12-2020 07:00:00 2.7 C 5.59 g/m*3 2.7 C 0.26667 km/h
321 03-12-2020 08:00:00 2.74167 C 5.61 g/m*3 2.74 C 0.66667 km/h
322 03-12-2020 09:00:00 3.18333 C 5.77 g/m*3 3.18 C 2 km/h
323 03-12-2020 10:00:00 4.05 C 5.97 g/m*3 4.05 C 3.475 km/h
324 03-12-2020 11:00:00 4.43333 C 6 g/m*3 3.41 C 5.08333 km/h
325 03-12-2020 12:00:00 4.79167 C 6.04 g/m*3 3.66 C 5.49167 km/h
Sensor: Nr:Datum:Temp:Abs-Feuchte:Windchill:Wind:
Aussen-T/F 326 03-12-2020 13:00:00 5.14167 C 6.08 g/m*3 3.75 C 6.425 km/h
327 03-12-2020 14:00:00 5.05833 C 5.99 g/m*3 3.83 C 5.89167 km/h
328 03-12-2020 15:00:00 4.7 C 5.91 g/m*3 4.7 C 1.86667 km/h
329 03-12-2020 16:00:00 4.46667 C 5.87 g/m*3 4.47 C 1.2 km/h
330 03-12-2020 17:00:00 4.28333 C 5.85 g/m*3 4.28 C 4.69167 km/h
331 03-12-2020 18:00:00 4.3 C 5.81 g/m*3 2.91 C 6.025 km/h
332 03-12-2020 19:00:00 4.25 C 5.74 g/m*3 2.95 C 5.75 km/h
333 03-12-2020 20:00:00 4.00833 C 5.6 g/m*3 2.57 C 6.03333 km/h
334 03-12-2020 21:00:00 3.825 C 5.53 g/m*3 1.93 C 7.375 km/h
335 03-12-2020 22:00:00 3.55833 C 5.45 g/m*3 1.58 C 7.525 km/h
336 03-12-2020 23:00:00 3.375 C 5.5 g/m*3 1.8 C 6.16667 km/h
337 04-12-2020 00:00:00 3.2 C 5.48 g/m*3 1.08 C 7.775 km/h
338 04-12-2020 01:00:00 3.00833 C 5.41 g/m*3 -0.09 C 11.69167 km/h
339 04-12-2020 02:00:00 2.875 C 5.39 g/m*3 -0.17 C 11.29167 km/h
340 04-12-2020 03:00:00 3.05833 C 5.54 g/m*3 0.61 C 8.88333 km/h
341 04-12-2020 04:00:00 3.23333 C 5.62 g/m*3 0.04 C 12.36667 km/h
342 04-12-2020 05:00:00 3.40833 C 5.7 g/m*3 2.02 C 5.64167 km/h
343 04-12-2020 06:00:00 3.675 C 5.89 g/m*3 3.68 C 4.00833 km/h
344 04-12-2020 07:00:00 3.775 C 5.95 g/m*3 3.78 C 2.675 km/h
345 04-12-2020 08:00:00 4.10833 C 6.14 g/m*3 4.11 C 3.35 km/h
346 04-12-2020 09:00:00 4.63333 C 6.37 g/m*3 4.63 C 3.6 km/h
347 04-12-2020 10:00:00 5.36667 C 6.68 g/m*3 5.37 C 3.475 km/h
348 04-12-2020 11:00:00 6.05 C 6.98 g/m*3 6.05 C 2.675 km/h
349 04-12-2020 12:00:00 6.975 C 7.25 g/m*3 6.98 C 1.6 km/h
350 04-12-2020 13:00:00 7.325 C 7.29 g/m*3 7.33 C 2.26667 km/h
Sensor: Nr:Datum:Temp:Abs-Feuchte:Windchill:Wind:
Aussen-T/F 351 04-12-2020 14:00:00 7.64167 C 7.39 g/m*3 7.64 C 0.13333 km/h
352 04-12-2020 15:00:00 7.05 C 7.16 g/m*3 7.05 C 0.93333 km/h
353 04-12-2020 16:00:00 6.11667 C 6.8 g/m*3 6.12 C 2 km/h
354 04-12-2020 17:00:00 5.19167 C 6.46 g/m*3 5.19 C 3.2 km/h
355 04-12-2020 18:00:00 4.5 C 6.22 g/m*3 4.5 C 4.53333 km/h
356 04-12-2020 19:00:00 3.68333 C 5.92 g/m*3 3.68 C 3.33333 km/h
357 04-12-2020 20:00:00 3.84167 C 6.03 g/m*3 3.84 C 0 km/h
358 04-12-2020 21:00:00 3.34167 C 5.84 g/m*3 3.34 C 0 km/h
359 04-12-2020 22:00:00 3.35833 C 5.85 g/m*3 3.36 C 0 km/h
360 04-12-2020 23:00:00 4.35 C 6.31 g/m*3 4.35 C 1.60833 km/h
361 05-12-2020 00:00:00 4.50833 C 6.38 g/m*3 4.51 C 0 km/h
362 05-12-2020 01:00:00 4.41667 C 6.34 g/m*3 4.42 C 0 km/h
363 05-12-2020 02:00:00 4.40833 C 6.34 g/m*3 4.41 C 0 km/h
364 05-12-2020 03:00:00 4.49167 C 6.37 g/m*3 4.49 C 0 km/h
365 05-12-2020 04:00:00 4.29167 C 6.28 g/m*3 4.29 C 0 km/h
366 05-12-2020 05:00:00 3.8 C 6.05 g/m*3 3.8 C 0 km/h
367 05-12-2020 06:00:00 3.75833 C 6.07 g/m*3 3.76 C 0 km/h
368 05-12-2020 07:00:00 3.74167 C 6.06 g/m*3 3.74 C 0 km/h
369 05-12-2020 08:00:00 3.73333 C 6.06 g/m*3 3.73 C 0 km/h
370 05-12-2020 09:00:00 4.46667 C 6.36 g/m*3 4.47 C 0 km/h
371 05-12-2020 10:00:00 4.575 C 6.41 g/m*3 4.58 C 0 km/h
372 05-12-2020 11:00:00 4.45833 C 6.36 g/m*3 4.46 C 2.93333 km/h
373 05-12-2020 12:00:00 5.35833 C 6.77 g/m*3 5.36 C 1.46667 km/h
374 05-12-2020 13:00:00 5.45 C 6.44 g/m*3 5.45 C 4.81667 km/h
375 05-12-2020 14:00:00 5.69167 C 6.46 g/m*3 5.69 C 1.06667 km/h
Sensor: Nr:Datum:Temp:Abs-Feuchte:Windchill:Wind:
Aussen-T/F 376 05-12-2020 15:00:00 4.29167 C 5.96 g/m*3 4.29 C 3.46667 km/h
377 05-12-2020 16:00:00 3.075 C 5.59 g/m*3 3.08 C 0.53333 km/h
378 05-12-2020 17:00:00 2.70833 C 5.52 g/m*3 2.71 C 2.93333 km/h
379 05-12-2020 18:00:00 2.86667 C 5.62 g/m*3 2.87 C 0.13333 km/h
380 05-12-2020 19:00:00 3.63333 C 5.96 g/m*3 3.63 C 0 km/h
381 05-12-2020 20:00:00 3.88333 C 6.06 g/m*3 3.88 C 0 km/h
382 05-12-2020 21:00:00 4.075 C 6.13 g/m*3 4.08 C 0 km/h
383 05-12-2020 22:00:00 3.94167 C 6.08 g/m*3 3.94 C 0.53333 km/h
384 05-12-2020 23:00:00 3.44167 C 5.82 g/m*3 3.44 C 1.34167 km/h
385 06-12-2020 00:00:00 2.53333 C 5.47 g/m*3 2.53 C 0.53333 km/h
386 06-12-2020 01:00:00 2.24167 C 5.4 g/m*3 2.24 C 0.13333 km/h
387 06-12-2020 02:00:00 2.3 C 5.44 g/m*3 2.3 C 0 km/h
388 06-12-2020 03:00:00 2.81667 C 5.64 g/m*3 2.82 C 0.26667 km/h
389 06-12-2020 04:00:00 3.15833 C 5.77 g/m*3 3.16 C 0 km/h
390 06-12-2020 05:00:00 3.2 C 5.8 g/m*3 3.2 C 0 km/h
391 06-12-2020 06:00:00 3.29167 C 5.84 g/m*3 3.29 C 0 km/h
392 06-12-2020 07:00:00 3.3 C 5.82 g/m*3 3.3 C 0 km/h
393 06-12-2020 08:00:00 3.31667 C 5.85 g/m*3 3.32 C 0 km/h
394 06-12-2020 09:00:00 3.59167 C 6 g/m*3 3.59 C 0 km/h
395 06-12-2020 10:00:00 3.91667 C 6.13 g/m*3 3.92 C 1.06667 km/h
396 06-12-2020 11:00:00 4.18333 C 6.24 g/m*3 4.18 C 0.8 km/h
397 06-12-2020 12:00:00 4.45833 C 6.36 g/m*3 4.46 C 1.46667 km/h
398 06-12-2020 13:00:00 4.775 C 6.47 g/m*3 4.78 C 1.6 km/h
399 06-12-2020 14:00:00 4.9 C 6.48 g/m*3 4.9 C 0.4 km/h
400 06-12-2020 15:00:00 5.00833 C 6.54 g/m*3 5.01 C 0 km/h
Sensor: Nr:Datum:Temp:Abs-Feuchte:Windchill:Wind:
Aussen-T/F 401 06-12-2020 16:00:00 4.94167 C 6.5 g/m*3 4.94 C 0 km/h
402 06-12-2020 17:00:00 4.8 C 6.47 g/m*3 4.8 C 1.73333 km/h
403 06-12-2020 18:00:00 4.75 C 6.42 g/m*3 4.75 C 2.13333 km/h
404 06-12-2020 19:00:00 4.7 C 6.44 g/m*3 4.7 C 0.66667 km/h
405 06-12-2020 20:00:00 4.625 C 6.4 g/m*3 4.63 C 1.6 km/h
406 06-12-2020 21:00:00 4.575 C 6.41 g/m*3 4.58 C 2 km/h
407 06-12-2020 22:00:00 4.5 C 6.38 g/m*3 4.5 C 0 km/h
408 06-12-2020 23:00:00 4.41667 C 6.34 g/m*3 4.42 C 0 km/h
409 07-12-2020 00:00:00 4.325 C 6.29 g/m*3 4.33 C 0.8 km/h
410 07-12-2020 01:00:00 4.3 C 6.29 g/m*3 4.3 C 0.8 km/h
411 07-12-2020 02:00:00 4.20833 C 6.25 g/m*3 4.21 C 0.66667 km/h
412 07-12-2020 03:00:00 4.1 C 6.21 g/m*3 4.1 C 1.73333 km/h
413 07-12-2020 04:00:00 4 C 6.17 g/m*3 4 C 0.93333 km/h
414 07-12-2020 05:00:00 3.875 C 6.12 g/m*3 3.88 C 0.66667 km/h
415 07-12-2020 06:00:00 3.9 C 6.13 g/m*3 3.9 C 3.2 km/h
416 07-12-2020 07:00:00 3.81667 C 6.09 g/m*3 3.82 C 1.46667 km/h
417 07-12-2020 08:00:00 3.825 C 6.1 g/m*3 3.83 C 4.80833 km/h
418 07-12-2020 09:00:00 3.94167 C 6.14 g/m*3 2.85 C 5.08333 km/h
419 07-12-2020 10:00:00 4.46667 C 6.36 g/m*3 4.47 C 4.13333 km/h
420 07-12-2020 11:00:00 5.05 C 6.58 g/m*3 3.18 C 8.05 km/h
421 07-12-2020 12:00:00 5.55833 C 6.63 g/m*3 3.55 C 9 km/h
422 07-12-2020 13:00:00 6.125 C 6.58 g/m*3 4.15 C 9.29167 km/h
423 07-12-2020 14:00:00 6.28333 C 6.56 g/m*3 6.28 C 3.60833 km/h
424 07-12-2020 15:00:00 5.9 C 6.49 g/m*3 5.9 C 2.26667 km/h
425 07-12-2020 16:00:00 5.325 C 6.37 g/m*3 5.33 C 1.06667 km/h
Sensor: Nr:Datum:Temp:Abs-Feuchte:Windchill:Wind:
Aussen-T/F 426 07-12-2020 17:00:00 4.86667 C 6.29 g/m*3 4.87 C 1.06667 km/h
427 07-12-2020 18:00:00 4.44167 C 6.15 g/m*3 4.44 C 0.8 km/h
428 07-12-2020 19:00:00 3.15833 C 5.64 g/m*3 3.16 C 3.2 km/h
429 07-12-2020 20:00:00 1.88333 C 5.21 g/m*3 1.88 C 4.4 km/h
430 07-12-2020 21:00:00 1.85 C 5.27 g/m*3 1.85 C 1.46667 km/h
431 07-12-2020 22:00:00 2.51667 C 5.52 g/m*3 2.52 C 0 km/h
432 07-12-2020 23:00:00 2.80833 C 5.63 g/m*3 2.81 C 0 km/h
433 08-12-2020 00:00:00 3.075 C 5.74 g/m*3 3.08 C 0 km/h
434 08-12-2020 01:00:00 3.10833 C 5.75 g/m*3 3.11 C 0 km/h
435 08-12-2020 02:00:00 3.00833 C 5.72 g/m*3 3.01 C 0 km/h
436 08-12-2020 03:00:00 2.875 C 5.69 g/m*3 2.88 C 0.26667 km/h
437 08-12-2020 04:00:00 3.225 C 5.86 g/m*3 3.23 C 0 km/h
438 08-12-2020 05:00:00 3.11667 C 5.76 g/m*3 3.12 C 0.8 km/h
439 08-12-2020 06:00:00 2.93333 C 5.67 g/m*3 2.93 C 0.66667 km/h
440 08-12-2020 07:00:00 2.9 C 5.61 g/m*3 2.9 C 0 km/h
441 08-12-2020 08:00:00 2.66667 C 5.49 g/m*3 2.67 C 0.4 km/h
442 08-12-2020 09:00:00 2.75833 C 5.56 g/m*3 2.76 C 0 km/h
443 08-12-2020 10:00:00 3.40833 C 5.71 g/m*3 3.41 C 3.75 km/h
444 08-12-2020 11:00:00 4.35833 C 5.81 g/m*3 4.36 C 4.275 km/h
445 08-12-2020 12:00:00 4.95 C 5.79 g/m*3 4.95 C 4.55833 km/h
446 08-12-2020 13:00:00 5.35833 C 5.83 g/m*3 4.36 C 5.35833 km/h
447 08-12-2020 14:00:00 5.71667 C 5.9 g/m*3 5.72 C 4.81667 km/h
448 08-12-2020 15:00:00 5.78333 C 6.05 g/m*3 5.78 C 0.93333 km/h
449 08-12-2020 16:00:00 5.175 C 6.07 g/m*3 5.18 C 0.66667 km/h
450 08-12-2020 17:00:00 4.45 C 5.97 g/m*3 4.45 C 1.6 km/h
Sensor: Nr:Datum:Temp:Abs-Feuchte:Windchill:Wind:
Aussen-T/F 451 08-12-2020 18:00:00 3.625 C 5.73 g/m*3 3.63 C 1.2 km/h
452 08-12-2020 19:00:00 2.8 C 5.46 g/m*3 2.8 C 0.26667 km/h
453 08-12-2020 20:00:00 2.3 C 5.33 g/m*3 2.3 C 0 km/h
454 08-12-2020 21:00:00 1.79167 C 5.17 g/m*3 1.79 C 0 km/h
455 08-12-2020 22:00:00 0.94167 C 4.91 g/m*3 0.94 C 0 km/h
456 08-12-2020 23:00:00 0.475 C 4.76 g/m*3 0.48 C 0 km/h
457 09-12-2020 00:00:00 0.175 C 4.68 g/m*3 0.18 C 0 km/h
458 09-12-2020 01:00:00 0.84167 C 4.93 g/m*3 0.84 C 0 km/h
459 09-12-2020 02:00:00 1.35833 C 5.11 g/m*3 1.36 C 0 km/h
460 09-12-2020 03:00:00 1.69167 C 5.26 g/m*3 1.69 C 0 km/h
461 09-12-2020 04:00:00 2.31667 C 5.51 g/m*3 2.32 C 1.73333 km/h
462 09-12-2020 05:00:00 2.80833 C 5.68 g/m*3 2.81 C 3.20833 km/h
463 09-12-2020 06:00:00 3 C 5.66 g/m*3 3 C 3.34167 km/h
464 09-12-2020 07:00:00 3.175 C 5.57 g/m*3 1.66 C 5.90833 km/h
465 09-12-2020 08:00:00 3.24167 C 5.54 g/m*3 3.24 C 3.20833 km/h
466 09-12-2020 09:00:00 3.21667 C 5.55 g/m*3 3.22 C 0.26667 km/h
467 09-12-2020 10:00:00 3.425 C 5.62 g/m*3 3.43 C 0.13333 km/h
468 09-12-2020 11:00:00 3.75 C 5.66 g/m*3 3.75 C 0.66667 km/h
469 09-12-2020 12:00:00 4.16667 C 5.74 g/m*3 4.17 C 0.8 km/h
470 09-12-2020 13:00:00 4.59167 C 5.78 g/m*3 3.34 C 5.75833 km/h
471 09-12-2020 14:00:00 4.525 C 5.53 g/m*3 2.42 C 8.6 km/h
472 09-12-2020 15:00:00 3.775 C 5.32 g/m*3 2.4 C 5.75833 km/h
473 09-12-2020 16:00:00 2.30833 C 5 g/m*3 2.31 C 4.13333 km/h
474 09-12-2020 17:00:00 0.85833 C 4.69 g/m*3 0.86 C 2.13333 km/h
475 09-12-2020 18:00:00 -0.05833 C 4.47 g/m*3 -0.06 C 1.2 km/h
Sensor: Nr:Datum:Temp:Abs-Feuchte:Windchill:Wind:
Aussen-T/F 476 09-12-2020 19:00:00 -0.25833 C 4.49 g/m*3 -0.26 C 3.33333 km/h
477 09-12-2020 20:00:00 0.31667 C 4.7 g/m*3 0.32 C 1.6 km/h
478 09-12-2020 21:00:00 0.70833 C 4.8 g/m*3 0.71 C 1.06667 km/h
479 09-12-2020 22:00:00 1.03333 C 4.86 g/m*3 1.03 C 1.2 km/h
480 09-12-2020 23:00:00 1.19167 C 4.87 g/m*3 1.19 C 1.6 km/h
481 10-12-2020 00:00:00 1.36667 C 4.88 g/m*3 1.37 C 1.06667 km/h
482 10-12-2020 01:00:00 1.41667 C 4.9 g/m*3 1.42 C 0.53333 km/h
483 10-12-2020 02:00:00 1.55833 C 4.95 g/m*3 1.56 C 0.66667 km/h
484 10-12-2020 03:00:00 1.59167 C 4.94 g/m*3 1.59 C 1.33333 km/h
485 10-12-2020 04:00:00 0.81667 C 4.67 g/m*3 0.82 C 1.2 km/h
486 10-12-2020 05:00:00 -0.3 C 4.39 g/m*3 -0.3 C 0.26667 km/h
487 10-12-2020 06:00:00 -0.875 C 4.28 g/m*3 -0.88 C 0 km/h
488 10-12-2020 07:00:00 -1.375 C 4.14 g/m*3 -1.38 C 0 km/h
489 10-12-2020 08:00:00 -1.78333 C 4.06 g/m*3 -1.78 C 0 km/h
490 10-12-2020 09:00:00 -1.85 C 4.05 g/m*3 -1.85 C 0 km/h
491 10-12-2020 10:00:00 -1.39167 C 4.22 g/m*3 -1.39 C 0 km/h
492 10-12-2020 11:00:00 -0.50833 C 4.49 g/m*3 -0.51 C 2.4 km/h
493 10-12-2020 12:00:00 0.05 C 4.67 g/m*3 0.05 C 1.06667 km/h
494 10-12-2020 13:00:00 0.46667 C 4.82 g/m*3 0.47 C 0.26667 km/h
495 10-12-2020 14:00:00 1.175 C 5.05 g/m*3 1.18 C 0.8 km/h
496 10-12-2020 15:00:00 1.1 C 4.9 g/m*3 1.1 C 1.46667 km/h
497 10-12-2020 16:00:00 1.175 C 4.84 g/m*3 1.18 C 0.26667 km/h
498 10-12-2020 17:00:00 0.925 C 4.74 g/m*3 0.93 C 0 km/h
499 10-12-2020 18:00:00 0.74167 C 4.67 g/m*3 0.74 C 0 km/h
500 10-12-2020 19:00:00 0.63333 C 4.67 g/m*3 0.63 C 0 km/h
Sensor: Nr:Datum:Temp:Abs-Feuchte:Windchill:Wind:
Aussen-T/F 501 10-12-2020 20:00:00 0.81667 C 4.77 g/m*3 0.82 C 0 km/h
502 10-12-2020 21:00:00 0.99167 C 4.82 g/m*3 0.99 C 0.26667 km/h
503 10-12-2020 22:00:00 1.175 C 4.89 g/m*3 1.18 C 0.13333 km/h
504 10-12-2020 23:00:00 1.23333 C 4.87 g/m*3 1.23 C 0.8 km/h
505 11-12-2020 00:00:00 1.39167 C 4.9 g/m*3 1.39 C 0.26667 km/h
506 11-12-2020 01:00:00 1.2 C 4.82 g/m*3 1.2 C 0 km/h
507 11-12-2020 02:00:00 0.325 C 4.59 g/m*3 0.33 C 0.66667 km/h
508 11-12-2020 03:00:00 0.925 C 4.82 g/m*3 0.93 C 2.54167 km/h
509 11-12-2020 04:00:00 0.65833 C 4.69 g/m*3 0.66 C 1.2 km/h
510 11-12-2020 05:00:00 0.15833 C 4.57 g/m*3 0.16 C 1.86667 km/h
511 11-12-2020 06:00:00 0.54167 C 4.74 g/m*3 0.54 C 4.55 km/h
512 11-12-2020 07:00:00 1.64167 C 4.93 g/m*3 1.64 C 3.34167 km/h
513 11-12-2020 08:00:00 2.14167 C 4.96 g/m*3 2.14 C 4.825 km/h
514 11-12-2020 09:00:00 2.575 C 5.07 g/m*3 0.97 C 5.9 km/h
515 11-12-2020 10:00:00 3.125 C 5.21 g/m*3 3.13 C 4.00833 km/h
516 11-12-2020 11:00:00 3.44167 C 5.38 g/m*3 1.83 C 6.29167 km/h
517 11-12-2020 12:00:00 3.7 C 5.54 g/m*3 2.47 C 5.34167 km/h
518 11-12-2020 13:00:00 4.44167 C 5.66 g/m*3 2.85 C 6.71667 km/h
519 11-12-2020 14:00:00 4.49167 C 5.58 g/m*3 2.28 C 9.025 km/h
520 11-12-2020 15:00:00 4.05833 C 5.56 g/m*3 2.16 C 7.51667 km/h
521 11-12-2020 16:00:00 3.63333 C 5.58 g/m*3 1.91 C 6.71667 km/h
522 11-12-2020 17:00:00 3.71667 C 5.66 g/m*3 1.47 C 8.58333 km/h
523 11-12-2020 18:00:00 3.68333 C 5.71 g/m*3 2.15 C 6.16667 km/h
524 11-12-2020 19:00:00 3.79167 C 5.76 g/m*3 2.01 C 6.98333 km/h
525 11-12-2020 20:00:00 3.94167 C 5.83 g/m*3 3.94 C 1.6 km/h
Sensor: Nr:Datum:Temp:Abs-Feuchte:Windchill:Wind:
Aussen-T/F 526 11-12-2020 21:00:00 3.925 C 5.86 g/m*3 3.93 C 0 km/h
527 11-12-2020 22:00:00 3.825 C 5.85 g/m*3 3.83 C 0 km/h
528 11-12-2020 23:00:00 3.85 C 5.92 g/m*3 3.85 C 0 km/h
529 12-12-2020 00:00:00 3.81667 C 5.94 g/m*3 3.82 C 0.4 km/h
530 12-12-2020 01:00:00 4.05 C 6.06 g/m*3 4.05 C 0.66667 km/h
531 12-12-2020 02:00:00 4.40833 C 6.22 g/m*3 4.41 C 1.2 km/h
532 12-12-2020 03:00:00 4.80833 C 6.38 g/m*3 4.81 C 0 km/h
533 12-12-2020 04:00:00 4.9 C 6.41 g/m*3 4.9 C 0 km/h
534 12-12-2020 05:00:00 4.90833 C 6.42 g/m*3 4.91 C 0 km/h
535 12-12-2020 06:00:00 5.05833 C 6.48 g/m*3 5.06 C 0 km/h
536 12-12-2020 07:00:00 5.15 C 6.58 g/m*3 5.15 C 0.4 km/h
537 12-12-2020 08:00:00 5.28333 C 6.65 g/m*3 5.28 C 0 km/h
538 12-12-2020 09:00:00 5.625 C 6.8 g/m*3 5.63 C 0 km/h
539 12-12-2020 10:00:00 6.16667 C 7.03 g/m*3 6.17 C 0 km/h
540 12-12-2020 11:00:00 6.80833 C 7.18 g/m*3 6.81 C 0 km/h
541 12-12-2020 12:00:00 7.4 C 7.31 g/m*3 7.4 C 0.4 km/h
542 12-12-2020 13:00:00 7.7 C 7.38 g/m*3 7.7 C 0.66667 km/h
543 12-12-2020 14:00:00 7.68333 C 7.44 g/m*3 7.68 C 0.26667 km/h
544 12-12-2020 15:00:00 7.475 C 7.53 g/m*3 7.48 C 0 km/h
545 12-12-2020 16:00:00 7.2 C 7.43 g/m*3 7.2 C 0 km/h
546 12-12-2020 17:00:00 6.7 C 7.21 g/m*3 6.7 C 0 km/h
547 12-12-2020 18:00:00 6.66667 C 7.23 g/m*3 6.67 C 0 km/h
548 12-12-2020 19:00:00 6.36667 C 7.12 g/m*3 6.37 C 0 km/h
549 12-12-2020 20:00:00 6.66667 C 7.28 g/m*3 6.67 C 0.13333 km/h
550 12-12-2020 21:00:00 6.675 C 7.29 g/m*3 6.68 C 0 km/h
Sensor: Nr:Datum:Temp:Abs-Feuchte:Windchill:Wind:
Aussen-T/F 551 12-12-2020 22:00:00 6.55 C 7.27 g/m*3 6.55 C 0 km/h
552 12-12-2020 23:00:00 6.2 C 7.1 g/m*3 6.2 C 0 km/h
553 13-12-2020 00:00:00 6.35833 C 7.21 g/m*3 6.36 C 0 km/h
554 13-12-2020 01:00:00 6.18333 C 7.13 g/m*3 6.18 C 0 km/h
555 13-12-2020 02:00:00 6.40833 C 7.23 g/m*3 6.41 C 0 km/h
556 13-12-2020 03:00:00 6.83333 C 7.43 g/m*3 6.83 C 0.13333 km/h
557 13-12-2020 04:00:00 7.23333 C 7.63 g/m*3 7.23 C 2.8 km/h
558 13-12-2020 05:00:00 7.3 C 7.66 g/m*3 7.3 C 0 km/h
559 13-12-2020 06:00:00 7.275 C 7.65 g/m*3 7.28 C 1.46667 km/h
560 13-12-2020 07:00:00 7.30833 C 7.67 g/m*3 7.31 C 2.53333 km/h
561 13-12-2020 08:00:00 7.21667 C 7.62 g/m*3 7.22 C 2.4 km/h
562 13-12-2020 09:00:00 7.24167 C 7.64 g/m*3 7.24 C 1.2 km/h
563 13-12-2020 10:00:00 6.45833 C 7.25 g/m*3 6.46 C 2.53333 km/h
564 13-12-2020 11:00:00 6.39167 C 7.22 g/m*3 5.31 C 6.03333 km/h
565 13-12-2020 12:00:00 6.6 C 7.2 g/m*3 5.47 C 6.31667 km/h
566 13-12-2020 13:00:00 7.825 C 7.25 g/m*3 7.09 C 5.61667 km/h
567 13-12-2020 14:00:00 7.675 C 7.03 g/m*3 7.68 C 4.28333 km/h
568 13-12-2020 15:00:00 6.46667 C 6.66 g/m*3 6.47 C 4.26667 km/h
569 13-12-2020 16:00:00 5.325 C 6.31 g/m*3 5.33 C 4.93333 km/h
570 13-12-2020 17:00:00 4.04167 C 5.9 g/m*3 4.04 C 4.8 km/h
571 13-12-2020 18:00:00 3.5 C 5.79 g/m*3 3.5 C 0 km/h
572 13-12-2020 19:00:00 3.6 C 5.88 g/m*3 3.6 C 0 km/h
573 13-12-2020 20:00:00 3.66667 C 5.93 g/m*3 3.67 C 0.4 km/h
574 13-12-2020 21:00:00 4.24167 C 6.16 g/m*3 4.24 C 1.06667 km/h
575 13-12-2020 22:00:00 3.49167 C 5.78 g/m*3 3.49 C 1.73333 km/h
Sensor: Nr:Datum:Temp:Abs-Feuchte:Windchill:Wind:
Aussen-T/F 576 13-12-2020 23:00:00 3.15 C 5.69 g/m*3 3.15 C 2.80833 km/h
577 14-12-2020 00:00:00 3.3 C 5.78 g/m*3 3.3 C 2.8 km/h
578 14-12-2020 01:00:00 3.90833 C 6.02 g/m*3 3.91 C 0 km/h
579 14-12-2020 02:00:00 4.44167 C 6.15 g/m*3 4.44 C 2 km/h
580 14-12-2020 03:00:00 4.04167 C 6 g/m*3 4.04 C 1.33333 km/h
581 14-12-2020 04:00:00 4.78333 C 6.36 g/m*3 4.78 C 0.26667 km/h
582 14-12-2020 05:00:00 5.15833 C 6.52 g/m*3 5.16 C 0 km/h
583 14-12-2020 06:00:00 5.3 C 6.52 g/m*3 5.3 C 0 km/h
584 14-12-2020 07:00:00 5.50833 C 6.59 g/m*3 5.51 C 0.13333 km/h
585 14-12-2020 08:00:00 5.675 C 6.6 g/m*3 5.68 C 1.06667 km/h
586 14-12-2020 09:00:00 6.21667 C 6.66 g/m*3 6.22 C 1.46667 km/h
587 14-12-2020 10:00:00 7.025 C 6.78 g/m*3 7.03 C 0.53333 km/h
588 14-12-2020 11:00:00 6.55833 C 6.71 g/m*3 6.56 C 0.93333 km/h
589 14-12-2020 12:00:00 6.48333 C 6.79 g/m*3 6.48 C 3.34167 km/h
590 14-12-2020 13:00:00 7.775 C 7.24 g/m*3 7.78 C 1.2 km/h
591 14-12-2020 14:00:00 9.05 C 7.22 g/m*3 9.05 C 2.26667 km/h
592 14-12-2020 15:00:00 8.89167 C 7.22 g/m*3 8.89 C 1.075 km/h
593 14-12-2020 16:00:00 7.40833 C 6.8 g/m*3 7.41 C 2.66667 km/h
594 14-12-2020 17:00:00 6.05 C 6.49 g/m*3 6.05 C 1.06667 km/h
595 14-12-2020 18:00:00 5.85833 C 6.51 g/m*3 5.86 C 0.8 km/h
596 14-12-2020 19:00:00 6.05 C 6.6 g/m*3 6.05 C 2.26667 km/h
597 14-12-2020 20:00:00 6.10833 C 6.65 g/m*3 6.11 C 0.13333 km/h
598 14-12-2020 21:00:00 6.28333 C 6.67 g/m*3 6.28 C 0.4 km/h
599 14-12-2020 22:00:00 7.24167 C 6.76 g/m*3 7.24 C 3.61667 km/h
600 14-12-2020 23:00:00 6.94167 C 6.71 g/m*3 6.94 C 0.26667 km/h
Sensor: Nr:Datum:Temp:Abs-Feuchte:Windchill:Wind:
Aussen-T/F 601 15-12-2020 00:00:00 6.70833 C 6.76 g/m*3 6.71 C 0.53333 km/h
602 15-12-2020 01:00:00 6.75 C 6.94 g/m*3 6.75 C 2 km/h
603 15-12-2020 02:00:00 6.775 C 7.11 g/m*3 6.78 C 1.2 km/h
604 15-12-2020 03:00:00 6.8 C 7.22 g/m*3 6.8 C 2.4 km/h
605 15-12-2020 04:00:00 6.8 C 7.27 g/m*3 6.8 C 0.8 km/h
606 15-12-2020 05:00:00 6.78333 C 7.33 g/m*3 6.78 C 0 km/h
607 15-12-2020 06:00:00 6.775 C 7.33 g/m*3 6.78 C 0 km/h
608 15-12-2020 07:00:00 6.73333 C 7.31 g/m*3 6.73 C 0.13333 km/h
609 15-12-2020 08:00:00 6.56667 C 7.26 g/m*3 6.57 C 0 km/h
610 15-12-2020 09:00:00 6.96667 C 7.5 g/m*3 6.97 C 0 km/h
611 15-12-2020 10:00:00 7.66667 C 7.85 g/m*3 7.67 C 0.66667 km/h
612 15-12-2020 11:00:00 8.45 C 8.26 g/m*3 8.45 C 1.06667 km/h
613 15-12-2020 12:00:00 9.00833 C 8.56 g/m*3 9.01 C 0.93333 km/h
614 15-12-2020 13:00:00 9.7 C 8.94 g/m*3 9.7 C 0 km/h
615 15-12-2020 14:00:00 9.80833 C 9 g/m*3 9.81 C 0 km/h
616 15-12-2020 15:00:00 9.91667 C 9.07 g/m*3 9.92 C 0 km/h
617 15-12-2020 16:00:00 9.86667 C 9.04 g/m*3 9.87 C 0.26667 km/h
618 15-12-2020 17:00:00 9.75833 C 8.98 g/m*3 9.76 C 0 km/h
619 15-12-2020 18:00:00 9.79167 C 8.99 g/m*3 9.79 C 2.8 km/h
620 15-12-2020 19:00:00 8.9 C 8.5 g/m*3 8.9 C 3.33333 km/h
621 15-12-2020 20:00:00 7.90833 C 7.97 g/m*3 7.91 C 2.675 km/h
622 15-12-2020 21:00:00 7.10833 C 7.56 g/m*3 7.11 C 1.86667 km/h
623 15-12-2020 22:00:00 6.225 C 7.14 g/m*3 6.23 C 0.13333 km/h
624 15-12-2020 23:00:00 5.91667 C 7.01 g/m*3 5.92 C 0.13333 km/h
625 16-12-2020 00:00:00 6.625 C 7.37 g/m*3 6.63 C 0.13333 km/h
Sensor: Nr:Datum:Temp:Abs-Feuchte:Windchill:Wind:
Aussen-T/F 626 16-12-2020 01:00:00 6.325 C 7.19 g/m*3 6.33 C 0.13333 km/h
627 16-12-2020 02:00:00 6.41667 C 7.3 g/m*3 6.42 C 0.26667 km/h
628 16-12-2020 03:00:00 6.73333 C 7.46 g/m*3 6.73 C 0.13333 km/h
629 16-12-2020 04:00:00 6.70833 C 7.45 g/m*3 6.71 C 0 km/h
630 16-12-2020 05:00:00 6.3 C 7.19 g/m*3 6.3 C 0 km/h
631 16-12-2020 06:00:00 6.425 C 7.3 g/m*3 6.43 C 0 km/h
632 16-12-2020 07:00:00 6.50833 C 7.35 g/m*3 6.51 C 0.13333 km/h
633 16-12-2020 08:00:00 7.15833 C 7.67 g/m*3 7.16 C 0 km/h
634 16-12-2020 09:00:00 7.44167 C 7.81 g/m*3 7.44 C 0 km/h
635 16-12-2020 10:00:00 8.43333 C 8.33 g/m*3 8.43 C 0.13333 km/h
636 16-12-2020 11:00:00 9.43333 C 8.88 g/m*3 9.43 C 0.4 km/h
637 16-12-2020 12:00:00 9.89167 C 9.15 g/m*3 9.89 C 4.275 km/h
638 16-12-2020 13:00:00 9.91667 C 9.06 g/m*3 9.92 C 4.41667 km/h
639 16-12-2020 14:00:00 9.76667 C 8.85 g/m*3 9.77 C 2.93333 km/h
640 16-12-2020 15:00:00 9.46667 C 8.65 g/m*3 9.47 C 0.4 km/h
641 16-12-2020 16:00:00 7.875 C 7.79 g/m*3 7.88 C 1.6 km/h
642 16-12-2020 17:00:00 7.125 C 7.51 g/m*3 7.13 C 2.93333 km/h
643 16-12-2020 18:00:00 6.875 C 7.41 g/m*3 6.88 C 3.06667 km/h
644 16-12-2020 19:00:00 7 C 7.52 g/m*3 7 C 2.13333 km/h
645 16-12-2020 20:00:00 6.71667 C 7.38 g/m*3 6.72 C 2 km/h
646 16-12-2020 21:00:00 6.31667 C 7.19 g/m*3 6.32 C 2.4 km/h
647 16-12-2020 22:00:00 6.85833 C 7.47 g/m*3 6.86 C 2.8 km/h
648 16-12-2020 23:00:00 7.23333 C 7.67 g/m*3 7.23 C 1.73333 km/h
649 17-12-2020 00:00:00 7.04167 C 7.54 g/m*3 7.04 C 2 km/h
650 17-12-2020 01:00:00 6.53333 C 7.29 g/m*3 6.53 C 2.13333 km/h
Sensor: Nr:Datum:Temp:Abs-Feuchte:Windchill:Wind:
Aussen-T/F 651 17-12-2020 02:00:00 6.225 C 7.16 g/m*3 6.23 C 0.66667 km/h
652 17-12-2020 03:00:00 7.05833 C 7.62 g/m*3 7.06 C 3.33333 km/h
653 17-12-2020 04:00:00 7.25 C 7.72 g/m*3 7.25 C 0.8 km/h
654 17-12-2020 05:00:00 7.2 C 7.69 g/m*3 7.2 C 1.86667 km/h
655 17-12-2020 06:00:00 7.25 C 7.7 g/m*3 7.25 C 2 km/h
656 17-12-2020 07:00:00 6.79167 C 7.45 g/m*3 6.79 C 1.2 km/h
657 17-12-2020 08:00:00 7.03333 C 7.61 g/m*3 7.03 C 0.66667 km/h
658 17-12-2020 09:00:00 7.79167 C 7.99 g/m*3 7.79 C 0.53333 km/h
659 17-12-2020 10:00:00 8.94167 C 8.61 g/m*3 8.94 C 2.80833 km/h
660 17-12-2020 11:00:00 9.04167 C 8.66 g/m*3 9.04 C 4.00833 km/h
661 17-12-2020 12:00:00 8.85833 C 8.4 g/m*3 7.71 C 7.8 km/h
662 17-12-2020 13:00:00 9.70833 C 8.36 g/m*3 8.34 C 9.65833 km/h
663 17-12-2020 14:00:00 10.175 C 8.27 g/m*3 9.2 C 8.05833 km/h
664 17-12-2020 15:00:00 9.58333 C 7.92 g/m*3 8.48 C 8.19167 km/h
665 17-12-2020 16:00:00 8.56667 C 7.57 g/m*3 7.57 C 6.95833 km/h
666 17-12-2020 17:00:00 7.29167 C 7.21 g/m*3 6.4 C 5.86667 km/h
667 17-12-2020 18:00:00 6.69167 C 7.11 g/m*3 6.69 C 3.86667 km/h
668 17-12-2020 19:00:00 5.05833 C 6.37 g/m*3 5.06 C 0.53333 km/h
669 17-12-2020 20:00:00 4.93333 C 6.46 g/m*3 4.93 C 3.2 km/h
670 17-12-2020 21:00:00 5.03333 C 6.54 g/m*3 5.03 C 0.8 km/h
671 17-12-2020 22:00:00 4.85 C 6.46 g/m*3 4.85 C 0.26667 km/h
672 17-12-2020 23:00:00 4.63333 C 6.39 g/m*3 4.63 C 0 km/h
673 18-12-2020 00:00:00 4.14167 C 6.18 g/m*3 4.14 C 0 km/h
674 18-12-2020 01:00:00 4.53333 C 6.39 g/m*3 4.53 C 0.53333 km/h
675 18-12-2020 02:00:00 4.24167 C 6.26 g/m*3 4.24 C 0 km/h
Sensor: Nr:Datum:Temp:Abs-Feuchte:Windchill:Wind:
Aussen-T/F 676 18-12-2020 03:00:00 3.4 C 5.9 g/m*3 3.4 C 0.13333 km/h
677 18-12-2020 04:00:00 4.05 C 6.19 g/m*3 4.05 C 0.26667 km/h
678 18-12-2020 05:00:00 3.79167 C 6.07 g/m*3 3.79 C 0.13333 km/h
679 18-12-2020 06:00:00 3.025 C 5.78 g/m*3 3.03 C 0 km/h
680 18-12-2020 07:00:00 2.59167 C 5.61 g/m*3 2.59 C 0.13333 km/h
681 18-12-2020 08:00:00 2.35 C 5.52 g/m*3 2.35 C 0 km/h
682 18-12-2020 09:00:00 2.45 C 5.56 g/m*3 2.45 C 0 km/h
683 18-12-2020 10:00:00 2.36667 C 5.53 g/m*3 2.37 C 0 km/h
684 18-12-2020 11:00:00 2.875 C 5.73 g/m*3 2.88 C 0.26667 km/h
685 18-12-2020 12:00:00 4.3 C 6.36 g/m*3 4.3 C 2.53333 km/h
686 18-12-2020 13:00:00 6.65833 C 7.43 g/m*3 6.66 C 0 km/h
687 18-12-2020 14:00:00 6.8 C 7.5 g/m*3 6.8 C 1.73333 km/h
688 18-12-2020 15:00:00 5.925 C 7.03 g/m*3 5.93 C 3.2 km/h
689 18-12-2020 16:00:00 5.38333 C 6.78 g/m*3 5.38 C 3.49167 km/h
690 18-12-2020 17:00:00 5.66667 C 6.92 g/m*3 5.67 C 3.34167 km/h
691 18-12-2020 18:00:00 4.95833 C 6.57 g/m*3 4.96 C 1.6 km/h
692 18-12-2020 19:00:00 4.88333 C 6.55 g/m*3 4.88 C 0.26667 km/h
693 18-12-2020 20:00:00 3.94167 C 6.14 g/m*3 3.94 C 0.4 km/h
694 18-12-2020 21:00:00 3.85 C 6.12 g/m*3 3.85 C 1.2 km/h
695 18-12-2020 22:00:00 5.53333 C 6.9 g/m*3 5.53 C 1.88333 km/h
696 18-12-2020 23:00:00 5.90833 C 7.07 g/m*3 5.91 C 0.93333 km/h
697 19-12-2020 00:00:00 4.98333 C 6.6 g/m*3 4.98 C 1.33333 km/h
698 19-12-2020 01:00:00 3.89167 C 6.12 g/m*3 3.89 C 2.26667 km/h
699 19-12-2020 02:00:00 3.79167 C 6.08 g/m*3 3.79 C 2.26667 km/h
700 19-12-2020 03:00:00 4.425 C 6.39 g/m*3 4.43 C 0.4 km/h
Sensor: Nr:Datum:Temp:Abs-Feuchte:Windchill:Wind:
Aussen-T/F 701 19-12-2020 04:00:00 4.20833 C 6.26 g/m*3 4.21 C 0.53333 km/h
702 19-12-2020 05:00:00 4.05 C 6.24 g/m*3 4.05 C 0.93333 km/h
703 19-12-2020 06:00:00 3.65833 C 6.04 g/m*3 3.66 C 1.46667 km/h
704 19-12-2020 07:00:00 3.3 C 5.88 g/m*3 3.3 C 1.06667 km/h
705 19-12-2020 08:00:00 2.99167 C 5.78 g/m*3 2.99 C 0 km/h
706 19-12-2020 09:00:00 2.5 C 5.59 g/m*3 2.5 C 0.26667 km/h
707 19-12-2020 10:00:00 2.94167 C 5.78 g/m*3 2.94 C 0.93333 km/h
708 19-12-2020 11:00:00 5.43333 C 6.85 g/m*3 5.43 C 3.46667 km/h
709 19-12-2020 12:00:00 7.04167 C 7.61 g/m*3 7.04 C 3.86667 km/h
710 19-12-2020 13:00:00 8.13333 C 8.19 g/m*3 8.13 C 3.86667 km/h
711 19-12-2020 14:00:00 9.1 C 8.7 g/m*3 9.1 C 3.33333 km/h
712 19-12-2020 15:00:00 9.36667 C 8.78 g/m*3 9.37 C 3.75 km/h
713 19-12-2020 16:00:00 8.89167 C 8.16 g/m*3 8.89 C 2.26667 km/h
714 19-12-2020 17:00:00 8.525 C 7.89 g/m*3 8.53 C 3.20833 km/h
715 19-12-2020 18:00:00 8.8 C 7.73 g/m*3 8.8 C 4.95833 km/h
716 19-12-2020 19:00:00 8.8 C 7.66 g/m*3 8.8 C 4.275 km/h
717 19-12-2020 20:00:00 8.825 C 7.71 g/m*3 8.82 C 4.68333 km/h
718 19-12-2020 21:00:00 8.75833 C 7.67 g/m*3 8.76 C 4.275 km/h
719 19-12-2020 22:00:00 8.6 C 7.67 g/m*3 8.6 C 1.6 km/h
720 19-12-2020 23:00:00 8.33333 C 7.71 g/m*3 8.33 C 0.93333 km/h
721 20-12-2020 00:00:00 8.25 C 7.69 g/m*3 8.25 C 4.69167 km/h
722 20-12-2020 01:00:00 8.125 C 7.57 g/m*3 8.13 C 1.74167 km/h
723 20-12-2020 02:00:00 8.125 C 7.61 g/m*3 8.13 C 1.06667 km/h
724 20-12-2020 03:00:00 7.89167 C 7.51 g/m*3 7.89 C 2.13333 km/h
725 20-12-2020 04:00:00 8.09167 C 7.65 g/m*3 8.09 C 1.86667 km/h
Sensor: Nr:Datum:Temp:Abs-Feuchte:Windchill:Wind:
Aussen-T/F 726 20-12-2020 05:00:00 7.71667 C 7.62 g/m*3 7.72 C 0.26667 km/h
727 20-12-2020 06:00:00 7.5 C 7.6 g/m*3 7.5 C 0 km/h
728 20-12-2020 07:00:00 7.46667 C 7.65 g/m*3 7.47 C 0.13333 km/h
729 20-12-2020 08:00:00 7.25833 C 7.56 g/m*3 7.26 C 1.06667 km/h
730 20-12-2020 09:00:00 7.13333 C 7.5 g/m*3 7.13 C 0 km/h
731 20-12-2020 10:00:00 7.55 C 7.78 g/m*3 7.55 C 0 km/h
732 20-12-2020 11:00:00 8.58333 C 8.33 g/m*3 8.58 C 3.2 km/h
733 20-12-2020 12:00:00 9.65 C 8.85 g/m*3 9.65 C 3.46667 km/h
734 20-12-2020 13:00:00 10.01667 C 8.85 g/m*3 10.02 C 4.95 km/h
735 20-12-2020 14:00:00 10.15833 C 8.83 g/m*3 10.16 C 0.93333 km/h
736 20-12-2020 15:00:00 9.74167 C 8.6 g/m*3 9.74 C 0.13333 km/h
737 20-12-2020 16:00:00 9.21667 C 8.31 g/m*3 9.22 C 1.86667 km/h
738 20-12-2020 17:00:00 8.66667 C 7.98 g/m*3 8.67 C 3.2 km/h
739 20-12-2020 18:00:00 8.23333 C 7.77 g/m*3 8.23 C 4.4 km/h
740 20-12-2020 19:00:00 7.175 C 7.24 g/m*3 7.18 C 0.93333 km/h
741 20-12-2020 20:00:00 5.85 C 6.76 g/m*3 5.85 C 0.13333 km/h
742 20-12-2020 21:00:00 6.05 C 6.98 g/m*3 6.05 C 0.4 km/h
743 20-12-2020 22:00:00 6.26667 C 7.12 g/m*3 6.27 C 2.675 km/h
744 20-12-2020 23:00:00 7.01667 C 7.48 g/m*3 6.03 C 6.025 km/h
745 21-12-2020 00:00:00 7.05 C 7.38 g/m*3 7.05 C 3.33333 km/h
746 21-12-2020 01:00:00 5.825 C 6.74 g/m*3 5.83 C 0 km/h
747 21-12-2020 02:00:00 4.99167 C 6.47 g/m*3 4.99 C 0 km/h
748 21-12-2020 03:00:00 4.29167 C 6.2 g/m*3 4.29 C 0 km/h
749 21-12-2020 04:00:00 4.7 C 6.43 g/m*3 4.7 C 0 km/h
750 21-12-2020 05:00:00 4.725 C 6.43 g/m*3 4.72 C 0 km/h
Sensor: Nr:Datum:Temp:Abs-Feuchte:Windchill:Wind:
Aussen-T/F 751 21-12-2020 06:00:00 4.25 C 6.24 g/m*3 4.25 C 1.2 km/h
752 21-12-2020 07:00:00 5.8 C 6.97 g/m*3 5.8 C 2.26667 km/h
753 21-12-2020 08:00:00 5.26667 C 6.7 g/m*3 5.27 C 0 km/h
754 21-12-2020 09:00:00 5.26667 C 6.71 g/m*3 5.27 C 0.26667 km/h
755 21-12-2020 10:00:00 6.13333 C 7.1 g/m*3 6.13 C 0.66667 km/h
756 21-12-2020 11:00:00 7.39167 C 7.71 g/m*3 7.39 C 1.86667 km/h
757 21-12-2020 12:00:00 8.575 C 8.16 g/m*3 8.57 C 3.33333 km/h
758 21-12-2020 13:00:00 9.71667 C 8.17 g/m*3 9.72 C 4.95 km/h
759 21-12-2020 14:00:00 9.8 C 8.05 g/m*3 9.8 C 0.93333 km/h
760 21-12-2020 15:00:00 8.90833 C 8.06 g/m*3 8.91 C 0.4 km/h
761 21-12-2020 16:00:00 8.23333 C 7.88 g/m*3 8.23 C 0.13333 km/h
762 21-12-2020 17:00:00 7.86667 C 7.81 g/m*3 7.87 C 0.66667 km/h
763 21-12-2020 18:00:00 7.99167 C 7.93 g/m*3 7.99 C 2.13333 km/h
764 21-12-2020 19:00:00 8.18333 C 8.05 g/m*3 8.18 C 1.2 km/h
765 21-12-2020 20:00:00 8.35833 C 8.21 g/m*3 8.36 C 1.46667 km/h
766 21-12-2020 21:00:00 8.75 C 8.42 g/m*3 8.1 C 5.76667 km/h
767 21-12-2020 22:00:00 9.26667 C 8.69 g/m*3 7.97 C 8.86667 km/h
768 21-12-2020 23:00:00 9.69167 C 8.85 g/m*3 9.69 C 4.14167 km/h
769 22-12-2020 00:00:00 10.33333 C 9.18 g/m*3 8.83 C 11.275 km/h
770 22-12-2020 01:00:00 11.35 C 9.56 g/m*3 11.35 C 15.43333 km/h
771 22-12-2020 02:00:00 11.99167 C 9.88 g/m*3 11.99 C 14.5 km/h
772 22-12-2020 03:00:00 12.76667 C 10.2 g/m*3 12.77 C 17.30833 km/h
773 22-12-2020 04:00:00 13.18333 C 10.39 g/m*3 13.18 C 14.63333 km/h
774 22-12-2020 05:00:00 13.225 C 10.57 g/m*3 13.23 C 19.03333 km/h
775 22-12-2020 06:00:00 13.41667 C 10.66 g/m*3 13.42 C 18.5 km/h
Sensor: Nr:Datum:Temp:Abs-Feuchte:Windchill:Wind:
Aussen-T/F 776 22-12-2020 07:00:00 13.6 C 10.71 g/m*3 13.6 C 15.56667 km/h
777 22-12-2020 08:00:00 13.51667 C 10.65 g/m*3 13.52 C 16.76667 km/h
778 22-12-2020 09:00:00 13.64167 C 10.74 g/m*3 13.64 C 14.63333 km/h
779 22-12-2020 10:00:00 13.85833 C 10.95 g/m*3 13.86 C 14.36667 km/h
780 22-12-2020 11:00:00 14.25833 C 11.22 g/m*3 14.26 C 12.76667 km/h
781 22-12-2020 12:00:00 14.46667 C 11.39 g/m*3 14.47 C 13.425 km/h
782 22-12-2020 13:00:00 14.80833 C 11.39 g/m*3 14.81 C 13.3 km/h
783 22-12-2020 14:00:00 14.81667 C 11.31 g/m*3 14.82 C 14.23333 km/h
784 22-12-2020 15:00:00 14.48333 C 11.23 g/m*3 14.48 C 11.7 km/h
785 22-12-2020 16:00:00 14.025 C 11.01 g/m*3 14.03 C 8.86667 km/h
786 22-12-2020 17:00:00 13.59167 C 10.79 g/m*3 13.59 C 6.58333 km/h
787 22-12-2020 18:00:00 13.20833 C 10.82 g/m*3 13.21 C 2.4 km/h
788 22-12-2020 19:00:00 12.89167 C 10.76 g/m*3 12.89 C 2.26667 km/h
789 22-12-2020 20:00:00 12.35 C 10.46 g/m*3 12.35 C 5.49167 km/h
790 22-12-2020 21:00:00 11.83333 C 10.18 g/m*3 11.83 C 2.4 km/h
791 22-12-2020 22:00:00 11.675 C 10.13 g/m*3 11.68 C 0 km/h
792 22-12-2020 23:00:00 11.55833 C 10.06 g/m*3 11.56 C 0.26667 km/h
793 23-12-2020 00:00:00 11.65833 C 10.12 g/m*3 11.66 C 0 km/h
794 23-12-2020 01:00:00 11.76667 C 10.19 g/m*3 11.77 C 0.13333 km/h
795 23-12-2020 02:00:00 11.65833 C 10.12 g/m*3 11.66 C 0.53333 km/h
796 23-12-2020 03:00:00 11.65 C 10.11 g/m*3 11.65 C 0 km/h
797 23-12-2020 04:00:00 11.61667 C 10.14 g/m*3 11.62 C 0.66667 km/h
798 23-12-2020 05:00:00 11.49167 C 10.07 g/m*3 11.49 C 0.13333 km/h
799 23-12-2020 06:00:00 11.23333 C 9.89 g/m*3 11.23 C 0 km/h
800 23-12-2020 07:00:00 11.275 C 9.98 g/m*3 11.28 C 0.93333 km/h
Sensor: Nr:Datum:Temp:Abs-Feuchte:Windchill:Wind:
Aussen-T/F 801 23-12-2020 08:00:00 11.55 C 10.15 g/m*3 11.55 C 2 km/h
802 23-12-2020 09:00:00 11.6 C 10.19 g/m*3 11.6 C 0.4 km/h
803 23-12-2020 10:00:00 11.875 C 10.36 g/m*3 11.88 C 1.06667 km/h
804 23-12-2020 11:00:00 12.45 C 10.74 g/m*3 12.45 C 0.13333 km/h
805 23-12-2020 12:00:00 12.6 C 10.84 g/m*3 12.6 C 0 km/h
806 23-12-2020 13:00:00 12.81667 C 10.99 g/m*3 12.82 C 0.53333 km/h
807 23-12-2020 14:00:00 12.825 C 10.99 g/m*3 12.83 C 2 km/h
808 23-12-2020 15:00:00 12.55833 C 10.81 g/m*3 12.56 C 2.4 km/h
809 23-12-2020 16:00:00 12.03333 C 10.47 g/m*3 12.03 C 2.8 km/h
810 23-12-2020 17:00:00 11.59167 C 10.18 g/m*3 11.59 C 3.2 km/h
811 23-12-2020 18:00:00 11.30833 C 10 g/m*3 11.31 C 6.3 km/h
812 23-12-2020 19:00:00 11.44167 C 9.95 g/m*3 11.44 C 13.95833 km/h
813 23-12-2020 20:00:00 11.61667 C 9.79 g/m*3 11.62 C 11.03333 km/h
814 23-12-2020 21:00:00 11.71667 C 9.73 g/m*3 11.72 C 9.69167 km/h
815 23-12-2020 22:00:00 11.575 C 9.66 g/m*3 11.58 C 8.175 km/h
816 23-12-2020 23:00:00 11.025 C 8.76 g/m*3 11.03 C 14.36667 km/h
817 24-12-2020 00:00:00 9.8 C 7.96 g/m*3 7.92 C 13.03333 km/h
818 24-12-2020 01:00:00 8.88333 C 7.46 g/m*3 7.03 C 11.56667 km/h
819 24-12-2020 02:00:00 8.60833 C 7.33 g/m*3 6.39 C 13.56667 km/h
820 24-12-2020 03:00:00 8.13333 C 7.19 g/m*3 6.1 C 11.69167 km/h
821 24-12-2020 04:00:00 8.075 C 7.08 g/m*3 6.17 C 10.89167 km/h
822 24-12-2020 05:00:00 8.225 C 7.02 g/m*3 6.04 C 12.76667 km/h
823 24-12-2020 06:00:00 7.94167 C 7.16 g/m*3 6.91 C 6.71667 km/h
824 24-12-2020 07:00:00 7.975 C 7.2 g/m*3 5.68 C 13.16667 km/h
825 24-12-2020 08:00:00 7.7 C 7.23 g/m*3 5.95 C 9.68333 km/h
Sensor: Nr:Datum:Temp:Abs-Feuchte:Windchill:Wind:
Aussen-T/F 826 24-12-2020 09:00:00 7.39167 C 7.3 g/m*3 5.96 C 7.91667 km/h
827 24-12-2020 10:00:00 7.55 C 7.46 g/m*3 6.38 C 6.975 km/h
828 24-12-2020 11:00:00 8.225 C 7.6 g/m*3 7.1 C 7.25 km/h
829 24-12-2020 12:00:00 8.48333 C 7.41 g/m*3 7.27 C 7.79167 km/h
830 24-12-2020 13:00:00 8.96667 C 7.51 g/m*3 8.13 C 6.55833 km/h
831 24-12-2020 14:00:00 6.775 C 6.91 g/m*3 3.77 C 16.23333 km/h
832 24-12-2020 15:00:00 5.28333 C 6.42 g/m*3 3.04 C 9.81667 km/h
833 24-12-2020 16:00:00 4.88333 C 6.32 g/m*3 4.88 C 4.825 km/h
834 24-12-2020 17:00:00 4.525 C 6.19 g/m*3 4.53 C 4.28333 km/h
835 24-12-2020 18:00:00 4.46667 C 6.22 g/m*3 4.47 C 3.08333 km/h
836 24-12-2020 19:00:00 4.68333 C 6.36 g/m*3 4.68 C 3.34167 km/h
837 24-12-2020 20:00:00 4.3 C 6.16 g/m*3 2.48 C 7.38333 km/h
838 24-12-2020 21:00:00 4.29167 C 6.19 g/m*3 4.29 C 4.275 km/h
839 24-12-2020 22:00:00 4.35833 C 6.22 g/m*3 4.36 C 4.69167 km/h
840 24-12-2020 23:00:00 4.55833 C 6.28 g/m*3 3.3 C 5.75833 km/h
841 25-12-2020 00:00:00 4.6 C 6.26 g/m*3 2.95 C 6.975 km/h
842 25-12-2020 01:00:00 4.44167 C 6.15 g/m*3 3.36 C 5.21667 km/h
843 25-12-2020 02:00:00 4.30833 C 6.1 g/m*3 4.31 C 4.14167 km/h
844 25-12-2020 03:00:00 4.35 C 6.12 g/m*3 4.35 C 3.33333 km/h
845 25-12-2020 04:00:00 4.30833 C 6.03 g/m*3 2.27 C 8.19167 km/h
846 25-12-2020 05:00:00 4.19167 C 5.86 g/m*3 2.98 C 5.49167 km/h
847 25-12-2020 06:00:00 3.89167 C 5.69 g/m*3 2.09 C 7.10833 km/h
848 25-12-2020 07:00:00 3.74167 C 5.52 g/m*3 1.57 C 8.33333 km/h
849 25-12-2020 08:00:00 3.275 C 5.29 g/m*3 1.05 C 8.19167 km/h
850 25-12-2020 09:00:00 3.1 C 5.21 g/m*3 1.38 C 6.44167 km/h
Sensor: Nr:Datum:Temp:Abs-Feuchte:Windchill:Wind:
Aussen-T/F 851 25-12-2020 10:00:00 2.89167 C 5.14 g/m*3 2.89 C 4.825 km/h
852 25-12-2020 11:00:00 2.675 C 5.19 g/m*3 0.94 C 6.3 km/h
853 25-12-2020 12:00:00 3.9 C 5.57 g/m*3 1.65 C 8.73333 km/h
854 25-12-2020 13:00:00 4.08333 C 5.65 g/m*3 1.9 C 8.60833 km/h
855 25-12-2020 14:00:00 4.35833 C 5.68 g/m*3 2.33 C 8.2 km/h
856 25-12-2020 15:00:00 4.46667 C 5.76 g/m*3 4.47 C 3.49167 km/h
857 25-12-2020 16:00:00 3.40833 C 5.52 g/m*3 3.41 C 1.2 km/h
858 25-12-2020 17:00:00 2.11667 C 5.17 g/m*3 2.12 C 1.73333 km/h
859 25-12-2020 18:00:00 1.625 C 5.1 g/m*3 1.63 C 3.46667 km/h
860 25-12-2020 19:00:00 1.475 C 5.09 g/m*3 1.48 C 0.8 km/h
861 25-12-2020 20:00:00 2.00833 C 5.33 g/m*3 2.01 C 2.26667 km/h
862 25-12-2020 21:00:00 2.29167 C 5.43 g/m*3 2.29 C 0.8 km/h
863 25-12-2020 22:00:00 2.23333 C 5.41 g/m*3 2.23 C 0.26667 km/h
864 25-12-2020 23:00:00 2.575 C 5.55 g/m*3 2.58 C 0.26667 km/h
865 26-12-2020 00:00:00 2.64167 C 5.57 g/m*3 2.64 C 0 km/h
866 26-12-2020 01:00:00 2.48333 C 5.48 g/m*3 2.48 C 2.80833 km/h
867 26-12-2020 02:00:00 2.3 C 5.39 g/m*3 0.19 C 7.25833 km/h
868 26-12-2020 03:00:00 2.275 C 5.38 g/m*3 0.68 C 5.75833 km/h
869 26-12-2020 04:00:00 2.15833 C 5.34 g/m*3 2.16 C 3.06667 km/h
870 26-12-2020 05:00:00 1.975 C 5.27 g/m*3 1.98 C 0 km/h
871 26-12-2020 06:00:00 1.39167 C 5.06 g/m*3 1.39 C 0.26667 km/h
872 26-12-2020 07:00:00 0.95833 C 4.93 g/m*3 0.96 C 0.13333 km/h
873 26-12-2020 08:00:00 0.83333 C 4.93 g/m*3 0.83 C 0.8 km/h
874 26-12-2020 09:00:00 1.775 C 5.26 g/m*3 1.78 C 2.26667 km/h
875 26-12-2020 10:00:00 2.60833 C 5.55 g/m*3 2.61 C 1.06667 km/h
Sensor: Nr:Datum:Temp:Abs-Feuchte:Windchill:Wind:
Aussen-T/F 876 26-12-2020 11:00:00 3.64167 C 5.79 g/m*3 1.97 C 6.575 km/h
877 26-12-2020 12:00:00 4.375 C 5.71 g/m*3 1.83 C 10.36667 km/h
878 26-12-2020 13:00:00 4.575 C 5.65 g/m*3 2.22 C 9.69167 km/h
879 26-12-2020 14:00:00 4.48333 C 5.52 g/m*3 2.08 C 9.81667 km/h
880 26-12-2020 15:00:00 4.11667 C 5.35 g/m*3 2.12 C 7.925 km/h
881 26-12-2020 16:00:00 3.9 C 5.24 g/m*3 1.58 C 9 km/h
882 26-12-2020 17:00:00 3.9 C 5.25 g/m*3 2.27 C 6.56667 km/h
883 26-12-2020 18:00:00 3.88333 C 5.24 g/m*3 1.56 C 9 km/h
884 26-12-2020 19:00:00 3.43333 C 5.11 g/m*3 1.73 C 6.575 km/h
885 26-12-2020 20:00:00 3.55 C 5.12 g/m*3 1.73 C 6.975 km/h
886 26-12-2020 21:00:00 3.225 C 5.06 g/m*3 1.49 C 6.56667 km/h
887 26-12-2020 22:00:00 3.025 C 5.06 g/m*3 0.8 C 8.05 km/h
888 26-12-2020 23:00:00 2.9 C 4.98 g/m*3 0.36 C 9.14167 km/h
889 27-12-2020 00:00:00 2.825 C 4.99 g/m*3 0.89 C 6.975 km/h
890 27-12-2020 01:00:00 2.99167 C 5.05 g/m*3 0.3 C 9.81667 km/h
891 27-12-2020 02:00:00 3.25833 C 5.08 g/m*3 1.27 C 7.375 km/h
892 27-12-2020 03:00:00 3.15833 C 5.06 g/m*3 1.9 C 5.21667 km/h
893 27-12-2020 04:00:00 3.24167 C 5.08 g/m*3 1.17 C 7.65833 km/h
894 27-12-2020 05:00:00 3.4 C 5.08 g/m*3 0.83 C 9.66667 km/h
895 27-12-2020 06:00:00 3.44167 C 5.1 g/m*3 1.21 C 8.33333 km/h
896 27-12-2020 07:00:00 3.55 C 5.22 g/m*3 1.73 C 6.98333 km/h
897 27-12-2020 08:00:00 3.83333 C 5.3 g/m*3 1.51 C 8.975 km/h
898 27-12-2020 09:00:00 3.88333 C 5.4 g/m*3 1.28 C 10.20833 km/h
899 27-12-2020 10:00:00 3.925 C 5.45 g/m*3 1.82 C 8.18333 km/h
900 27-12-2020 11:00:00 4.56667 C 5.5 g/m*3 1.76 C 11.83333 km/h
Sensor: Nr:Datum:Temp:Abs-Feuchte:Windchill:Wind:
Aussen-T/F 901 27-12-2020 12:00:00 4.625 C 5.68 g/m*3 2.4 C 9.15 km/h
902 27-12-2020 13:00:00 4.16667 C 5.78 g/m*3 2.1 C 8.2 km/h
903 27-12-2020 14:00:00 3.9 C 5.78 g/m*3 1.65 C 8.73333 km/h
904 27-12-2020 15:00:00 3.8 C 5.83 g/m*3 1.64 C 8.325 km/h
905 27-12-2020 16:00:00 3.8 C 5.85 g/m*3 2.34 C 6.025 km/h
906 27-12-2020 17:00:00 3.85833 C 5.88 g/m*3 1.47 C 9.25833 km/h
907 27-12-2020 18:00:00 3.74167 C 5.85 g/m*3 2.08 C 6.575 km/h
908 27-12-2020 19:00:00 3.95833 C 5.95 g/m*3 1.68 C 8.875 km/h
909 27-12-2020 20:00:00 4.1 C 6.02 g/m*3 3.03 C 5.08333 km/h
910 27-12-2020 21:00:00 4.13333 C 6.05 g/m*3 3.01 C 5.21667 km/h
911 27-12-2020 22:00:00 4.1 C 6.08 g/m*3 4.1 C 1.46667 km/h
912 27-12-2020 23:00:00 4.10833 C 6.12 g/m*3 4.11 C 1.6 km/h
913 28-12-2020 00:00:00 4.15 C 6.17 g/m*3 4.15 C 1.6 km/h
914 28-12-2020 01:00:00 4.11667 C 6.15 g/m*3 4.12 C 0.66667 km/h
915 28-12-2020 02:00:00 3.78333 C 6.02 g/m*3 3.78 C 0.53333 km/h
916 28-12-2020 03:00:00 3.66667 C 5.99 g/m*3 3.67 C 1.46667 km/h
917 28-12-2020 04:00:00 3.725 C 6.04 g/m*3 3.73 C 2.01667 km/h
918 28-12-2020 05:00:00 3.86667 C 6.11 g/m*3 3.87 C 0.8 km/h
919 28-12-2020 06:00:00 3.71667 C 6.03 g/m*3 3.72 C 1.06667 km/h
920 28-12-2020 07:00:00 3.08333 C 5.74 g/m*3 3.08 C 0.8 km/h
921 28-12-2020 08:00:00 2 C 5.33 g/m*3 2 C 2.4 km/h
922 28-12-2020 09:00:00 2.55 C 5.59 g/m*3 2.55 C 0.93333 km/h
923 28-12-2020 10:00:00 3.8 C 6.09 g/m*3 3.8 C 0 km/h
924 28-12-2020 11:00:00 4.59167 C 6.42 g/m*3 4.59 C 0.66667 km/h
925 28-12-2020 12:00:00 5.04167 C 6.49 g/m*3 5.04 C 3.33333 km/h
Sensor: Nr:Datum:Temp:Abs-Feuchte:Windchill:Wind:
Aussen-T/F 926 28-12-2020 13:00:00 5.59167 C 6.59 g/m*3 5.59 C 0.8 km/h
927 28-12-2020 14:00:00 5.675 C 6.68 g/m*3 5.68 C 1.06667 km/h
928 28-12-2020 15:00:00 5.15 C 6.45 g/m*3 5.15 C 3.48333 km/h
929 28-12-2020 16:00:00 4.68333 C 6.28 g/m*3 4.68 C 3.475 km/h
930 28-12-2020 17:00:00 4.01667 C 6.03 g/m*3 4.02 C 0.8 km/h
931 28-12-2020 18:00:00 3.81667 C 5.99 g/m*3 3.82 C 0.4 km/h
932 28-12-2020 19:00:00 3.21667 C 5.76 g/m*3 3.22 C 1.73333 km/h
933 28-12-2020 20:00:00 1.95 C 5.27 g/m*3 1.95 C 2 km/h
934 28-12-2020 21:00:00 2.64167 C 5.58 g/m*3 2.64 C 0 km/h
935 28-12-2020 22:00:00 1.64167 C 5.2 g/m*3 1.64 C 2.13333 km/h
936 28-12-2020 23:00:00 1.70833 C 5.25 g/m*3 1.71 C 2.13333 km/h
937 29-12-2020 00:00:00 2.58333 C 5.59 g/m*3 2.58 C 1.875 km/h
938 29-12-2020 01:00:00 2.6 C 5.56 g/m*3 2.6 C 0.8 km/h
939 29-12-2020 02:00:00 2.58333 C 5.55 g/m*3 2.58 C 3.33333 km/h
940 29-12-2020 03:00:00 1.86667 C 5.26 g/m*3 1.87 C 2.4 km/h
941 29-12-2020 04:00:00 2 C 5.35 g/m*3 2 C 0 km/h
942 29-12-2020 05:00:00 2.39167 C 5.48 g/m*3 2.39 C 0 km/h
943 29-12-2020 06:00:00 2.38333 C 5.5 g/m*3 2.38 C 1.73333 km/h
944 29-12-2020 07:00:00 2.64167 C 5.63 g/m*3 1.26 C 5.35833 km/h
945 29-12-2020 08:00:00 2.93333 C 5.74 g/m*3 2.93 C 4.28333 km/h
946 29-12-2020 09:00:00 3.2 C 5.83 g/m*3 0.96 C 8.2 km/h
947 29-12-2020 10:00:00 3.53333 C 5.9 g/m*3 2.08 C 5.89167 km/h
948 29-12-2020 11:00:00 4.03333 C 5.9 g/m*3 0.75 C 13.83333 km/h
949 29-12-2020 12:00:00 4.78333 C 5.98 g/m*3 1.42 C 15.43333 km/h
950 29-12-2020 13:00:00 5.00833 C 5.91 g/m*3 1.88 C 14.23333 km/h
Sensor: Nr:Datum:Temp:Abs-Feuchte:Windchill:Wind:
Aussen-T/F 951 29-12-2020 14:00:00 5 C 5.9 g/m*3 3.05 C 8.31667 km/h
952 29-12-2020 15:00:00 4.90833 C 6.05 g/m*3 4.91 C 2.81667 km/h
953 29-12-2020 16:00:00 4.35833 C 5.97 g/m*3 4.36 C 2.4 km/h
954 29-12-2020 17:00:00 3.85 C 5.85 g/m*3 3.85 C 1.73333 km/h
955 29-12-2020 18:00:00 3.13333 C 5.56 g/m*3 3.13 C 1.86667 km/h
956 29-12-2020 19:00:00 2.00833 C 5.22 g/m*3 2.01 C 2.66667 km/h
957 29-12-2020 20:00:00 1.83333 C 5.24 g/m*3 1.83 C 0 km/h
958 29-12-2020 21:00:00 1.65833 C 5.17 g/m*3 1.66 C 0.4 km/h
959 29-12-2020 22:00:00 1.16667 C 5.03 g/m*3 1.17 C 1.2 km/h
960 29-12-2020 23:00:00 1.39167 C 5.12 g/m*3 1.39 C 0 km/h
961 30-12-2020 00:00:00 1.925 C 5.32 g/m*3 1.93 C 0 km/h
962 30-12-2020 01:00:00 2.025 C 5.34 g/m*3 2.03 C 0 km/h
963 30-12-2020 02:00:00 2.26667 C 5.47 g/m*3 2.27 C 0 km/h
964 30-12-2020 03:00:00 2.54167 C 5.59 g/m*3 2.54 C 0 km/h
965 30-12-2020 04:00:00 2.61667 C 5.62 g/m*3 2.62 C 0 km/h
966 30-12-2020 05:00:00 2.78333 C 5.68 g/m*3 2.78 C 0 km/h
967 30-12-2020 06:00:00 2.96667 C 5.75 g/m*3 2.97 C 0 km/h
968 30-12-2020 07:00:00 3.45833 C 5.95 g/m*3 3.46 C 1.6 km/h
969 30-12-2020 08:00:00 3.625 C 6.01 g/m*3 3.63 C 1.2 km/h
970 30-12-2020 09:00:00 3.78333 C 6.08 g/m*3 3.78 C 1.6 km/h
971 30-12-2020 10:00:00 4.2 C 6.25 g/m*3 4.2 C 2.26667 km/h
972 30-12-2020 11:00:00 4.45 C 6.26 g/m*3 2.95 C 6.43333 km/h
973 30-12-2020 12:00:00 4.75 C 6.18 g/m*3 2.65 C 8.74167 km/h
974 30-12-2020 13:00:00 5.06667 C 5.93 g/m*3 3.27 C 7.78333 km/h
975 30-12-2020 14:00:00 5.675 C 6.07 g/m*3 5.68 C 4.54167 km/h
Sensor: Nr:Datum:Temp:Abs-Feuchte:Windchill:Wind:
Aussen-T/F 976 30-12-2020 15:00:00 5.79167 C 5.95 g/m*3 4.23 C 7.375 km/h
977 30-12-2020 16:00:00 5.475 C 5.92 g/m*3 3.68 C 8.05 km/h
978 30-12-2020 17:00:00 4.9 C 5.72 g/m*3 3.22 C 7.24167 km/h
979 30-12-2020 18:00:00 4.65 C 5.7 g/m*3 2.37 C 9.41667 km/h
980 30-12-2020 19:00:00 4.34167 C 5.71 g/m*3 3.2 C 5.35 km/h
981 30-12-2020 20:00:00 4.28333 C 5.7 g/m*3 2.89 C 6.04167 km/h
982 30-12-2020 21:00:00 4.23333 C 5.7 g/m*3 4.23 C 4.55 km/h
983 30-12-2020 22:00:00 4 C 5.66 g/m*3 4 C 2 km/h
984 30-12-2020 23:00:00 4.01667 C 5.7 g/m*3 4.02 C 1.875 km/h
985 31-12-2020 00:00:00 4.03333 C 5.68 g/m*3 4.03 C 1.46667 km/h
986 31-12-2020 01:00:00 3.43333 C 5.53 g/m*3 3.43 C 0.66667 km/h
987 31-12-2020 02:00:00 3.175 C 5.51 g/m*3 3.18 C 1.46667 km/h
988 31-12-2020 03:00:00 2.84167 C 5.4 g/m*3 2.84 C 0.66667 km/h
989 31-12-2020 04:00:00 2.78333 C 5.39 g/m*3 2.78 C 0 km/h
990 31-12-2020 05:00:00 2.80833 C 5.44 g/m*3 2.81 C 0.26667 km/h
991 31-12-2020 06:00:00 2.95833 C 5.56 g/m*3 2.96 C 0 km/h
992 31-12-2020 07:00:00 2.79167 C 5.51 g/m*3 2.79 C 1.06667 km/h
993 31-12-2020 08:00:00 2.69167 C 5.47 g/m*3 2.69 C 2.53333 km/h
994 31-12-2020 09:00:00 2.68333 C 5.48 g/m*3 2.68 C 1.06667 km/h
995 31-12-2020 10:00:00 3.16667 C 5.66 g/m*3 3.17 C 0.93333 km/h
996 31-12-2020 11:00:00 3.75833 C 5.72 g/m*3 3.76 C 3.6 km/h
997 31-12-2020 12:00:00 4.05 C 5.77 g/m*3 4.05 C 3.21667 km/h
998 31-12-2020 13:00:00 3.79167 C 5.75 g/m*3 3.79 C 1.2 km/h
999 31-12-2020 14:00:00 3.85833 C 5.82 g/m*3 3.86 C 0.53333 km/h
1000 31-12-2020 15:00:00 3.59167 C 5.71 g/m*3 3.59 C 0.66667 km/h
Sensor: Nr:Datum:Temp:Abs-Feuchte:Windchill:Wind:
Aussen-T/F 1001 31-12-2020 16:00:00 3 C 5.56 g/m*3 3 C 0.26667 km/h
1002 31-12-2020 17:00:00 2.73333 C 5.52 g/m*3 2.73 C 0.13333 km/h
1003 31-12-2020 18:00:00 2.71667 C 5.54 g/m*3 2.72 C 0 km/h
1004 31-12-2020 19:00:00 2.625 C 5.51 g/m*3 2.63 C 0.26667 km/h
1005 31-12-2020 20:00:00 2.38333 C 5.42 g/m*3 2.38 C 0 km/h
1006 31-12-2020 21:00:00 2.225 C 5.4 g/m*3 2.23 C 0 km/h
1007 31-12-2020 22:00:00 2.15 C 5.37 g/m*3 2.15 C 0 km/h
1008 31-12-2020 23:00:00 1.26667 C 5.02 g/m*3 1.27 C 0 km/h
1009 01-01-2021 00:00:00 1.1 C 5.01 g/m*3 1.1 C 0 km/h
1010 01-01-2021 01:00:00 1.16667 C 5.04 g/m*3 1.17 C 0 km/h
1011 01-01-2021 02:00:00 1.425 C 5.13 g/m*3 1.43 C 0 km/h
1012 01-01-2021 03:00:00 1.725 C 5.25 g/m*3 1.73 C 0.13333 km/h
1013 01-01-2021 04:00:00 1.88333 C 5.35 g/m*3 1.88 C 1.46667 km/h
1014 01-01-2021 05:00:00 2.05833 C 5.41 g/m*3 2.06 C 0.53333 km/h
1015 01-01-2021 06:00:00 2.24167 C 5.48 g/m*3 2.24 C 0 km/h
1016 01-01-2021 07:00:00 2.425 C 5.55 g/m*3 2.42 C 0.26667 km/h
1017 01-01-2021 08:00:00 2.5 C 5.58 g/m*3 2.5 C 0.26667 km/h
1018 01-01-2021 09:00:00 2.55 C 5.59 g/m*3 2.55 C 0 km/h
1019 01-01-2021 10:00:00 2.73333 C 5.66 g/m*3 2.73 C 0 km/h
1020 01-01-2021 11:00:00 2.99167 C 5.76 g/m*3 2.99 C 2.53333 km/h
1021 01-01-2021 12:00:00 2.95 C 5.75 g/m*3 2.95 C 2 km/h
1022 01-01-2021 13:00:00 3.025 C 5.72 g/m*3 3.03 C 2 km/h
1023 01-01-2021 14:00:00 3.075 C 5.74 g/m*3 3.08 C 0.53333 km/h
1024 01-01-2021 15:00:00 3.13333 C 5.76 g/m*3 3.13 C 1.2 km/h
1025 01-01-2021 16:00:00 2.9 C 5.67 g/m*3 2.9 C 0.8 km/h
Sensor: Nr:Datum:Temp:Abs-Feuchte:Windchill:Wind:
Aussen-T/F 1026 01-01-2021 17:00:00 2.68333 C 5.59 g/m*3 2.68 C 0 km/h
1027 01-01-2021 18:00:00 2.525 C 5.53 g/m*3 2.53 C 0 km/h
1028 01-01-2021 19:00:00 1.80833 C 5.27 g/m*3 1.81 C 0 km/h
1029 01-01-2021 20:00:00 1.26667 C 5.07 g/m*3 1.27 C 0 km/h
1030 01-01-2021 21:00:00 0.8 C 4.91 g/m*3 0.8 C 0 km/h
1031 01-01-2021 22:00:00 0.60833 C 4.88 g/m*3 0.61 C 0 km/h
1032 01-01-2021 23:00:00 0.76667 C 4.95 g/m*3 0.77 C 0 km/h
1033 02-01-2021 00:00:00 0.80833 C 4.97 g/m*3 0.81 C 1.2 km/h
1034 02-01-2021 01:00:00 0.75 C 4.95 g/m*3 0.75 C 1.33333 km/h
1035 02-01-2021 02:00:00 0.75833 C 4.95 g/m*3 0.76 C 0 km/h
1036 02-01-2021 03:00:00 0.675 C 4.92 g/m*3 0.68 C 0.8 km/h
1037 02-01-2021 04:00:00 0.375 C 4.82 g/m*3 0.38 C 2 km/h
1038 02-01-2021 05:00:00 0.325 C 4.81 g/m*3 0.33 C 3.06667 km/h
1039 02-01-2021 06:00:00 0.425 C 4.84 g/m*3 0.43 C 3.46667 km/h
1040 02-01-2021 07:00:00 0.40833 C 4.83 g/m*3 0.41 C 3.86667 km/h
1041 02-01-2021 08:00:00 0.4 C 4.83 g/m*3 0.4 C 1.86667 km/h
1042 02-01-2021 09:00:00 0.53333 C 4.88 g/m*3 0.53 C 1.06667 km/h
1043 02-01-2021 10:00:00 0.81667 C 4.97 g/m*3 0.82 C 0.8 km/h
1044 02-01-2021 11:00:00 1.3 C 5.13 g/m*3 1.3 C 0.4 km/h
1045 02-01-2021 12:00:00 1.85 C 5.27 g/m*3 1.85 C 0.8 km/h
1046 02-01-2021 13:00:00 2.23333 C 5.33 g/m*3 2.23 C 1.33333 km/h
1047 02-01-2021 14:00:00 2.425 C 5.38 g/m*3 2.42 C 0.66667 km/h
1048 02-01-2021 15:00:00 2.65 C 5.46 g/m*3 2.65 C 1.6 km/h
1049 02-01-2021 16:00:00 2.525 C 5.41 g/m*3 2.53 C 0.4 km/h
1050 02-01-2021 17:00:00 2.18333 C 5.34 g/m*3 2.18 C 0.4 km/h
Sensor: Nr:Datum:Temp:Abs-Feuchte:Windchill:Wind:
Aussen-T/F 1051 02-01-2021 18:00:00 2.03333 C 5.29 g/m*3 2.03 C 0 km/h
1052 02-01-2021 19:00:00 1.95833 C 5.3 g/m*3 1.96 C 0 km/h
1053 02-01-2021 20:00:00 1.9 C 5.3 g/m*3 1.9 C 0 km/h
1054 02-01-2021 21:00:00 1.89167 C 5.3 g/m*3 1.89 C 0 km/h
1055 02-01-2021 22:00:00 1.8 C 5.26 g/m*3 1.8 C 0 km/h
1056 02-01-2021 23:00:00 1.8 C 5.26 g/m*3 1.8 C 0 km/h
1057 03-01-2021 00:00:00 1.88333 C 5.29 g/m*3 1.88 C 0 km/h
1058 03-01-2021 01:00:00 1.8 C 5.26 g/m*3 1.8 C 3.20833 km/h
1059 03-01-2021 02:00:00 1.74167 C 5.18 g/m*3 1.74 C 1.73333 km/h
1060 03-01-2021 03:00:00 2.04167 C 5.04 g/m*3 2.04 C 2.53333 km/h
1061 03-01-2021 04:00:00 2.26667 C 5.06 g/m*3 2.27 C 2.66667 km/h
1062 03-01-2021 05:00:00 2.11667 C 5.09 g/m*3 2.12 C 0.66667 km/h
1063 03-01-2021 06:00:00 2.05833 C 5.1 g/m*3 2.06 C 0.93333 km/h
1064 03-01-2021 07:00:00 1.99167 C 5.03 g/m*3 1.99 C 1.46667 km/h
1065 03-01-2021 08:00:00 2.29167 C 4.99 g/m*3 2.29 C 1.73333 km/h
1066 03-01-2021 09:00:00 2.375 C 5.09 g/m*3 2.38 C 0 km/h
1067 03-01-2021 10:00:00 2.60833 C 5.12 g/m*3 2.61 C 1.60833 km/h
1068 03-01-2021 11:00:00 3.08333 C 5.17 g/m*3 3.08 C 3.875 km/h
1069 03-01-2021 12:00:00 3.375 C 5.2 g/m*3 1.53 C 6.975 km/h
1070 03-01-2021 13:00:00 3.49167 C 5.26 g/m*3 3.49 C 3.74167 km/h
1071 03-01-2021 14:00:00 3.71667 C 5.34 g/m*3 2.39 C 5.61667 km/h
1072 03-01-2021 15:00:00 3.75 C 5.42 g/m*3 3.75 C 3.2 km/h
1073 03-01-2021 16:00:00 3.51667 C 5.43 g/m*3 3.52 C 4.00833 km/h
1074 03-01-2021 17:00:00 3.25833 C 5.43 g/m*3 3.26 C 0.93333 km/h
1075 03-01-2021 18:00:00 2.925 C 5.43 g/m*3 2.93 C 0.26667 km/h
Sensor: Nr:Datum:Temp:Abs-Feuchte:Windchill:Wind:
Aussen-T/F 1076 03-01-2021 19:00:00 2.66667 C 5.41 g/m*3 2.67 C 0.53333 km/h
1077 03-01-2021 20:00:00 2.51667 C 5.41 g/m*3 2.52 C 0.13333 km/h
1078 03-01-2021 21:00:00 2.46667 C 5.39 g/m*3 2.47 C 0.4 km/h
1079 03-01-2021 22:00:00 2.375 C 5.36 g/m*3 2.38 C 0 km/h
1080 03-01-2021 23:00:00 2.3 C 5.34 g/m*3 2.3 C 0 km/h
1081 04-01-2021 00:00:00 2.225 C 5.36 g/m*3 2.23 C 0 km/h
1082 04-01-2021 01:00:00 2.06667 C 5.3 g/m*3 2.07 C 0 km/h
1083 04-01-2021 02:00:00 1.85833 C 5.23 g/m*3 1.86 C 0.13333 km/h
1084 04-01-2021 03:00:00 1.78333 C 5.2 g/m*3 1.78 C 0.13333 km/h
1085 04-01-2021 04:00:00 1.63333 C 5.19 g/m*3 1.63 C 0 km/h
1086 04-01-2021 05:00:00 1.39167 C 5.1 g/m*3 1.39 C 0 km/h
1087 04-01-2021 06:00:00 1.06667 C 4.99 g/m*3 1.07 C 0 km/h
1088 04-01-2021 07:00:00 0.90833 C 4.95 g/m*3 0.91 C 0 km/h
1089 04-01-2021 08:00:00 0.96667 C 4.97 g/m*3 0.97 C 0 km/h
1090 04-01-2021 09:00:00 1.14167 C 5.03 g/m*3 1.14 C 0 km/h
1091 04-01-2021 10:00:00 1.31667 C 5.09 g/m*3 1.32 C 0.13333 km/h
1092 04-01-2021 11:00:00 1.60833 C 5.23 g/m*3 1.61 C 0 km/h
1093 04-01-2021 12:00:00 1.81667 C 5.32 g/m*3 1.82 C 0.13333 km/h
1094 04-01-2021 13:00:00 1.975 C 5.38 g/m*3 1.98 C 0.53333 km/h
1095 04-01-2021 14:00:00 2.025 C 5.4 g/m*3 2.03 C 0.26667 km/h
1096 04-01-2021 15:00:00 2 C 5.39 g/m*3 2 C 0.26667 km/h
1097 04-01-2021 16:00:00 1.93333 C 5.37 g/m*3 1.93 C 0 km/h
1098 04-01-2021 17:00:00 1.80833 C 5.32 g/m*3 1.81 C 0 km/h
1099 04-01-2021 18:00:00 1.8 C 5.32 g/m*3 1.8 C 0.66667 km/h
1100 04-01-2021 19:00:00 1.8 C 5.32 g/m*3 1.8 C 1.06667 km/h
Sensor: Nr:Datum:Temp:Abs-Feuchte:Windchill:Wind:
Aussen-T/F 1101 04-01-2021 20:00:00 1.75 C 5.3 g/m*3 1.75 C 0 km/h
1102 04-01-2021 21:00:00 1.70833 C 5.28 g/m*3 1.71 C 0 km/h
1103 04-01-2021 22:00:00 1.775 C 5.31 g/m*3 1.78 C 0 km/h
1104 04-01-2021 23:00:00 1.8 C 5.32 g/m*3 1.8 C 0.53333 km/h
1105 05-01-2021 00:00:00 1.84167 C 5.33 g/m*3 1.84 C 0.4 km/h
1106 05-01-2021 01:00:00 1.9 C 5.35 g/m*3 1.9 C 0.4 km/h
1107 05-01-2021 02:00:00 1.9 C 5.35 g/m*3 1.9 C 0.53333 km/h
1108 05-01-2021 03:00:00 1.99167 C 5.38 g/m*3 1.99 C 0.13333 km/h
1109 05-01-2021 04:00:00 2.1 C 5.37 g/m*3 2.1 C 0 km/h
1110 05-01-2021 05:00:00 2.08333 C 5.36 g/m*3 2.08 C 0 km/h
1111 05-01-2021 06:00:00 2.1 C 5.37 g/m*3 2.1 C 0 km/h
1112 05-01-2021 07:00:00 2.08333 C 5.36 g/m*3 2.08 C 0.26667 km/h
1113 05-01-2021 08:00:00 2.05 C 5.35 g/m*3 2.05 C 0.13333 km/h
1114 05-01-2021 09:00:00 2.15 C 5.39 g/m*3 2.15 C 0.13333 km/h
1115 05-01-2021 10:00:00 2.34167 C 5.46 g/m*3 2.34 C 0.93333 km/h
1116 05-01-2021 11:00:00 2.65833 C 5.49 g/m*3 2.66 C 1.2 km/h
1117 05-01-2021 12:00:00 2.88333 C 5.48 g/m*3 2.88 C 4.54167 km/h
1118 05-01-2021 13:00:00 3.03333 C 5.54 g/m*3 3.03 C 0.26667 km/h
1119 05-01-2021 14:00:00 3.25 C 5.62 g/m*3 3.25 C 0 km/h
1120 05-01-2021 15:00:00 3.3 C 5.64 g/m*3 3.3 C 0 km/h
1121 05-01-2021 16:00:00 3.20833 C 5.61 g/m*3 3.21 C 0 km/h
1122 05-01-2021 17:00:00 3.05 C 5.59 g/m*3 3.05 C 0 km/h
1123 05-01-2021 18:00:00 2.90833 C 5.56 g/m*3 2.91 C 0 km/h
1124 05-01-2021 19:00:00 2.9 C 5.61 g/m*3 2.9 C 0 km/h
1125 05-01-2021 20:00:00 2.9 C 5.61 g/m*3 2.9 C 0 km/h
Sensor: Nr:Datum:Temp:Abs-Feuchte:Windchill:Wind:
Aussen-T/F 1126 05-01-2021 21:00:00 2.9 C 5.61 g/m*3 2.9 C 0 km/h
1127 05-01-2021 22:00:00 2.68333 C 5.52 g/m*3 2.68 C 0 km/h
1128 05-01-2021 23:00:00 2.36667 C 5.43 g/m*3 2.37 C 0.26667 km/h
1129 06-01-2021 00:00:00 2.66667 C 5.54 g/m*3 2.67 C 0 km/h
1130 06-01-2021 01:00:00 2.69167 C 5.55 g/m*3 2.69 C 4.425 km/h
1131 06-01-2021 02:00:00 2.35 C 5.41 g/m*3 2.35 C 2.8 km/h
1132 06-01-2021 03:00:00 2.15 C 5.37 g/m*3 2.15 C 0.13333 km/h
1133 06-01-2021 04:00:00 1.68333 C 5.2 g/m*3 1.68 C 0 km/h
1134 06-01-2021 05:00:00 1.95833 C 5.32 g/m*3 1.96 C 0.26667 km/h
1135 06-01-2021 06:00:00 2.14167 C 5.39 g/m*3 2.14 C 0 km/h
1136 06-01-2021 07:00:00 2.2 C 5.44 g/m*3 2.2 C 1.2 km/h
1137 06-01-2021 08:00:00 2.15 C 5.41 g/m*3 2.15 C 0 km/h
1138 06-01-2021 09:00:00 2.24167 C 5.47 g/m*3 2.24 C 0 km/h
1139 06-01-2021 10:00:00 2.65833 C 5.64 g/m*3 2.66 C 0.13333 km/h
1140 06-01-2021 11:00:00 3.175 C 5.83 g/m*3 3.18 C 0.4 km/h
1141 06-01-2021 12:00:00 3.525 C 5.9 g/m*3 3.53 C 1.86667 km/h
1142 06-01-2021 13:00:00 3.76667 C 5.85 g/m*3 2.25 C 6.15 km/h
1143 06-01-2021 14:00:00 3.8 C 5.72 g/m*3 2.38 C 5.9 km/h
1144 06-01-2021 15:00:00 3.875 C 5.74 g/m*3 3.88 C 2.93333 km/h
1145 06-01-2021 16:00:00 3.65833 C 5.67 g/m*3 3.66 C 4.66667 km/h
1146 06-01-2021 17:00:00 3.325 C 5.59 g/m*3 3.33 C 4.00833 km/h
1147 06-01-2021 18:00:00 2.99167 C 5.47 g/m*3 2.99 C 4.26667 km/h
1148 06-01-2021 19:00:00 2.8 C 5.45 g/m*3 2.8 C 4.4 km/h
1149 06-01-2021 20:00:00 2.75 C 5.38 g/m*3 1.44 C 5.225 km/h
1150 06-01-2021 21:00:00 2.5 C 5.28 g/m*3 2.5 C 4.55 km/h
Sensor: Nr:Datum:Temp:Abs-Feuchte:Windchill:Wind:
Aussen-T/F 1151 06-01-2021 22:00:00 2.35 C 5.16 g/m*3 0.98 C 5.23333 km/h
1152 06-01-2021 23:00:00 2.19167 C 5.07 g/m*3 2.19 C 3.475 km/h
1153 07-01-2021 00:00:00 2.09167 C 4.99 g/m*3 -0.05 C 7.24167 km/h
1154 07-01-2021 01:00:00 1.83333 C 4.98 g/m*3 1.83 C 1.33333 km/h
1155 07-01-2021 02:00:00 1.45833 C 4.94 g/m*3 1.46 C 0.66667 km/h
1156 07-01-2021 03:00:00 1.25833 C 4.91 g/m*3 1.26 C 0 km/h
1157 07-01-2021 04:00:00 1.21667 C 4.93 g/m*3 1.22 C 0 km/h
1158 07-01-2021 05:00:00 1.34167 C 4.98 g/m*3 1.34 C 1.06667 km/h
1159 07-01-2021 06:00:00 1.5 C 4.97 g/m*3 1.5 C 3.06667 km/h
1160 07-01-2021 07:00:00 1.73333 C 4.98 g/m*3 0.17 C 5.475 km/h
1161 07-01-2021 08:00:00 1.73333 C 4.94 g/m*3 -0.14 C 6.29167 km/h
1162 07-01-2021 09:00:00 1.9 C 4.95 g/m*3 0.3 C 5.625 km/h
1163 07-01-2021 10:00:00 2.18333 C 5.04 g/m*3 2.18 C 4.00833 km/h
1164 07-01-2021 11:00:00 2.7 C 5.13 g/m*3 0.79 C 6.83333 km/h
1165 07-01-2021 12:00:00 2.71667 C 5.17 g/m*3 0.07 C 9.41667 km/h
1166 07-01-2021 13:00:00 2.68333 C 5.38 g/m*3 0.51 C 7.65833 km/h
1167 07-01-2021 14:00:00 2.84167 C 5.42 g/m*3 0.83 C 7.24167 km/h
1168 07-01-2021 15:00:00 2.45 C 5.33 g/m*3 0.45 C 6.975 km/h
1169 07-01-2021 16:00:00 2.4 C 5.31 g/m*3 0.1 C 7.91667 km/h
1170 07-01-2021 17:00:00 2.36667 C 5.33 g/m*3 0.49 C 6.575 km/h
1171 07-01-2021 18:00:00 2.375 C 5.35 g/m*3 0.03 C 8.05833 km/h
1172 07-01-2021 19:00:00 2.2 C 5.33 g/m*3 0.08 C 7.23333 km/h
1173 07-01-2021 20:00:00 2.1 C 5.31 g/m*3 0.19 C 6.56667 km/h
1174 07-01-2021 21:00:00 1.89167 C 5.19 g/m*3 -0.58 C 8.2 km/h
1175 07-01-2021 22:00:00 1.9 C 5.16 g/m*3 -0.72 C 8.73333 km/h
Sensor: Nr:Datum:Temp:Abs-Feuchte:Windchill:Wind:
Aussen-T/F 1176 07-01-2021 23:00:00 1.93333 C 5.14 g/m*3 -0.75 C 9.00833 km/h
1177 08-01-2021 00:00:00 1.73333 C 5.12 g/m*3 -1.26 C 10.08333 km/h
1178 08-01-2021 01:00:00 1.63333 C 5.13 g/m*3 -0.72 C 7.65833 km/h
1179 08-01-2021 02:00:00 1.76667 C 5.15 g/m*3 -0.39 C 7.125 km/h
1180 08-01-2021 03:00:00 1.8 C 5.15 g/m*3 -1.02 C 9.425 km/h
1181 08-01-2021 04:00:00 1.84167 C 5.17 g/m*3 -0.93 C 9.28333 km/h
1182 08-01-2021 05:00:00 1.84167 C 5.21 g/m*3 -0.79 C 8.75833 km/h
1183 08-01-2021 06:00:00 1.79167 C 5.2 g/m*3 -0.22 C 6.69167 km/h
1184 08-01-2021 07:00:00 1.71667 C 5.19 g/m*3 1.72 C 4.54167 km/h
1185 08-01-2021 08:00:00 1.6 C 5.19 g/m*3 1.6 C 4.94167 km/h
1186 08-01-2021 09:00:00 1.63333 C 5.2 g/m*3 1.63 C 4.26667 km/h
1187 08-01-2021 10:00:00 1.89167 C 5.3 g/m*3 1.89 C 2.66667 km/h
1188 08-01-2021 11:00:00 2.2 C 5.4 g/m*3 2.2 C 2.66667 km/h
1189 08-01-2021 12:00:00 2.525 C 5.47 g/m*3 2.53 C 2.66667 km/h
1190 08-01-2021 13:00:00 2.50833 C 5.46 g/m*3 2.51 C 0.53333 km/h
1191 08-01-2021 14:00:00 2.54167 C 5.47 g/m*3 2.54 C 2.53333 km/h
1192 08-01-2021 15:00:00 2.475 C 5.41 g/m*3 2.48 C 2.26667 km/h
1193 08-01-2021 16:00:00 2.33333 C 5.36 g/m*3 2.33 C 1.86667 km/h
1194 08-01-2021 17:00:00 2.14167 C 5.33 g/m*3 2.14 C 0.8 km/h
1195 08-01-2021 18:00:00 2.1 C 5.34 g/m*3 2.1 C 1.06667 km/h
1196 08-01-2021 19:00:00 2.15833 C 5.39 g/m*3 2.16 C 0 km/h
1197 08-01-2021 20:00:00 2.15833 C 5.39 g/m*3 2.16 C 0 km/h
1198 08-01-2021 21:00:00 2.08333 C 5.36 g/m*3 2.08 C 1.73333 km/h
1199 08-01-2021 22:00:00 1.64167 C 5.18 g/m*3 1.64 C 1.86667 km/h
1200 08-01-2021 23:00:00 0.81667 C 4.89 g/m*3 0.82 C 0.66667 km/h
Sensor: Nr:Datum:Temp:Abs-Feuchte:Windchill:Wind:
Aussen-T/F 1201 09-01-2021 00:00:00 0.69167 C 4.88 g/m*3 0.69 C 1.86667 km/h
1202 09-01-2021 01:00:00 0.89167 C 4.95 g/m*3 0.89 C 0.8 km/h
1203 09-01-2021 02:00:00 1 C 4.98 g/m*3 1 C 0.13333 km/h
1204 09-01-2021 03:00:00 1.10833 C 5.02 g/m*3 1.11 C 0.66667 km/h
1205 09-01-2021 04:00:00 0.85 C 4.95 g/m*3 0.85 C 0.93333 km/h
1206 09-01-2021 05:00:00 0.9 C 5 g/m*3 0.9 C 0.26667 km/h
1207 09-01-2021 06:00:00 0.94167 C 5.01 g/m*3 0.94 C 0.66667 km/h
1208 09-01-2021 07:00:00 1.025 C 5.04 g/m*3 1.02 C 0.53333 km/h
1209 09-01-2021 08:00:00 1.06667 C 5.05 g/m*3 1.07 C 0.8 km/h
1210 09-01-2021 09:00:00 1.01667 C 4.99 g/m*3 1.02 C 0.26667 km/h
1211 09-01-2021 10:00:00 0.91667 C 4.98 g/m*3 0.92 C 0.4 km/h
1212 09-01-2021 11:00:00 1.10833 C 5.03 g/m*3 1.11 C 1.60833 km/h
1213 09-01-2021 12:00:00 1.34167 C 5.07 g/m*3 1.34 C 2.41667 km/h
1214 09-01-2021 13:00:00 2.15833 C 5.1 g/m*3 2.16 C 3.35 km/h
1215 09-01-2021 14:00:00 2.875 C 5.14 g/m*3 2.88 C 3.2 km/h
1216 09-01-2021 15:00:00 2.925 C 5.03 g/m*3 2.93 C 4.13333 km/h
1217 09-01-2021 16:00:00 2.5 C 5.05 g/m*3 2.5 C 1.33333 km/h
1218 09-01-2021 17:00:00 1.64167 C 4.93 g/m*3 1.64 C 0.4 km/h
1219 09-01-2021 18:00:00 1.3 C 4.91 g/m*3 1.3 C 0 km/h
1220 09-01-2021 19:00:00 1.26667 C 4.96 g/m*3 1.27 C 0 km/h
1221 09-01-2021 20:00:00 1.16667 C 4.93 g/m*3 1.17 C 0 km/h
1222 09-01-2021 21:00:00 1.09167 C 4.94 g/m*3 1.09 C 0 km/h
1223 09-01-2021 22:00:00 1.19167 C 5 g/m*3 1.19 C 0 km/h
1224 09-01-2021 23:00:00 1.25 C 5.02 g/m*3 1.25 C 0 km/h
1225 10-01-2021 00:00:00 0.96667 C 4.92 g/m*3 0.97 C 0 km/h
Sensor: Nr:Datum:Temp:Abs-Feuchte:Windchill:Wind:
Aussen-T/F 1226 10-01-2021 01:00:00 0.83333 C 4.9 g/m*3 0.83 C 0 km/h
1227 10-01-2021 02:00:00 0.9 C 4.95 g/m*3 0.9 C 0 km/h
1228 10-01-2021 03:00:00 0.95833 C 4.97 g/m*3 0.96 C 0 km/h
1229 10-01-2021 04:00:00 0.88333 C 4.94 g/m*3 0.88 C 0 km/h
1230 10-01-2021 05:00:00 0.7 C 4.88 g/m*3 0.7 C 0 km/h
1231 10-01-2021 06:00:00 0.71667 C 4.89 g/m*3 0.72 C 0 km/h
1232 10-01-2021 07:00:00 0.84167 C 4.93 g/m*3 0.84 C 0 km/h
1233 10-01-2021 08:00:00 0.70833 C 4.88 g/m*3 0.71 C 0 km/h
1234 10-01-2021 09:00:00 0.775 C 4.91 g/m*3 0.78 C 0 km/h
1235 10-01-2021 10:00:00 1.24167 C 5.08 g/m*3 1.24 C 0 km/h
1236 10-01-2021 11:00:00 1.775 C 5.22 g/m*3 1.78 C 0.8 km/h
1237 10-01-2021 12:00:00 2.325 C 5.21 g/m*3 2.33 C 1.86667 km/h
1238 10-01-2021 13:00:00 2.88333 C 5.12 g/m*3 2.88 C 1.33333 km/h
1239 10-01-2021 14:00:00 3.21667 C 4.99 g/m*3 3.22 C 1.46667 km/h
1240 10-01-2021 15:00:00 3.325 C 4.9 g/m*3 3.33 C 0.4 km/h
1241 10-01-2021 16:00:00 2.80833 C 5.01 g/m*3 2.81 C 0.93333 km/h
1242 10-01-2021 17:00:00 0.91667 C 4.55 g/m*3 0.92 C 4.26667 km/h
1243 10-01-2021 18:00:00 -0.45833 C 4.28 g/m*3 -0.46 C 1.2 km/h
1244 10-01-2021 19:00:00 -1.075 C 4.17 g/m*3 -1.08 C 0 km/h
1245 10-01-2021 20:00:00 -1.65833 C 4.04 g/m*3 -1.66 C 0 km/h
1246 10-01-2021 21:00:00 -2.08333 C 3.94 g/m*3 -2.08 C 0 km/h
1247 10-01-2021 22:00:00 -2.35833 C 3.9 g/m*3 -2.36 C 0 km/h
1248 10-01-2021 23:00:00 -2.70833 C 3.81 g/m*3 -2.71 C 0.13333 km/h
1249 11-01-2021 00:00:00 -2.975 C 3.74 g/m*3 -2.98 C 0.13333 km/h
1250 11-01-2021 01:00:00 -3.30833 C 3.65 g/m*3 -3.31 C 0.13333 km/h
Sensor: Nr:Datum:Temp:Abs-Feuchte:Windchill:Wind:
Aussen-T/F 1251 11-01-2021 02:00:00 -2.94167 C 3.77 g/m*3 -2.94 C 0.13333 km/h
1252 11-01-2021 03:00:00 -3.30833 C 3.65 g/m*3 -3.31 C 0 km/h
1253 11-01-2021 04:00:00 -3.59167 C 3.58 g/m*3 -3.59 C 0 km/h
1254 11-01-2021 05:00:00 -3.86667 C 3.51 g/m*3 -3.87 C 0 km/h
1255 11-01-2021 06:00:00 -4.125 C 3.46 g/m*3 -4.13 C 0 km/h
1256 11-01-2021 07:00:00 -3.925 C 3.53 g/m*3 -3.93 C 0.66667 km/h
1257 11-01-2021 08:00:00 -3.36667 C 3.67 g/m*3 -3.37 C 1.2 km/h
1258 11-01-2021 09:00:00 -2.6 C 3.88 g/m*3 -2.6 C 0.93333 km/h
1259 11-01-2021 10:00:00 -1.30833 C 4.18 g/m*3 -3.24 C 5.35 km/h
1260 11-01-2021 11:00:00 0.08333 C 4.32 g/m*3 -2.66 C 8.05 km/h
1261 11-01-2021 12:00:00 1.01667 C 4.35 g/m*3 -2.32 C 10.88333 km/h
1262 11-01-2021 13:00:00 1.825 C 4.43 g/m*3 -1.22 C 10.35 km/h
1263 11-01-2021 14:00:00 2.26667 C 4.55 g/m*3 0.07 C 7.525 km/h
1264 11-01-2021 15:00:00 2.375 C 4.68 g/m*3 2.38 C 3.74167 km/h
1265 11-01-2021 16:00:00 2.33333 C 4.86 g/m*3 2.33 C 0.53333 km/h
1266 11-01-2021 17:00:00 1.79167 C 4.85 g/m*3 1.79 C 2 km/h
1267 11-01-2021 18:00:00 1.66667 C 4.82 g/m*3 1.67 C 1.86667 km/h
1268 11-01-2021 19:00:00 1.76667 C 4.82 g/m*3 1.77 C 3.34167 km/h
1269 11-01-2021 20:00:00 2 C 4.88 g/m*3 2 C 4.14167 km/h
1270 11-01-2021 21:00:00 2.325 C 4.93 g/m*3 0.9 C 5.35833 km/h
1271 11-01-2021 22:00:00 2.49167 C 5.01 g/m*3 0.73 C 6.3 km/h
1272 11-01-2021 23:00:00 2.8 C 5.11 g/m*3 0.07 C 9.81667 km/h
1273 12-01-2021 00:00:00 3 C 5.24 g/m*3 -0.24 C 12.35833 km/h
1274 12-01-2021 01:00:00 3.26667 C 5.38 g/m*3 -0.65 C 16.63333 km/h
1275 12-01-2021 02:00:00 3.34167 C 5.42 g/m*3 -0.23 C 14.63333 km/h
Sensor: Nr:Datum:Temp:Abs-Feuchte:Windchill:Wind:
Aussen-T/F 1276 12-01-2021 03:00:00 3.51667 C 5.54 g/m*3 -0.02 C 14.63333 km/h
1277 12-01-2021 04:00:00 3.725 C 5.59 g/m*3 -0.47 C 19.45 km/h
1278 12-01-2021 05:00:00 3.875 C 5.63 g/m*3 -0.78 C 23.6 km/h
1279 12-01-2021 06:00:00 3.85833 C 5.67 g/m*3 -0.74 C 23.04167 km/h
1280 12-01-2021 07:00:00 3.79167 C 5.66 g/m*3 -0.78 C 22.64167 km/h
1281 12-01-2021 08:00:00 3.95833 C 5.66 g/m*3 -0.91 C 25.86667 km/h
1282 12-01-2021 09:00:00 4.14167 C 5.69 g/m*3 -0.76 C 26.69167 km/h
1283 12-01-2021 10:00:00 4.41667 C 5.8 g/m*3 -0.2 C 24.66667 km/h
1284 12-01-2021 11:00:00 4.68333 C 5.96 g/m*3 0.69 C 19.83333 km/h
1285 12-01-2021 12:00:00 5.05 C 6.15 g/m*3 1.35 C 18.23333 km/h
1286 12-01-2021 13:00:00 5.225 C 6.3 g/m*3 1.82 C 16.36667 km/h
1287 12-01-2021 14:00:00 5.18333 C 6.47 g/m*3 2.75 C 10.61667 km/h
1288 12-01-2021 15:00:00 5.40833 C 6.63 g/m*3 2.86 C 11.41667 km/h
1289 12-01-2021 16:00:00 5.45 C 6.58 g/m*3 3.42 C 9.00833 km/h
1290 12-01-2021 17:00:00 4.56667 C 6.12 g/m*3 2.88 C 7.10833 km/h
1291 12-01-2021 18:00:00 3.25833 C 5.65 g/m*3 3.26 C 4.95 km/h
1292 12-01-2021 19:00:00 2.45833 C 5.41 g/m*3 2.46 C 4.80833 km/h
1293 12-01-2021 20:00:00 2.75 C 5.47 g/m*3 1.5 C 5.075 km/h
1294 12-01-2021 21:00:00 3.05 C 5.45 g/m*3 1.61 C 5.64167 km/h
1295 12-01-2021 22:00:00 2.96667 C 5.38 g/m*3 2.97 C 3.46667 km/h
1296 12-01-2021 23:00:00 2.14167 C 5.21 g/m*3 2.14 C 2.8 km/h
1297 13-01-2021 00:00:00 1.93333 C 5.2 g/m*3 1.93 C 2.8 km/h
1298 13-01-2021 01:00:00 1.59167 C 5.1 g/m*3 1.59 C 4.275 km/h
1299 13-01-2021 02:00:00 1.7 C 5.1 g/m*3 -0.8 C 8.2 km/h
1300 13-01-2021 03:00:00 1.73333 C 5 g/m*3 -0.92 C 8.75833 km/h
Sensor: Nr:Datum:Temp:Abs-Feuchte:Windchill:Wind:
Aussen-T/F 1301 13-01-2021 04:00:00 1.63333 C 4.91 g/m*3 -0.96 C 8.475 km/h
1302 13-01-2021 05:00:00 1.66667 C 4.89 g/m*3 -1.07 C 9.01667 km/h
1303 13-01-2021 06:00:00 1.775 C 4.92 g/m*3 -1.04 C 9.39167 km/h
1304 13-01-2021 07:00:00 1.91667 C 4.92 g/m*3 -0.92 C 9.56667 km/h
1305 13-01-2021 08:00:00 1.75833 C 4.93 g/m*3 -0.61 C 7.78333 km/h
1306 13-01-2021 09:00:00 1.31667 C 4.9 g/m*3 -1.66 C 9.69167 km/h
1307 13-01-2021 10:00:00 1.94167 C 5.14 g/m*3 -0.63 C 8.61667 km/h
1308 13-01-2021 11:00:00 2.95 C 5.35 g/m*3 0.04 C 10.75833 km/h
1309 13-01-2021 12:00:00 3.74167 C 5.45 g/m*3 0.59 C 12.76667 km/h
1310 13-01-2021 13:00:00 4.15833 C 5.43 g/m*3 1.3 C 11.68333 km/h
1311 13-01-2021 14:00:00 4.63333 C 5.3 g/m*3 1.98 C 11.15833 km/h
1312 13-01-2021 15:00:00 4.05833 C 5.12 g/m*3 1.37 C 10.76667 km/h
1313 13-01-2021 16:00:00 2.99167 C 5.01 g/m*3 0.57 C 8.75833 km/h
1314 13-01-2021 17:00:00 2.39167 C 4.96 g/m*3 0.71 C 6.04167 km/h
1315 13-01-2021 18:00:00 1.91667 C 4.95 g/m*3 1.92 C 2.53333 km/h
1316 13-01-2021 19:00:00 1.8 C 5 g/m*3 1.8 C 4.26667 km/h
1317 13-01-2021 20:00:00 2.03333 C 5.12 g/m*3 2.03 C 4.4 km/h
1318 13-01-2021 21:00:00 2.49167 C 5.21 g/m*3 0.5 C 6.98333 km/h
1319 13-01-2021 22:00:00 3.39167 C 5.18 g/m*3 1.5 C 7.11667 km/h
1320 13-01-2021 23:00:00 3.725 C 5.2 g/m*3 1.69 C 7.8 km/h
1321 14-01-2021 00:00:00 4.10833 C 5.45 g/m*3 1.67 C 9.68333 km/h
1322 14-01-2021 01:00:00 4.05 C 5.8 g/m*3 1.79 C 8.86667 km/h
1323 14-01-2021 02:00:00 3.76667 C 5.77 g/m*3 1.71 C 7.925 km/h
1324 14-01-2021 03:00:00 3.56667 C 5.52 g/m*3 2.01 C 6.175 km/h
1325 14-01-2021 04:00:00 3.275 C 5.19 g/m*3 1.59 C 6.44167 km/h
Sensor: Nr:Datum:Temp:Abs-Feuchte:Windchill:Wind:
Aussen-T/F 1326 14-01-2021 05:00:00 2.61667 C 4.71 g/m*3 2.62 C 3.74167 km/h
1327 14-01-2021 06:00:00 2.05 C 4.72 g/m*3 2.05 C 0.66667 km/h
1328 14-01-2021 07:00:00 1.51667 C 4.63 g/m*3 1.52 C 0.66667 km/h
1329 14-01-2021 08:00:00 1.36667 C 4.61 g/m*3 1.37 C 0.93333 km/h
1330 14-01-2021 09:00:00 1.375 C 4.72 g/m*3 1.38 C 0.13333 km/h
1331 14-01-2021 10:00:00 1.90833 C 4.8 g/m*3 1.91 C 0.53333 km/h
1332 14-01-2021 11:00:00 2.425 C 4.72 g/m*3 1.02 C 5.34167 km/h
1333 14-01-2021 12:00:00 2.625 C 4.65 g/m*3 0.94 C 6.15 km/h
1334 14-01-2021 13:00:00 2.95 C 4.69 g/m*3 1.26 C 6.3 km/h
1335 14-01-2021 14:00:00 3.11667 C 4.67 g/m*3 3.12 C 3.33333 km/h
1336 14-01-2021 15:00:00 3.09167 C 4.7 g/m*3 3.09 C 2.13333 km/h
1337 14-01-2021 16:00:00 2.63333 C 4.77 g/m*3 2.63 C 0.13333 km/h
1338 14-01-2021 17:00:00 1.36667 C 4.6 g/m*3 1.37 C 1.06667 km/h
1339 14-01-2021 18:00:00 0.89167 C 4.53 g/m*3 0.89 C 1.73333 km/h
1340 14-01-2021 19:00:00 0.275 C 4.42 g/m*3 0.28 C 1.06667 km/h
1341 14-01-2021 20:00:00 0.15833 C 4.46 g/m*3 0.16 C 1.875 km/h
1342 14-01-2021 21:00:00 0.08333 C 4.39 g/m*3 0.08 C 1.06667 km/h
1343 14-01-2021 22:00:00 -0.375 C 4.25 g/m*3 -0.38 C 1.06667 km/h
1344 14-01-2021 23:00:00 -0.70833 C 4.15 g/m*3 -0.71 C 2 km/h
1345 15-01-2021 00:00:00 -1.05833 C 4.06 g/m*3 -1.06 C 0.8 km/h
1346 15-01-2021 01:00:00 -1.55 C 3.96 g/m*3 -1.55 C 0.8 km/h
1347 15-01-2021 02:00:00 -2.04167 C 3.82 g/m*3 -2.04 C 0.66667 km/h
1348 15-01-2021 03:00:00 -2.425 C 3.77 g/m*3 -2.42 C 0.13333 km/h
1349 15-01-2021 04:00:00 -2.26667 C 3.85 g/m*3 -2.27 C 0.4 km/h
1350 15-01-2021 05:00:00 -1.65833 C 4 g/m*3 -1.66 C 0 km/h
Sensor: Nr:Datum:Temp:Abs-Feuchte:Windchill:Wind:
Aussen-T/F 1351 15-01-2021 06:00:00 -1.16667 C 4.1 g/m*3 -1.17 C 0 km/h
1352 15-01-2021 07:00:00 -0.81667 C 4.17 g/m*3 -0.82 C 0 km/h
1353 15-01-2021 08:00:00 -0.66667 C 4.2 g/m*3 -0.67 C 0 km/h
1354 15-01-2021 09:00:00 -0.28333 C 4.29 g/m*3 -0.28 C 0 km/h
1355 15-01-2021 10:00:00 -0.18333 C 4.28 g/m*3 -0.18 C 0.4 km/h
1356 15-01-2021 11:00:00 0.10833 C 4.17 g/m*3 0.11 C 4.14167 km/h
1357 15-01-2021 12:00:00 2.05 C 4.29 g/m*3 -0.75 C 9.55 km/h
1358 15-01-2021 13:00:00 2.35 C 4.43 g/m*3 -0.26 C 9.00833 km/h
1359 15-01-2021 14:00:00 2.45 C 4.52 g/m*3 0.24 C 7.65 km/h
1360 15-01-2021 15:00:00 2.55833 C 4.63 g/m*3 0.62 C 6.84167 km/h
1361 15-01-2021 16:00:00 2.325 C 4.66 g/m*3 0.35 C 6.84167 km/h
1362 15-01-2021 17:00:00 2 C 4.58 g/m*3 2 C 2.13333 km/h
1363 15-01-2021 18:00:00 1.71667 C 4.58 g/m*3 1.72 C 3.34167 km/h
1364 15-01-2021 19:00:00 1.51667 C 4.66 g/m*3 1.52 C 3.73333 km/h
1365 15-01-2021 20:00:00 1.39167 C 4.62 g/m*3 1.39 C 4 km/h
1366 15-01-2021 21:00:00 1.24167 C 4.6 g/m*3 1.24 C 3.75 km/h
1367 15-01-2021 22:00:00 1.11667 C 4.55 g/m*3 1.12 C 3.74167 km/h
1368 15-01-2021 23:00:00 1.075 C 4.59 g/m*3 1.08 C 4 km/h
1369 16-01-2021 00:00:00 0.85833 C 4.49 g/m*3 0.86 C 2.40833 km/h
1370 16-01-2021 01:00:00 0.9 C 4.14 g/m*3 -1.21 C 6.59167 km/h
1371 16-01-2021 02:00:00 0.79167 C 4.05 g/m*3 0.79 C 4.4 km/h
1372 16-01-2021 03:00:00 0.625 C 4.07 g/m*3 0.63 C 2.4 km/h
1373 16-01-2021 04:00:00 0.28333 C 4.1 g/m*3 0.28 C 0.13333 km/h
1374 16-01-2021 05:00:00 0.09167 C 4.16 g/m*3 0.09 C 0.93333 km/h
1375 16-01-2021 06:00:00 0.14167 C 4.15 g/m*3 0.14 C 0.8 km/h
Sensor: Nr:Datum:Temp:Abs-Feuchte:Windchill:Wind:
Aussen-T/F 1376 16-01-2021 07:00:00 -0.05 C 4.16 g/m*3 -0.05 C 0.13333 km/h
1377 16-01-2021 08:00:00 -0.15 C 4.19 g/m*3 -0.15 C 0 km/h
1378 16-01-2021 09:00:00 0.04167 C 4.24 g/m*3 0.04 C 0.4 km/h
1379 16-01-2021 10:00:00 0.83333 C 4.19 g/m*3 0.83 C 2.53333 km/h
1380 16-01-2021 11:00:00 1.28333 C 4.21 g/m*3 1.28 C 4.675 km/h
1381 16-01-2021 12:00:00 1.55 C 4.13 g/m*3 -0.45 C 6.55833 km/h
1382 16-01-2021 13:00:00 1.6 C 4.05 g/m*3 0.19 C 5.09167 km/h
1383 16-01-2021 14:00:00 1.4 C 3.87 g/m*3 1.4 C 3.33333 km/h
1384 16-01-2021 15:00:00 1.25833 C 3.79 g/m*3 1.26 C 4.01667 km/h
1385 16-01-2021 16:00:00 0.84167 C 3.8 g/m*3 0.84 C 1.06667 km/h
1386 16-01-2021 17:00:00 -0.04167 C 3.92 g/m*3 -0.04 C 0 km/h
1387 16-01-2021 18:00:00 -0.38333 C 3.93 g/m*3 -0.38 C 0 km/h
1388 16-01-2021 19:00:00 -0.18333 C 4.02 g/m*3 -0.18 C 0.4 km/h
1389 16-01-2021 20:00:00 -0.00833 C 4.25 g/m*3 -0.01 C 0.93333 km/h
1390 16-01-2021 21:00:00 -0.28333 C 4.37 g/m*3 -0.28 C 0.4 km/h
1391 16-01-2021 22:00:00 -0.44167 C 4.39 g/m*3 -0.44 C 0.53333 km/h
1392 16-01-2021 23:00:00 -0.68333 C 4.34 g/m*3 -0.68 C 0.26667 km/h
1393 17-01-2021 00:00:00 -0.78333 C 4.31 g/m*3 -0.78 C 0 km/h
1394 17-01-2021 01:00:00 -0.975 C 4.26 g/m*3 -0.98 C 0 km/h
1395 17-01-2021 02:00:00 -1.16667 C 4.2 g/m*3 -1.17 C 0 km/h
1396 17-01-2021 03:00:00 -1.2 C 4.19 g/m*3 -1.2 C 0 km/h
1397 17-01-2021 04:00:00 -1.16667 C 4.24 g/m*3 -1.17 C 0 km/h
1398 17-01-2021 05:00:00 -1.03333 C 4.28 g/m*3 -1.03 C 0 km/h
1399 17-01-2021 06:00:00 -0.85833 C 4.34 g/m*3 -0.86 C 0.13333 km/h
1400 17-01-2021 07:00:00 -0.75 C 4.37 g/m*3 -0.75 C 0 km/h
Sensor: Nr:Datum:Temp:Abs-Feuchte:Windchill:Wind:
Aussen-T/F 1401 17-01-2021 08:00:00 -0.65833 C 4.4 g/m*3 -0.66 C 0 km/h
1402 17-01-2021 09:00:00 -0.25 C 4.53 g/m*3 -0.25 C 0.53333 km/h
1403 17-01-2021 10:00:00 0.23333 C 4.68 g/m*3 0.23 C 0.4 km/h
1404 17-01-2021 11:00:00 0.68333 C 4.82 g/m*3 0.68 C 0 km/h
1405 17-01-2021 12:00:00 1.075 C 4.94 g/m*3 1.08 C 0 km/h
1406 17-01-2021 13:00:00 1.34167 C 5 g/m*3 1.34 C 2.26667 km/h
1407 17-01-2021 14:00:00 1.39167 C 5.06 g/m*3 1.39 C 2.4 km/h
1408 17-01-2021 15:00:00 1.6 C 5.14 g/m*3 1.6 C 0.13333 km/h
1409 17-01-2021 16:00:00 1.50833 C 5.11 g/m*3 1.51 C 0.4 km/h
1410 17-01-2021 17:00:00 1.58333 C 5.18 g/m*3 1.58 C 1.46667 km/h
1411 17-01-2021 18:00:00 1.69167 C 5.22 g/m*3 1.69 C 2.4 km/h
1412 17-01-2021 19:00:00 1.8 C 5.26 g/m*3 1.8 C 2.13333 km/h
1413 17-01-2021 20:00:00 1.86667 C 5.29 g/m*3 1.87 C 2.66667 km/h
1414 17-01-2021 21:00:00 1.95833 C 5.32 g/m*3 1.96 C 2.13333 km/h
1415 17-01-2021 22:00:00 2.11667 C 5.41 g/m*3 2.12 C 1.06667 km/h
1416 17-01-2021 23:00:00 2.275 C 5.49 g/m*3 2.28 C 2 km/h
1417 18-01-2021 00:00:00 2.34167 C 5.52 g/m*3 2.34 C 3.06667 km/h
1418 18-01-2021 01:00:00 2.3 C 5.5 g/m*3 2.3 C 2.93333 km/h
1419 18-01-2021 02:00:00 2.43333 C 5.55 g/m*3 2.43 C 2.8 km/h
1420 18-01-2021 03:00:00 2.58333 C 5.61 g/m*3 2.58 C 2.53333 km/h
1421 18-01-2021 04:00:00 2.04167 C 5.41 g/m*3 2.04 C 2.53333 km/h
1422 18-01-2021 05:00:00 2.30833 C 5.5 g/m*3 2.31 C 4.00833 km/h
1423 18-01-2021 06:00:00 2.43333 C 5.55 g/m*3 0.18 C 7.79167 km/h
1424 18-01-2021 07:00:00 2.475 C 5.55 g/m*3 -0.21 C 9.41667 km/h
1425 18-01-2021 08:00:00 2.59167 C 5.53 g/m*3 -0.08 C 9.41667 km/h
Sensor: Nr:Datum:Temp:Abs-Feuchte:Windchill:Wind:
Aussen-T/F 1426 18-01-2021 09:00:00 2.83333 C 5.59 g/m*3 -0.02 C 10.36667 km/h
1427 18-01-2021 10:00:00 3.44167 C 5.73 g/m*3 0.66 C 10.625 km/h
1428 18-01-2021 11:00:00 4.13333 C 5.9 g/m*3 1.63 C 9.96667 km/h
1429 18-01-2021 12:00:00 4.75833 C 6.01 g/m*3 2 C 11.83333 km/h
1430 18-01-2021 13:00:00 5.51667 C 6.11 g/m*3 2.57 C 13.83333 km/h
1431 18-01-2021 14:00:00 5.68333 C 6.01 g/m*3 2.2 C 17.83333 km/h
1432 18-01-2021 15:00:00 5.41667 C 5.87 g/m*3 2.45 C 13.83333 km/h
1433 18-01-2021 16:00:00 5 C 5.74 g/m*3 2.42 C 11.15833 km/h
1434 18-01-2021 17:00:00 4.525 C 5.69 g/m*3 2.04 C 10.225 km/h
1435 18-01-2021 18:00:00 4.56667 C 5.73 g/m*3 1.27 C 14.63333 km/h
1436 18-01-2021 19:00:00 4.76667 C 5.83 g/m*3 1.16 C 17.03333 km/h
1437 18-01-2021 20:00:00 4.8 C 5.9 g/m*3 1.07 C 17.975 km/h
1438 18-01-2021 21:00:00 4.85833 C 5.93 g/m*3 1.59 C 14.9 km/h
1439 18-01-2021 22:00:00 4.80833 C 5.99 g/m*3 1.51 C 15.03333 km/h
1440 18-01-2021 23:00:00 4.99167 C 6.07 g/m*3 1.44 C 17.03333 km/h
1441 19-01-2021 00:00:00 5.14167 C 6.01 g/m*3 2.07 C 14.1 km/h
1442 19-01-2021 01:00:00 5.01667 C 5.83 g/m*3 1.59 C 16.23333 km/h
1443 19-01-2021 02:00:00 4.66667 C 5.64 g/m*3 1.53 C 13.83333 km/h
1444 19-01-2021 03:00:00 4.475 C 5.55 g/m*3 3.25 C 5.64167 km/h
1445 19-01-2021 04:00:00 4.21667 C 5.52 g/m*3 4.22 C 4.96667 km/h
1446 19-01-2021 05:00:00 4.475 C 5.37 g/m*3 1.68 C 11.675 km/h
1447 19-01-2021 06:00:00 5.19167 C 5.42 g/m*3 1.8 C 16.23333 km/h
1448 19-01-2021 07:00:00 5.43333 C 5.55 g/m*3 1.67 C 19.56667 km/h
1449 19-01-2021 08:00:00 5.43333 C 5.59 g/m*3 1.33 C 22.525 km/h
1450 19-01-2021 09:00:00 5.31667 C 5.53 g/m*3 1.08 C 23.45 km/h
Sensor: Nr:Datum:Temp:Abs-Feuchte:Windchill:Wind:
Aussen-T/F 1451 19-01-2021 10:00:00 5.175 C 5.59 g/m*3 0.54 C 27.08333 km/h
1452 19-01-2021 11:00:00 4.40833 C 5.75 g/m*3 -0.45 C 27.09167 km/h
1453 19-01-2021 12:00:00 4.79167 C 5.83 g/m*3 -0.25 C 30.325 km/h
1454 19-01-2021 13:00:00 5.15833 C 5.99 g/m*3 0.52 C 27.09167 km/h
1455 19-01-2021 14:00:00 5.58333 C 6.17 g/m*3 1.32 C 24.4 km/h
1456 19-01-2021 15:00:00 6.05833 C 6.31 g/m*3 2.06 C 23.19167 km/h
1457 19-01-2021 16:00:00 5.625 C 6.29 g/m*3 1.54 C 22.8 km/h
1458 19-01-2021 17:00:00 5.38333 C 6.27 g/m*3 1.52 C 20.23333 km/h
1459 19-01-2021 18:00:00 5.29167 C 6.21 g/m*3 1.52 C 19.30833 km/h
1460 19-01-2021 19:00:00 5.55833 C 6.3 g/m*3 1.97 C 18.36667 km/h
1461 19-01-2021 20:00:00 5.65 C 6.15 g/m*3 2.04 C 18.76667 km/h
1462 19-01-2021 21:00:00 5.20833 C 5.8 g/m*3 2.64 C 11.3 km/h
1463 19-01-2021 22:00:00 4.83333 C 5.53 g/m*3 2.99 C 7.79167 km/h
1464 19-01-2021 23:00:00 5.175 C 5.24 g/m*3 3.15 C 8.74167 km/h
1465 20-01-2021 00:00:00 4.66667 C 5.19 g/m*3 4.67 C 3.075 km/h
1466 20-01-2021 01:00:00 4.38333 C 5.21 g/m*3 4.38 C 0.66667 km/h
1467 20-01-2021 02:00:00 3.61667 C 5.19 g/m*3 3.62 C 2.13333 km/h
1468 20-01-2021 03:00:00 3.74167 C 5.33 g/m*3 2.46 C 5.49167 km/h
1469 20-01-2021 04:00:00 4.875 C 5.36 g/m*3 4.88 C 2.4 km/h
1470 20-01-2021 05:00:00 5.08333 C 5.43 g/m*3 5.08 C 4 km/h
1471 20-01-2021 06:00:00 4.875 C 5.62 g/m*3 4.88 C 3.6 km/h
1472 20-01-2021 07:00:00 4.66667 C 5.61 g/m*3 4.67 C 3.34167 km/h
1473 20-01-2021 08:00:00 4.34167 C 5.55 g/m*3 4.34 C 1.73333 km/h
1474 20-01-2021 09:00:00 4.49167 C 5.58 g/m*3 4.49 C 1.46667 km/h
1475 20-01-2021 10:00:00 5.175 C 5.81 g/m*3 5.18 C 0.13333 km/h
Sensor: Nr:Datum:Temp:Abs-Feuchte:Windchill:Wind:
Aussen-T/F 1476 20-01-2021 11:00:00 6.25833 C 5.83 g/m*3 6.26 C 0.26667 km/h
1477 20-01-2021 12:00:00 7.40833 C 6.11 g/m*3 7.41 C 1.33333 km/h
1478 20-01-2021 13:00:00 8.38333 C 6.45 g/m*3 8.38 C 0.93333 km/h
1479 20-01-2021 14:00:00 9.1 C 6.67 g/m*3 9.1 C 2.26667 km/h
1480 20-01-2021 15:00:00 9.29167 C 6.87 g/m*3 9.29 C 3.21667 km/h
1481 20-01-2021 16:00:00 8.63333 C 6.92 g/m*3 8.63 C 1.33333 km/h
1482 20-01-2021 17:00:00 7.06667 C 6.66 g/m*3 7.07 C 3.33333 km/h
1483 20-01-2021 18:00:00 6.74167 C 6.74 g/m*3 6.74 C 3.86667 km/h
1484 20-01-2021 19:00:00 7.15833 C 6.8 g/m*3 7.16 C 4.26667 km/h
1485 20-01-2021 20:00:00 7.30833 C 6.81 g/m*3 7.31 C 3.2 km/h
1486 20-01-2021 21:00:00 7.275 C 6.76 g/m*3 7.28 C 3.875 km/h
1487 20-01-2021 22:00:00 8.225 C 6.75 g/m*3 8.23 C 3.73333 km/h
1488 20-01-2021 23:00:00 9.16667 C 6.73 g/m*3 8.4 C 6.43333 km/h
1489 21-01-2021 00:00:00 9.10833 C 6.64 g/m*3 8.4 C 6.16667 km/h
1490 21-01-2021 01:00:00 8.825 C 6.64 g/m*3 8.11 C 6.025 km/h
1491 21-01-2021 02:00:00 9.94167 C 6.78 g/m*3 9.54 C 5.50833 km/h
1492 21-01-2021 03:00:00 10.125 C 6.66 g/m*3 9.01 C 8.725 km/h
1493 21-01-2021 04:00:00 11.25 C 6.64 g/m*3 11.25 C 13.28333 km/h
1494 21-01-2021 05:00:00 11.38333 C 6.93 g/m*3 11.38 C 11.01667 km/h
1495 21-01-2021 06:00:00 11.19167 C 7.09 g/m*3 11.19 C 9.39167 km/h
1496 21-01-2021 07:00:00 11.21667 C 7.47 g/m*3 11.22 C 8.725 km/h
1497 21-01-2021 08:00:00 9.81667 C 8.04 g/m*3 8.99 C 7.10833 km/h
1498 21-01-2021 09:00:00 8.05833 C 7.43 g/m*3 6.2 C 10.60833 km/h
1499 21-01-2021 10:00:00 6.74167 C 6.9 g/m*3 4.45 C 11.53333 km/h
1500 21-01-2021 11:00:00 6.9 C 6.86 g/m*3 4.86 C 10.34167 km/h
Sensor: Nr:Datum:Temp:Abs-Feuchte:Windchill:Wind:
Aussen-T/F 1501 21-01-2021 12:00:00 7.275 C 6.72 g/m*3 4.37 C 16.36667 km/h
1502 21-01-2021 13:00:00 7.825 C 6.68 g/m*3 6.5 C 7.8 km/h
1503 21-01-2021 14:00:00 8.35 C 6.69 g/m*3 6.72 C 9.66667 km/h
1504 21-01-2021 15:00:00 8.7 C 6.52 g/m*3 7.22 C 9.25833 km/h
1505 21-01-2021 16:00:00 8.45 C 6.56 g/m*3 8.45 C 2.80833 km/h
1506 21-01-2021 17:00:00 7.96667 C 6.64 g/m*3 7.97 C 2.13333 km/h
1507 21-01-2021 18:00:00 7.98333 C 6.89 g/m*3 7.98 C 2 km/h
1508 21-01-2021 19:00:00 7.75 C 7.21 g/m*3 7.75 C 2.275 km/h
1509 21-01-2021 20:00:00 7.53333 C 7.49 g/m*3 7.53 C 3.46667 km/h
1510 21-01-2021 21:00:00 8.43333 C 8.09 g/m*3 7.22 C 7.78333 km/h
1511 21-01-2021 22:00:00 9.69167 C 8.38 g/m*3 7.63 C 14.23333 km/h
1512 21-01-2021 23:00:00 9.89167 C 8.33 g/m*3 7.66 C 15.975 km/h
1513 22-01-2021 00:00:00 10.19167 C 8.21 g/m*3 7.95 C 16.775 km/h
1514 22-01-2021 01:00:00 10.125 C 8.14 g/m*3 8.43 C 12.21667 km/h
1515 22-01-2021 02:00:00 9.64167 C 8.03 g/m*3 8.26 C 9.675 km/h
1516 22-01-2021 03:00:00 9.86667 C 8.08 g/m*3 7.67 C 15.7 km/h
1517 22-01-2021 04:00:00 10.075 C 8.18 g/m*3 8.08 C 14.36667 km/h
1518 22-01-2021 05:00:00 8.275 C 7.4 g/m*3 6.24 C 11.925 km/h
1519 22-01-2021 06:00:00 6.05 C 6.73 g/m*3 6.05 C 2.13333 km/h
1520 22-01-2021 07:00:00 5.09167 C 6.37 g/m*3 5.09 C 2.53333 km/h
1521 22-01-2021 08:00:00 4.575 C 6.23 g/m*3 4.58 C 1.86667 km/h
1522 22-01-2021 09:00:00 4.44167 C 6.22 g/m*3 4.44 C 2.8 km/h
1523 22-01-2021 10:00:00 4.68333 C 6.32 g/m*3 4.68 C 1.86667 km/h
1524 22-01-2021 11:00:00 5.06667 C 6.49 g/m*3 5.07 C 2.53333 km/h
1525 22-01-2021 12:00:00 5.53333 C 6.63 g/m*3 5.53 C 2.53333 km/h
Sensor: Nr:Datum:Temp:Abs-Feuchte:Windchill:Wind:
Aussen-T/F 1526 22-01-2021 13:00:00 5.96667 C 6.61 g/m*3 5.1 C 5.21667 km/h
1527 22-01-2021 14:00:00 6.05 C 6.56 g/m*3 5.06 C 5.60833 km/h
1528 22-01-2021 15:00:00 6.24167 C 6.55 g/m*3 6.24 C 2.13333 km/h
1529 22-01-2021 16:00:00 5.76667 C 6.46 g/m*3 5.77 C 2.26667 km/h
1530 22-01-2021 17:00:00 3.85 C 5.78 g/m*3 3.85 C 4.8 km/h
1531 22-01-2021 18:00:00 2.825 C 5.5 g/m*3 2.83 C 0.26667 km/h
1532 22-01-2021 19:00:00 2.71667 C 5.52 g/m*3 2.72 C 0 km/h
1533 22-01-2021 20:00:00 2.55 C 5.48 g/m*3 2.55 C 0 km/h
1534 22-01-2021 21:00:00 2.59167 C 5.54 g/m*3 2.59 C 0.66667 km/h
1535 22-01-2021 22:00:00 2.64167 C 5.57 g/m*3 2.64 C 0.13333 km/h
1536 22-01-2021 23:00:00 2.55833 C 5.54 g/m*3 2.56 C 0.53333 km/h
1537 23-01-2021 00:00:00 2.5 C 5.52 g/m*3 2.5 C 1.46667 km/h
1538 23-01-2021 01:00:00 2.49167 C 5.52 g/m*3 2.49 C 1.46667 km/h
1539 23-01-2021 02:00:00 2.31667 C 5.45 g/m*3 2.32 C 1.6 km/h
1540 23-01-2021 03:00:00 2.35 C 5.47 g/m*3 0.98 C 5.21667 km/h
1541 23-01-2021 04:00:00 2.60833 C 5.56 g/m*3 0.42 C 7.66667 km/h
1542 23-01-2021 05:00:00 3.00833 C 5.7 g/m*3 1.37 C 6.16667 km/h
1543 23-01-2021 06:00:00 2.90833 C 5.63 g/m*3 2.91 C 2 km/h
1544 23-01-2021 07:00:00 3.2 C 5.72 g/m*3 3.2 C 0.13333 km/h
1545 23-01-2021 08:00:00 3.28333 C 5.78 g/m*3 3.28 C 1.46667 km/h
1546 23-01-2021 09:00:00 3.73333 C 5.93 g/m*3 3.73 C 0.66667 km/h
1547 23-01-2021 10:00:00 4 C 6.03 g/m*3 4 C 0.4 km/h
1548 23-01-2021 11:00:00 4.85833 C 6.28 g/m*3 4.86 C 3.75 km/h
1549 23-01-2021 12:00:00 5.35 C 6.21 g/m*3 4.03 C 6.29167 km/h
1550 23-01-2021 13:00:00 5.96667 C 6.22 g/m*3 5.97 C 3.60833 km/h
Sensor: Nr:Datum:Temp:Abs-Feuchte:Windchill:Wind:
Aussen-T/F 1551 23-01-2021 14:00:00 6.275 C 6.33 g/m*3 6.28 C 0.93333 km/h
1552 23-01-2021 15:00:00 6.475 C 6.33 g/m*3 6.48 C 0.8 km/h
1553 23-01-2021 16:00:00 6.09167 C 6.24 g/m*3 6.09 C 2.13333 km/h
1554 23-01-2021 17:00:00 5.40833 C 6.13 g/m*3 5.41 C 0.8 km/h
1555 23-01-2021 18:00:00 4.88333 C 6 g/m*3 4.88 C 1.73333 km/h
1556 23-01-2021 19:00:00 4.59167 C 6.06 g/m*3 4.59 C 1.2 km/h
1557 23-01-2021 20:00:00 4.2 C 6.01 g/m*3 4.2 C 0.4 km/h
1558 23-01-2021 21:00:00 3.875 C 5.93 g/m*3 3.88 C 0.53333 km/h
1559 23-01-2021 22:00:00 3.61667 C 5.89 g/m*3 3.62 C 1.73333 km/h
1560 23-01-2021 23:00:00 3.56667 C 5.87 g/m*3 3.57 C 0.13333 km/h
1561 24-01-2021 00:00:00 3.6 C 5.91 g/m*3 3.6 C 0 km/h
1562 24-01-2021 01:00:00 3.39167 C 5.84 g/m*3 3.39 C 1.34167 km/h
1563 24-01-2021 02:00:00 2.28333 C 5.39 g/m*3 2.28 C 3.86667 km/h
1564 24-01-2021 03:00:00 2.16667 C 5.39 g/m*3 -0.36 C 8.59167 km/h
1565 24-01-2021 04:00:00 2.09167 C 5.23 g/m*3 -1.58 C 13.56667 km/h
1566 24-01-2021 05:00:00 2.21667 C 5.19 g/m*3 -1.3 C 12.9 km/h
1567 24-01-2021 06:00:00 2.29167 C 5.2 g/m*3 -1.69 C 15.56667 km/h
1568 24-01-2021 07:00:00 2.075 C 5.17 g/m*3 -1.28 C 11.96667 km/h
1569 24-01-2021 08:00:00 1.84167 C 5.16 g/m*3 -1.17 C 10.23333 km/h
1570 24-01-2021 09:00:00 1.83333 C 5.21 g/m*3 -1.08 C 9.825 km/h
1571 24-01-2021 10:00:00 2.33333 C 5.4 g/m*3 0.14 C 7.525 km/h
1572 24-01-2021 11:00:00 2.68333 C 5.51 g/m*3 1.1 C 5.9 km/h
1573 24-01-2021 12:00:00 2.95833 C 5.53 g/m*3 0.02 C 10.89167 km/h
1574 24-01-2021 13:00:00 3.65833 C 5.51 g/m*3 0.67 C 11.825 km/h
1575 24-01-2021 14:00:00 3.85 C 5.41 g/m*3 0.62 C 13.29167 km/h
Sensor: Nr:Datum:Temp:Abs-Feuchte:Windchill:Wind:
Aussen-T/F 1576 24-01-2021 15:00:00 3.78333 C 5.23 g/m*3 1.25 C 9.81667 km/h
1577 24-01-2021 16:00:00 3.29167 C 5.06 g/m*3 1.11 C 8.05833 km/h
1578 24-01-2021 17:00:00 2.06667 C 4.74 g/m*3 -0.37 C 8.19167 km/h
1579 24-01-2021 18:00:00 0.875 C 4.55 g/m*3 -0.81 C 5.49167 km/h
1580 24-01-2021 19:00:00 0.075 C 4.47 g/m*3 0.08 C 0.93333 km/h
1581 24-01-2021 20:00:00 -0.125 C 4.48 g/m*3 -0.13 C 0.13333 km/h
1582 24-01-2021 21:00:00 0.03333 C 4.56 g/m*3 0.03 C 0.8 km/h
1583 24-01-2021 22:00:00 0.5 C 4.64 g/m*3 0.5 C 3.2 km/h
1584 24-01-2021 23:00:00 1.275 C 4.67 g/m*3 1.27 C 3.86667 km/h
1585 25-01-2021 00:00:00 1.225 C 4.7 g/m*3 1.23 C 2.40833 km/h
1586 25-01-2021 01:00:00 0.85 C 4.75 g/m*3 0.85 C 1.33333 km/h
1587 25-01-2021 02:00:00 0.88333 C 4.79 g/m*3 0.88 C 2.4 km/h
1588 25-01-2021 03:00:00 0.86667 C 4.76 g/m*3 0.87 C 4.28333 km/h
1589 25-01-2021 04:00:00 1.03333 C 4.81 g/m*3 -1.2 C 6.98333 km/h
1590 25-01-2021 05:00:00 1.2 C 4.85 g/m*3 1.2 C 2 km/h
1591 25-01-2021 06:00:00 1.05833 C 4.84 g/m*3 1.06 C 0 km/h
1592 25-01-2021 07:00:00 0.9 C 4.83 g/m*3 0.9 C 0 km/h
1593 25-01-2021 08:00:00 0.94167 C 4.86 g/m*3 0.94 C 0 km/h
1594 25-01-2021 09:00:00 1.15 C 4.95 g/m*3 1.15 C 0 km/h
1595 25-01-2021 10:00:00 1.53333 C 5.11 g/m*3 1.53 C 0 km/h
1596 25-01-2021 11:00:00 1.9 C 5.24 g/m*3 1.9 C 0.13333 km/h
1597 25-01-2021 12:00:00 2.25833 C 5.37 g/m*3 2.26 C 0.66667 km/h
1598 25-01-2021 13:00:00 2.20833 C 5.34 g/m*3 2.21 C 4.41667 km/h
1599 25-01-2021 14:00:00 2.16667 C 5.24 g/m*3 0.35 C 6.30833 km/h
1600 25-01-2021 15:00:00 2.13333 C 5.23 g/m*3 0.79 C 5.09167 km/h
Sensor: Nr:Datum:Temp:Abs-Feuchte:Windchill:Wind:
Aussen-T/F 1601 25-01-2021 16:00:00 2.1 C 5.2 g/m*3 0.7 C 5.21667 km/h
1602 25-01-2021 17:00:00 2.09167 C 5.2 g/m*3 2.09 C 2.13333 km/h
1603 25-01-2021 18:00:00 1.45 C 5 g/m*3 1.45 C 1.46667 km/h
1604 25-01-2021 19:00:00 1.175 C 4.94 g/m*3 1.18 C 1.86667 km/h
1605 25-01-2021 20:00:00 0.54167 C 4.73 g/m*3 0.54 C 4.8 km/h
1606 25-01-2021 21:00:00 0.43333 C 4.68 g/m*3 -1.43 C 5.75 km/h
1607 25-01-2021 22:00:00 0.63333 C 4.63 g/m*3 -1.75 C 7.25 km/h
1608 25-01-2021 23:00:00 1.33333 C 4.73 g/m*3 -1.74 C 10.08333 km/h
1609 26-01-2021 00:00:00 1.7 C 4.8 g/m*3 -1.79 C 12.23333 km/h
1610 26-01-2021 01:00:00 1.75 C 4.83 g/m*3 -1.89 C 13.03333 km/h
1611 26-01-2021 02:00:00 1.86667 C 4.89 g/m*3 -2.03 C 14.5 km/h
1612 26-01-2021 03:00:00 2.06667 C 4.94 g/m*3 -1.35 C 12.23333 km/h
1613 26-01-2021 04:00:00 2.35833 C 5.03 g/m*3 -1.3 C 13.83333 km/h
1614 26-01-2021 05:00:00 2.85 C 5.16 g/m*3 -1 C 15.56667 km/h
1615 26-01-2021 06:00:00 3.175 C 5.24 g/m*3 -0.53 C 15.16667 km/h
1616 26-01-2021 07:00:00 3.39167 C 5.25 g/m*3 -0.28 C 15.3 km/h
1617 26-01-2021 08:00:00 3.8 C 5.21 g/m*3 0.24 C 15.16667 km/h
1618 26-01-2021 09:00:00 3.80833 C 5.26 g/m*3 0.43 C 14.1 km/h
1619 26-01-2021 10:00:00 4.23333 C 5.33 g/m*3 1.14 C 13.03333 km/h
1620 26-01-2021 11:00:00 4.58333 C 5.35 g/m*3 1.21 C 15.16667 km/h
1621 26-01-2021 12:00:00 4.88333 C 5.44 g/m*3 2.02 C 12.5 km/h
1622 26-01-2021 13:00:00 5.15 C 5.46 g/m*3 2.19 C 13.43333 km/h
1623 26-01-2021 14:00:00 5.00833 C 5.42 g/m*3 1.86 C 14.36667 km/h
1624 26-01-2021 15:00:00 4.71667 C 5.32 g/m*3 1.75 C 12.9 km/h
1625 26-01-2021 16:00:00 4.55833 C 5.26 g/m*3 1.65 C 12.36667 km/h
Sensor: Nr:Datum:Temp:Abs-Feuchte:Windchill:Wind:
Aussen-T/F 1626 26-01-2021 17:00:00 4.10833 C 5.03 g/m*3 0.78 C 14.23333 km/h
1627 26-01-2021 18:00:00 3.275 C 4.85 g/m*3 1.09 C 8.075 km/h
1628 26-01-2021 19:00:00 2.08333 C 4.77 g/m*3 0.41 C 5.9 km/h
1629 26-01-2021 20:00:00 1.83333 C 4.86 g/m*3 -0.43 C 7.5 km/h
1630 26-01-2021 21:00:00 2.65833 C 5.07 g/m*3 -0.16 C 10.09167 km/h
1631 26-01-2021 22:00:00 2.75 C 5.08 g/m*3 -0.35 C 11.43333 km/h
1632 26-01-2021 23:00:00 2.31667 C 4.94 g/m*3 -0.03 C 8.05 km/h
1633 27-01-2021 00:00:00 2.03333 C 4.85 g/m*3 2.03 C 2.40833 km/h
1634 27-01-2021 01:00:00 1.38333 C 4.71 g/m*3 1.38 C 2.4 km/h
1635 27-01-2021 02:00:00 1.01667 C 4.65 g/m*3 1.02 C 1.46667 km/h
1636 27-01-2021 03:00:00 1.05 C 4.72 g/m*3 1.05 C 0.8 km/h
1637 27-01-2021 04:00:00 1.41667 C 4.78 g/m*3 -0.03 C 5.1 km/h
1638 27-01-2021 05:00:00 1.79167 C 4.83 g/m*3 1.79 C 4.95833 km/h
1639 27-01-2021 06:00:00 1.61667 C 4.9 g/m*3 1.62 C 2.13333 km/h
1640 27-01-2021 07:00:00 1.3 C 4.9 g/m*3 1.3 C 0 km/h
1641 27-01-2021 08:00:00 1.3 C 4.98 g/m*3 1.3 C 1.86667 km/h
1642 27-01-2021 09:00:00 1.55 C 5.07 g/m*3 1.55 C 2.53333 km/h
1643 27-01-2021 10:00:00 1.68333 C 5.14 g/m*3 1.68 C 0.26667 km/h
1644 27-01-2021 11:00:00 2.2 C 5.35 g/m*3 0.64 C 5.64167 km/h
1645 27-01-2021 12:00:00 2.59167 C 5.44 g/m*3 -0.11 C 9.55 km/h
1646 27-01-2021 13:00:00 2.78333 C 5.51 g/m*3 0.37 C 8.59167 km/h
1647 27-01-2021 14:00:00 2.75833 C 5.5 g/m*3 0.19 C 9.15 km/h
1648 27-01-2021 15:00:00 2.80833 C 5.56 g/m*3 -0.58 C 12.9 km/h
1649 27-01-2021 16:00:00 2.86667 C 5.6 g/m*3 -0.56 C 13.16667 km/h
1650 27-01-2021 17:00:00 2.89167 C 5.61 g/m*3 -0.24 C 11.7 km/h
Sensor: Nr:Datum:Temp:Abs-Feuchte:Windchill:Wind:
Aussen-T/F 1651 27-01-2021 18:00:00 2.925 C 5.62 g/m*3 -0.11 C 11.29167 km/h
1652 27-01-2021 19:00:00 3.06667 C 5.67 g/m*3 -0.05 C 11.83333 km/h
1653 27-01-2021 20:00:00 3.225 C 5.72 g/m*3 0.17 C 11.7 km/h
1654 27-01-2021 21:00:00 3.375 C 5.73 g/m*3 0.4 C 11.43333 km/h
1655 27-01-2021 22:00:00 3.6 C 5.82 g/m*3 0.79 C 10.9 km/h
1656 27-01-2021 23:00:00 3.775 C 5.89 g/m*3 0.89 C 11.425 km/h
1657 28-01-2021 00:00:00 3.89167 C 5.93 g/m*3 1.03 C 11.43333 km/h
1658 28-01-2021 01:00:00 4.11667 C 6.02 g/m*3 1.22 C 11.825 km/h
1659 28-01-2021 02:00:00 4.35 C 6.12 g/m*3 2.47 C 7.64167 km/h
1660 28-01-2021 03:00:00 4.66667 C 6.25 g/m*3 2.66 C 8.33333 km/h
1661 28-01-2021 04:00:00 4.56667 C 6.27 g/m*3 4.57 C 2.4 km/h
1662 28-01-2021 05:00:00 4.5 C 6.24 g/m*3 4.5 C 0 km/h
1663 28-01-2021 06:00:00 4.4 C 6.24 g/m*3 4.4 C 0 km/h
1664 28-01-2021 07:00:00 4.3 C 6.23 g/m*3 4.3 C 0 km/h
1665 28-01-2021 08:00:00 4.2 C 6.19 g/m*3 4.2 C 0 km/h
1666 28-01-2021 09:00:00 4.33333 C 6.24 g/m*3 4.33 C 0 km/h
1667 28-01-2021 10:00:00 4.61667 C 6.38 g/m*3 4.62 C 1.2 km/h
1668 28-01-2021 11:00:00 5.03333 C 6.61 g/m*3 5.03 C 1.6 km/h
1669 28-01-2021 12:00:00 6.30833 C 7.18 g/m*3 4.8 C 7.50833 km/h
1670 28-01-2021 13:00:00 7.825 C 7.93 g/m*3 5.64 C 12.23333 km/h
1671 28-01-2021 14:00:00 9.34167 C 8.67 g/m*3 6.98 C 15.975 km/h
1672 28-01-2021 15:00:00 10.31667 C 9.12 g/m*3 8.18 C 16.10833 km/h
1673 28-01-2021 16:00:00 10.65 C 9.37 g/m*3 8.86 C 13.83333 km/h
1674 28-01-2021 17:00:00 11.03333 C 9.19 g/m*3 11.03 C 16.36667 km/h
1675 28-01-2021 18:00:00 11.16667 C 8.96 g/m*3 11.17 C 14.76667 km/h
Sensor: Nr:Datum:Temp:Abs-Feuchte:Windchill:Wind:
Aussen-T/F 1676 28-01-2021 19:00:00 11.15 C 8.82 g/m*3 11.15 C 14.76667 km/h
1677 28-01-2021 20:00:00 10.70833 C 8.78 g/m*3 9.05 C 12.9 km/h
1678 28-01-2021 21:00:00 10.25833 C 8.6 g/m*3 8.63 C 11.96667 km/h
1679 28-01-2021 22:00:00 10.10833 C 8.39 g/m*3 9.21 C 7.65 km/h
1680 28-01-2021 23:00:00 9.04167 C 7.99 g/m*3 7.96 C 7.64167 km/h
1681 29-01-2021 00:00:00 8.88333 C 7.96 g/m*3 7.86 C 7.25833 km/h
1682 29-01-2021 01:00:00 8.625 C 7.9 g/m*3 8.63 C 2 km/h
1683 29-01-2021 02:00:00 8.21667 C 7.82 g/m*3 8.22 C 0 km/h
1684 29-01-2021 03:00:00 8.3 C 8.01 g/m*3 8.3 C 0 km/h
1685 29-01-2021 04:00:00 8.3 C 8.04 g/m*3 8.3 C 0.4 km/h
1686 29-01-2021 05:00:00 8.51667 C 8.21 g/m*3 8.52 C 0 km/h
1687 29-01-2021 06:00:00 8.775 C 8.39 g/m*3 8.78 C 1.2 km/h
1688 29-01-2021 07:00:00 8.85833 C 8.41 g/m*3 6.5 C 15.03333 km/h
1689 29-01-2021 08:00:00 8.80833 C 8.16 g/m*3 6.37 C 15.56667 km/h
1690 29-01-2021 09:00:00 9.24167 C 8.18 g/m*3 7.06 C 14.36667 km/h
1691 29-01-2021 10:00:00 10.05833 C 8.02 g/m*3 7.64 C 18.1 km/h
1692 29-01-2021 11:00:00 10.3 C 7.7 g/m*3 7.98 C 17.7 km/h
1693 29-01-2021 12:00:00 10.40833 C 7.98 g/m*3 8.09 C 17.96667 km/h
1694 29-01-2021 13:00:00 9.525 C 7.89 g/m*3 6.77 C 20.10833 km/h
1695 29-01-2021 14:00:00 9.075 C 7.94 g/m*3 7.88 C 8.19167 km/h
1696 29-01-2021 15:00:00 9.65 C 7.96 g/m*3 7.96 C 11.55833 km/h
1697 29-01-2021 16:00:00 9.26667 C 7.56 g/m*3 8.41 C 6.83333 km/h
1698 29-01-2021 17:00:00 9.29167 C 7.63 g/m*3 7.57 C 11.28333 km/h
1699 29-01-2021 18:00:00 8.74167 C 7.41 g/m*3 6.61 C 13.16667 km/h
1700 29-01-2021 19:00:00 8.15833 C 7.31 g/m*3 6.71 C 8.6 km/h
Sensor: Nr:Datum:Temp:Abs-Feuchte:Windchill:Wind:
Aussen-T/F 1701 29-01-2021 20:00:00 7.85 C 7.42 g/m*3 6.18 C 9.41667 km/h
1702 29-01-2021 21:00:00 7.6 C 7.47 g/m*3 6.62 C 6.30833 km/h
1703 29-01-2021 22:00:00 7.70833 C 7.46 g/m*3 6.15 C 8.75 km/h
1704 29-01-2021 23:00:00 8.20833 C 7.28 g/m*3 6.26 C 11.28333 km/h
1705 30-01-2021 00:00:00 8.41667 C 7.28 g/m*3 5.89 C 15.56667 km/h
1706 30-01-2021 01:00:00 8.24167 C 7.11 g/m*3 6.02 C 13.03333 km/h
1707 30-01-2021 02:00:00 7.73333 C 7.01 g/m*3 6.18 C 8.75 km/h
1708 30-01-2021 03:00:00 7.38333 C 7.08 g/m*3 6.05 C 7.525 km/h
1709 30-01-2021 04:00:00 7.25 C 7.04 g/m*3 5.35 C 9.96667 km/h
1710 30-01-2021 05:00:00 7.59167 C 7.21 g/m*3 5.52 C 11.29167 km/h
1711 30-01-2021 06:00:00 7.325 C 7.3 g/m*3 7.33 C 4.025 km/h
1712 30-01-2021 07:00:00 6.84167 C 7.17 g/m*3 6.84 C 2.40833 km/h
1713 30-01-2021 08:00:00 5.63333 C 6.66 g/m*3 5.63 C 2.95 km/h
1714 30-01-2021 09:00:00 4.78333 C 6.36 g/m*3 4.78 C 1.06667 km/h
1715 30-01-2021 10:00:00 4.58333 C 6.3 g/m*3 4.58 C 1.2 km/h
1716 30-01-2021 11:00:00 4.2 C 6.15 g/m*3 4.2 C 4.14167 km/h
1717 30-01-2021 12:00:00 2.88333 C 5.57 g/m*3 0.21 C 9.675 km/h
1718 30-01-2021 13:00:00 2.53333 C 5.41 g/m*3 -0.4 C 10.49167 km/h
1719 30-01-2021 14:00:00 2.00833 C 5.2 g/m*3 -0.94 C 10.08333 km/h
1720 30-01-2021 15:00:00 1.60833 C 5.09 g/m*3 -0.57 C 7.10833 km/h
1721 30-01-2021 16:00:00 1.24167 C 5 g/m*3 1.24 C 3.20833 km/h
1722 30-01-2021 17:00:00 1.16667 C 4.99 g/m*3 1.17 C 3.74167 km/h
1723 30-01-2021 18:00:00 1.2 C 5 g/m*3 -0.77 C 6.31667 km/h
1724 30-01-2021 19:00:00 1.18333 C 4.99 g/m*3 1.18 C 4.00833 km/h
1725 30-01-2021 20:00:00 1.1 C 4.96 g/m*3 1.1 C 0.93333 km/h
Sensor: Nr:Datum:Temp:Abs-Feuchte:Windchill:Wind:
Aussen-T/F 1726 30-01-2021 21:00:00 1.1 C 5 g/m*3 1.1 C 0.8 km/h
1727 30-01-2021 22:00:00 1.1 C 5.02 g/m*3 1.1 C 1.33333 km/h
1728 30-01-2021 23:00:00 0.98333 C 4.98 g/m*3 0.98 C 1.74167 km/h
1729 31-01-2021 00:00:00 0.84167 C 4.88 g/m*3 0.84 C 2.275 km/h
1730 31-01-2021 01:00:00 0.78333 C 4.86 g/m*3 0.78 C 2.94167 km/h
1731 31-01-2021 02:00:00 0.7 C 4.82 g/m*3 0.7 C 1.46667 km/h
1732 31-01-2021 03:00:00 0.61667 C 4.74 g/m*3 0.62 C 2.28333 km/h
1733 31-01-2021 04:00:00 0.48333 C 4.67 g/m*3 0.48 C 1.6 km/h
1734 31-01-2021 05:00:00 0.35 C 4.56 g/m*3 -1.89 C 6.71667 km/h
1735 31-01-2021 06:00:00 0.24167 C 4.45 g/m*3 -1.71 C 5.9 km/h
1736 31-01-2021 07:00:00 0.2 C 4.38 g/m*3 -1.64 C 5.61667 km/h
1737 31-01-2021 08:00:00 0.175 C 4.36 g/m*3 0.18 C 4.55 km/h
1738 31-01-2021 09:00:00 0.25833 C 4.41 g/m*3 0.26 C 2.13333 km/h
1739 31-01-2021 10:00:00 0.525 C 4.42 g/m*3 -1.32 C 5.75 km/h
1740 31-01-2021 11:00:00 0.88333 C 4.49 g/m*3 -1.41 C 7.10833 km/h
1741 31-01-2021 12:00:00 1.3 C 4.6 g/m*3 -0.33 C 5.49167 km/h
1742 31-01-2021 13:00:00 1.48333 C 4.67 g/m*3 -0.76 C 7.24167 km/h
1743 31-01-2021 14:00:00 1.54167 C 4.73 g/m*3 -0.74 C 7.38333 km/h
1744 31-01-2021 15:00:00 1.68333 C 4.8 g/m*3 1.68 C 2.4 km/h
1745 31-01-2021 16:00:00 1.66667 C 4.87 g/m*3 1.67 C 2.4 km/h
1746 31-01-2021 17:00:00 1.625 C 4.96 g/m*3 1.63 C 0.13333 km/h
1747 31-01-2021 18:00:00 1.425 C 4.96 g/m*3 1.43 C 0 km/h
1748 31-01-2021 19:00:00 1.4 C 4.99 g/m*3 1.4 C 0 km/h
1749 31-01-2021 20:00:00 1.45 C 5.03 g/m*3 1.45 C 0 km/h
1750 31-01-2021 21:00:00 1.54167 C 5.12 g/m*3 1.54 C 0.26667 km/h
Sensor: Nr:Datum:Temp:Abs-Feuchte:Windchill:Wind:
Aussen-T/F 1751 31-01-2021 22:00:00 1.6 C 5.14 g/m*3 1.6 C 0 km/h
1752 31-01-2021 23:00:00 1.6 C 5.18 g/m*3 1.6 C 0 km/h
1753 01-02-2021 00:00:00 1.7 C 5.23 g/m*3 1.7 C 0.26667 km/h
1754 01-02-2021 01:00:00 1.7 C 5.23 g/m*3 1.7 C 0.93333 km/h
1755 01-02-2021 02:00:00 1.775 C 5.25 g/m*3 1.78 C 0.13333 km/h
1756 01-02-2021 03:00:00 1.85833 C 5.28 g/m*3 1.86 C 0.4 km/h
1757 01-02-2021 04:00:00 1.9 C 5.3 g/m*3 1.9 C 0.26667 km/h
1758 01-02-2021 05:00:00 1.95833 C 5.32 g/m*3 1.96 C 0.4 km/h
1759 01-02-2021 06:00:00 2.09167 C 5.37 g/m*3 2.09 C 0.4 km/h
1760 01-02-2021 07:00:00 2.15833 C 5.45 g/m*3 2.16 C 0.26667 km/h
1761 01-02-2021 08:00:00 2.23333 C 5.48 g/m*3 2.23 C 0.13333 km/h
1762 01-02-2021 09:00:00 2.75833 C 5.67 g/m*3 2.76 C 0 km/h
1763 01-02-2021 10:00:00 3.49167 C 5.96 g/m*3 3.49 C 0.26667 km/h
1764 01-02-2021 11:00:00 3.98333 C 6.16 g/m*3 3.98 C 0 km/h
1765 01-02-2021 12:00:00 4.45 C 6.35 g/m*3 4.45 C 1.46667 km/h
1766 01-02-2021 13:00:00 4.975 C 6.57 g/m*3 4.97 C 0.53333 km/h
1767 01-02-2021 14:00:00 5.40833 C 6.71 g/m*3 5.41 C 0.13333 km/h
1768 01-02-2021 15:00:00 5.76667 C 6.86 g/m*3 5.77 C 0.26667 km/h
1769 01-02-2021 16:00:00 5.94167 C 6.94 g/m*3 5.94 C 0 km/h
1770 01-02-2021 17:00:00 5.94167 C 6.94 g/m*3 5.94 C 0 km/h
1771 01-02-2021 18:00:00 5.71667 C 6.84 g/m*3 5.72 C 0 km/h
1772 01-02-2021 19:00:00 5.475 C 6.73 g/m*3 5.48 C 1.2 km/h
1773 01-02-2021 20:00:00 5.55833 C 6.83 g/m*3 5.56 C 1.06667 km/h
1774 01-02-2021 21:00:00 5.70833 C 6.91 g/m*3 5.71 C 1.46667 km/h
1775 01-02-2021 22:00:00 5.53333 C 6.8 g/m*3 5.53 C 2.13333 km/h
Sensor: Nr:Datum:Temp:Abs-Feuchte:Windchill:Wind:
Aussen-T/F 1776 01-02-2021 23:00:00 5.30833 C 6.68 g/m*3 5.31 C 0.4 km/h
1777 02-02-2021 00:00:00 5.18333 C 6.63 g/m*3 5.18 C 0 km/h
1778 02-02-2021 01:00:00 5.06667 C 6.62 g/m*3 5.07 C 1.6 km/h
1779 02-02-2021 02:00:00 4.95 C 6.57 g/m*3 4.95 C 2.26667 km/h
1780 02-02-2021 03:00:00 4.81667 C 6.51 g/m*3 4.82 C 1.73333 km/h
1781 02-02-2021 04:00:00 4.6 C 6.35 g/m*3 4.6 C 4.80833 km/h
1782 02-02-2021 05:00:00 4.6 C 6.29 g/m*3 4.6 C 1.86667 km/h
1783 02-02-2021 06:00:00 4.65 C 6.31 g/m*3 4.65 C 1.33333 km/h
1784 02-02-2021 07:00:00 4.85 C 6.43 g/m*3 4.85 C 0.8 km/h
1785 02-02-2021 08:00:00 5.14167 C 6.55 g/m*3 5.14 C 0.53333 km/h
1786 02-02-2021 09:00:00 5.48333 C 6.73 g/m*3 5.48 C 0 km/h
1787 02-02-2021 10:00:00 5.93333 C 6.95 g/m*3 5.93 C 0 km/h
1788 02-02-2021 11:00:00 6.55 C 7.29 g/m*3 6.55 C 0 km/h
1789 02-02-2021 12:00:00 7.50833 C 7.77 g/m*3 7.51 C 1.06667 km/h
1790 02-02-2021 13:00:00 9.35 C 8.69 g/m*3 7.27 C 13.81667 km/h
1791 02-02-2021 14:00:00 10.65 C 9.04 g/m*3 8.67 C 15.43333 km/h
1792 02-02-2021 15:00:00 11.125 C 9.19 g/m*3 11.13 C 9.68333 km/h
1793 02-02-2021 16:00:00 11.19167 C 9.23 g/m*3 11.19 C 7.25 km/h
1794 02-02-2021 17:00:00 10.84167 C 9.07 g/m*3 10.06 C 7.65833 km/h
1795 02-02-2021 18:00:00 10.79167 C 8.9 g/m*3 9.65 C 9.55833 km/h
1796 02-02-2021 19:00:00 10.175 C 8.64 g/m*3 10.18 C 4.28333 km/h
1797 02-02-2021 20:00:00 10.075 C 8.84 g/m*3 9.41 C 6.56667 km/h
1798 02-02-2021 21:00:00 10.00833 C 8.92 g/m*3 9.3 C 6.70833 km/h
1799 02-02-2021 22:00:00 10.29167 C 9.09 g/m*3 8.86 C 10.75 km/h
1800 02-02-2021 23:00:00 10.08333 C 8.97 g/m*3 9.78 C 5.225 km/h
Sensor: Nr:Datum:Temp:Abs-Feuchte:Windchill:Wind:
Aussen-T/F 1801 03-02-2021 00:00:00 10.26667 C 9.08 g/m*3 9.25 C 8.33333 km/h
1802 03-02-2021 01:00:00 9.65833 C 8.7 g/m*3 9.66 C 4.4 km/h
1803 03-02-2021 02:00:00 9.06667 C 8.47 g/m*3 9.07 C 2.66667 km/h
1804 03-02-2021 03:00:00 8.95 C 8.44 g/m*3 8.95 C 2.13333 km/h
1805 03-02-2021 04:00:00 8.33333 C 8.11 g/m*3 8.33 C 0 km/h
1806 03-02-2021 05:00:00 8 C 7.94 g/m*3 8 C 0 km/h
1807 03-02-2021 06:00:00 7.825 C 7.9 g/m*3 7.83 C 0 km/h
1808 03-02-2021 07:00:00 8 C 8.02 g/m*3 8 C 0 km/h
1809 03-02-2021 08:00:00 8.225 C 8.14 g/m*3 8.23 C 0 km/h
1810 03-02-2021 09:00:00 9.05833 C 8.64 g/m*3 9.06 C 0 km/h
1811 03-02-2021 10:00:00 9.83333 C 9.1 g/m*3 9.83 C 0 km/h
1812 03-02-2021 11:00:00 10.2 C 9.27 g/m*3 10.2 C 1.2 km/h
1813 03-02-2021 12:00:00 10.56667 C 9.5 g/m*3 10.57 C 2.54167 km/h
1814 03-02-2021 13:00:00 11.55833 C 9.76 g/m*3 11.56 C 18.9 km/h
1815 03-02-2021 14:00:00 12.11667 C 9.7 g/m*3 12.12 C 15.3 km/h
1816 03-02-2021 15:00:00 10.89167 C 9.28 g/m*3 8.87 C 16.25 km/h
1817 03-02-2021 16:00:00 11.26667 C 8.79 g/m*3 11.27 C 18.65 km/h
1818 03-02-2021 17:00:00 10.45 C 8.66 g/m*3 8.81 C 12.33333 km/h
1819 03-02-2021 18:00:00 9.81667 C 8.65 g/m*3 9.25 C 6.025 km/h
1820 03-02-2021 19:00:00 9.75833 C 8.69 g/m*3 8.22 C 10.75 km/h
1821 03-02-2021 20:00:00 10.175 C 8.84 g/m*3 8.83 C 10.09167 km/h
1822 03-02-2021 21:00:00 9.95 C 8.69 g/m*3 7.98 C 13.96667 km/h
1823 03-02-2021 22:00:00 9.6 C 8.44 g/m*3 7.26 C 16.36667 km/h
1824 03-02-2021 23:00:00 9.7 C 8.01 g/m*3 7.31 C 17.03333 km/h
1825 04-02-2021 00:00:00 9.36667 C 7.69 g/m*3 6.98 C 16.23333 km/h
Sensor: Nr:Datum:Temp:Abs-Feuchte:Windchill:Wind:
Aussen-T/F 1826 04-02-2021 01:00:00 8.76667 C 7.53 g/m*3 6.96 C 11.15833 km/h
1827 04-02-2021 02:00:00 8.03333 C 7.3 g/m*3 6.42 C 9.275 km/h
1828 04-02-2021 03:00:00 7.51667 C 7 g/m*3 5.57 C 10.5 km/h
1829 04-02-2021 04:00:00 7.175 C 6.75 g/m*3 4.56 C 14.09167 km/h
1830 04-02-2021 05:00:00 6.58333 C 6.57 g/m*3 4.7 C 9.28333 km/h
1831 04-02-2021 06:00:00 6.23333 C 6.63 g/m*3 4.44 C 8.58333 km/h
1832 04-02-2021 07:00:00 6.4 C 6.65 g/m*3 4.61 C 8.71667 km/h
1833 04-02-2021 08:00:00 5.775 C 6.45 g/m*3 4.32 C 6.98333 km/h
1834 04-02-2021 09:00:00 5.15 C 6.33 g/m*3 5.15 C 3.33333 km/h
1835 04-02-2021 10:00:00 5.25 C 6.46 g/m*3 5.25 C 3.6 km/h
1836 04-02-2021 11:00:00 6.6 C 6.82 g/m*3 4.84 C 8.725 km/h
1837 04-02-2021 12:00:00 7.76667 C 6.91 g/m*3 5.97 C 9.94167 km/h
1838 04-02-2021 13:00:00 8.01667 C 6.84 g/m*3 6.89 C 7.10833 km/h
1839 04-02-2021 14:00:00 8.89167 C 6.91 g/m*3 7.94 C 6.975 km/h
1840 04-02-2021 15:00:00 8.41667 C 6.94 g/m*3 8.42 C 4.13333 km/h
1841 04-02-2021 16:00:00 6.84167 C 6.77 g/m*3 5.97 C 5.6 km/h
1842 04-02-2021 17:00:00 6.08333 C 6.67 g/m*3 6.08 C 4.66667 km/h
1843 04-02-2021 18:00:00 5.66667 C 6.56 g/m*3 5.67 C 2.66667 km/h
1844 04-02-2021 19:00:00 5.25833 C 6.43 g/m*3 5.26 C 0.26667 km/h
1845 04-02-2021 20:00:00 4.7 C 6.26 g/m*3 4.7 C 0.26667 km/h
1846 04-02-2021 21:00:00 4.78333 C 6.36 g/m*3 4.78 C 0.4 km/h
1847 04-02-2021 22:00:00 4.825 C 6.38 g/m*3 4.83 C 0.13333 km/h
1848 04-02-2021 23:00:00 5.075 C 6.52 g/m*3 5.08 C 0 km/h
1849 05-02-2021 00:00:00 5.25 C 6.63 g/m*3 5.25 C 0 km/h
1850 05-02-2021 01:00:00 5.3 C 6.64 g/m*3 5.3 C 0 km/h
Sensor: Nr:Datum:Temp:Abs-Feuchte:Windchill:Wind:
Aussen-T/F 1851 05-02-2021 02:00:00 5.26667 C 6.64 g/m*3 5.27 C 0 km/h
1852 05-02-2021 03:00:00 5.15 C 6.57 g/m*3 5.15 C 0 km/h
1853 05-02-2021 04:00:00 4.86667 C 6.43 g/m*3 4.87 C 0 km/h
1854 05-02-2021 05:00:00 4.625 C 6.34 g/m*3 4.63 C 1.06667 km/h
1855 05-02-2021 06:00:00 4.95 C 6.5 g/m*3 4.95 C 0 km/h
1856 05-02-2021 07:00:00 5.2 C 6.61 g/m*3 5.2 C 0 km/h
1857 05-02-2021 08:00:00 5.575 C 6.78 g/m*3 5.58 C 0 km/h
1858 05-02-2021 09:00:00 6.025 C 7.02 g/m*3 6.03 C 0 km/h
1859 05-02-2021 10:00:00 6.625 C 7.31 g/m*3 6.63 C 0 km/h
1860 05-02-2021 11:00:00 7.16667 C 7.54 g/m*3 7.17 C 0 km/h
1861 05-02-2021 12:00:00 7.6 C 7.73 g/m*3 7.6 C 0 km/h
1862 05-02-2021 13:00:00 7.96667 C 7.92 g/m*3 7.97 C 0 km/h
1863 05-02-2021 14:00:00 8.50833 C 8.25 g/m*3 8.51 C 0 km/h
1864 05-02-2021 15:00:00 9.13333 C 8.6 g/m*3 9.13 C 2 km/h
1865 05-02-2021 16:00:00 9.25833 C 8.6 g/m*3 9.26 C 0 km/h
1866 05-02-2021 17:00:00 8.25833 C 8 g/m*3 8.26 C 2.26667 km/h
1867 05-02-2021 18:00:00 6.98333 C 7.39 g/m*3 6.98 C 3.33333 km/h
1868 05-02-2021 19:00:00 7.10833 C 7.49 g/m*3 7.11 C 0.66667 km/h
1869 05-02-2021 20:00:00 6.125 C 7.03 g/m*3 6.13 C 0.13333 km/h
1870 05-02-2021 21:00:00 5.3 C 6.67 g/m*3 5.3 C 0 km/h
1871 05-02-2021 22:00:00 5.825 C 6.96 g/m*3 5.83 C 0 km/h
1872 05-02-2021 23:00:00 6.18333 C 7.13 g/m*3 6.18 C 0 km/h
1873 06-02-2021 00:00:00 6.15 C 7.11 g/m*3 6.15 C 0 km/h
1874 06-02-2021 01:00:00 6.025 C 7.05 g/m*3 6.03 C 0.8 km/h
1875 06-02-2021 02:00:00 6.325 C 7.19 g/m*3 6.33 C 0.8 km/h
Sensor: Nr:Datum:Temp:Abs-Feuchte:Windchill:Wind:
Aussen-T/F 1876 06-02-2021 03:00:00 6.20833 C 7.14 g/m*3 6.21 C 0 km/h
1877 06-02-2021 04:00:00 6.10833 C 7.09 g/m*3 6.11 C 0 km/h
1878 06-02-2021 05:00:00 6.13333 C 7.1 g/m*3 6.13 C 0.13333 km/h
1879 06-02-2021 06:00:00 6.2 C 7.13 g/m*3 6.2 C 0.13333 km/h
1880 06-02-2021 07:00:00 6.2 C 7.13 g/m*3 6.2 C 0 km/h
1881 06-02-2021 08:00:00 6.14167 C 7.11 g/m*3 6.14 C 1.46667 km/h
1882 06-02-2021 09:00:00 6.04167 C 7.06 g/m*3 6.04 C 4.29167 km/h
1883 06-02-2021 10:00:00 6.20833 C 7.14 g/m*3 6.21 C 1.86667 km/h
1884 06-02-2021 11:00:00 6.21667 C 7.14 g/m*3 6.22 C 3.20833 km/h
1885 06-02-2021 12:00:00 6.04167 C 7.05 g/m*3 6.04 C 4.83333 km/h
1886 06-02-2021 13:00:00 5.78333 C 6.85 g/m*3 4.04 C 8.05 km/h
1887 06-02-2021 14:00:00 5.45833 C 6.65 g/m*3 5.46 C 4.825 km/h
1888 06-02-2021 15:00:00 5.11667 C 6.49 g/m*3 3.63 C 6.71667 km/h
1889 06-02-2021 16:00:00 4.66667 C 6.25 g/m*3 3.16 C 6.56667 km/h
1890 06-02-2021 17:00:00 4.16667 C 6.06 g/m*3 2.37 C 7.25 km/h
1891 06-02-2021 18:00:00 3.675 C 5.91 g/m*3 1.12 C 9.80833 km/h
1892 06-02-2021 19:00:00 3.28333 C 5.74 g/m*3 -0.14 C 13.7 km/h
1893 06-02-2021 20:00:00 3.05833 C 5.67 g/m*3 1.39 C 6.3 km/h
1894 06-02-2021 21:00:00 2.69167 C 5.53 g/m*3 1.06 C 6.03333 km/h
1895 06-02-2021 22:00:00 2.39167 C 5.42 g/m*3 -0.75 C 11.28333 km/h
1896 06-02-2021 23:00:00 2.3 C 5.39 g/m*3 -0.74 C 10.74167 km/h
1897 07-02-2021 00:00:00 2.325 C 5.4 g/m*3 -1.71 C 15.96667 km/h
1898 07-02-2021 01:00:00 2.4 C 5.42 g/m*3 -1.05 C 12.75833 km/h
1899 07-02-2021 02:00:00 2.325 C 5.4 g/m*3 -0.1 C 8.30833 km/h
1900 07-02-2021 03:00:00 2.13333 C 5.33 g/m*3 -0.65 C 9.55 km/h
Sensor: Nr:Datum:Temp:Abs-Feuchte:Windchill:Wind:
Aussen-T/F 1901 07-02-2021 04:00:00 1.96667 C 5.31 g/m*3 -1.14 C 10.75 km/h
1902 07-02-2021 05:00:00 2.025 C 5.34 g/m*3 0.3 C 6.01667 km/h
1903 07-02-2021 06:00:00 2 C 5.33 g/m*3 0.32 C 5.89167 km/h
1904 07-02-2021 07:00:00 1.94167 C 5.31 g/m*3 0.58 C 5.08333 km/h
1905 07-02-2021 08:00:00 1.75833 C 5.25 g/m*3 -1.06 C 9.4 km/h
1906 07-02-2021 09:00:00 1.7 C 5.23 g/m*3 0.13 C 5.5 km/h
1907 07-02-2021 10:00:00 1.73333 C 5.24 g/m*3 0.29 C 5.20833 km/h
1908 07-02-2021 11:00:00 1.81667 C 5.27 g/m*3 0.05 C 6.025 km/h
1909 07-02-2021 12:00:00 1.66667 C 5.18 g/m*3 1.67 C 4.54167 km/h
1910 07-02-2021 13:00:00 1.275 C 5.03 g/m*3 -0.36 C 5.5 km/h
1911 07-02-2021 14:00:00 1.14167 C 5.01 g/m*3 1.14 C 4.00833 km/h
1912 07-02-2021 15:00:00 0.99167 C 4.93 g/m*3 0.99 C 2.66667 km/h
1913 07-02-2021 16:00:00 0.825 C 4.87 g/m*3 0.83 C 2.4 km/h
1914 07-02-2021 17:00:00 0.575 C 4.79 g/m*3 -0.98 C 5.08333 km/h
1915 07-02-2021 18:00:00 0.24167 C 4.68 g/m*3 -1.35 C 5.08333 km/h
1916 07-02-2021 19:00:00 0.00833 C 4.57 g/m*3 0.01 C 4.825 km/h
1917 07-02-2021 20:00:00 -0.35 C 4.45 g/m*3 -2.6 C 6.43333 km/h
1918 07-02-2021 21:00:00 -0.80833 C 4.28 g/m*3 -3.57 C 7.65833 km/h
1919 07-02-2021 22:00:00 -1.34167 C 4.1 g/m*3 -4.34 C 8.06667 km/h
1920 07-02-2021 23:00:00 -1.81667 C 3.96 g/m*3 -4.35 C 6.56667 km/h
1921 08-02-2021 00:00:00 -2.03333 C 3.86 g/m*3 -4.2 C 5.63333 km/h
1922 08-02-2021 01:00:00 -2.28333 C 3.76 g/m*3 -4.72 C 6.15833 km/h
1923 08-02-2021 02:00:00 -2.6 C 3.63 g/m*3 -5.03 C 6.03333 km/h
1924 08-02-2021 03:00:00 -2.84167 C 3.56 g/m*3 -5.24 C 5.89167 km/h
1925 08-02-2021 04:00:00 -3.24167 C 3.44 g/m*3 -5.38 C 5.225 km/h
Sensor: Nr:Datum:Temp:Abs-Feuchte:Windchill:Wind:
Aussen-T/F 1926 08-02-2021 05:00:00 -3.53333 C 3.34 g/m*3 -6.81 C 7.775 km/h
1927 08-02-2021 06:00:00 -3.70833 C 3.27 g/m*3 -7.07 C 7.925 km/h
1928 08-02-2021 07:00:00 -3.8 C 3.24 g/m*3 -6.64 C 6.56667 km/h
1929 08-02-2021 08:00:00 -3.93333 C 3.2 g/m*3 -6.74 C 6.44167 km/h
1930 08-02-2021 09:00:00 -3.825 C 3.23 g/m*3 -7.3 C 8.2 km/h
1931 08-02-2021 10:00:00 -3.63333 C 3.25 g/m*3 -7.35 C 9.00833 km/h
1932 08-02-2021 11:00:00 -3.38333 C 3.29 g/m*3 -7.3 C 9.81667 km/h
1933 08-02-2021 12:00:00 -3.275 C 3.33 g/m*3 -6.65 C 8.18333 km/h
1934 08-02-2021 13:00:00 -3.3 C 3.32 g/m*3 -6.63 C 8.05 km/h
1935 08-02-2021 14:00:00 -3.28333 C 3.36 g/m*3 -3.28 C 4.95 km/h
1936 08-02-2021 15:00:00 -3.28333 C 3.4 g/m*3 -5.49 C 5.34167 km/h
1937 08-02-2021 16:00:00 -3.33333 C 3.39 g/m*3 -6.16 C 6.70833 km/h
1938 08-02-2021 17:00:00 -3.51667 C 3.32 g/m*3 -6.08 C 6.025 km/h
1939 08-02-2021 18:00:00 -3.925 C 3.26 g/m*3 -7.47 C 8.33333 km/h
1940 08-02-2021 19:00:00 -4.08333 C 3.23 g/m*3 -4.08 C 4.80833 km/h
1941 08-02-2021 20:00:00 -4.18333 C 3.15 g/m*3 -6.78 C 5.88333 km/h
1942 08-02-2021 21:00:00 -4.3 C 3.07 g/m*3 -4.3 C 3.475 km/h
1943 08-02-2021 22:00:00 -4.38333 C 3.04 g/m*3 -4.38 C 3.475 km/h
1944 08-02-2021 23:00:00 -4.40833 C 3.06 g/m*3 -4.41 C 1.33333 km/h
1945 09-02-2021 00:00:00 -4.55 C 3 g/m*3 -4.55 C 3.06667 km/h
1946 09-02-2021 01:00:00 -4.65833 C 2.95 g/m*3 -4.66 C 2.4 km/h
1947 09-02-2021 02:00:00 -4.8 C 2.92 g/m*3 -4.8 C 1.46667 km/h
1948 09-02-2021 03:00:00 -4.8 C 2.94 g/m*3 -4.8 C 1.33333 km/h
1949 09-02-2021 04:00:00 -4.85 C 2.96 g/m*3 -4.85 C 0.8 km/h
1950 09-02-2021 05:00:00 -4.9 C 2.96 g/m*3 -4.9 C 1.06667 km/h
Sensor: Nr:Datum:Temp:Abs-Feuchte:Windchill:Wind:
Aussen-T/F 1951 09-02-2021 06:00:00 -4.95833 C 2.96 g/m*3 -4.96 C 1.6 km/h
1952 09-02-2021 07:00:00 -5.1 C 2.92 g/m*3 -5.1 C 2.66667 km/h
1953 09-02-2021 08:00:00 -5.225 C 2.88 g/m*3 -5.23 C 1.46667 km/h
1954 09-02-2021 09:00:00 -5.325 C 2.84 g/m*3 -5.33 C 2.13333 km/h
1955 09-02-2021 10:00:00 -5.375 C 2.78 g/m*3 -5.38 C 3.73333 km/h
1956 09-02-2021 11:00:00 -4.99167 C 2.63 g/m*3 -7.78 C 6.025 km/h
1957 09-02-2021 12:00:00 -4.21667 C 2.67 g/m*3 -7.12 C 6.55 km/h
1958 09-02-2021 13:00:00 -3.69167 C 2.71 g/m*3 -3.69 C 4.4 km/h
1959 09-02-2021 14:00:00 -3.49167 C 2.65 g/m*3 -3.49 C 3.48333 km/h
1960 09-02-2021 15:00:00 -3.325 C 2.67 g/m*3 -3.33 C 1.86667 km/h
1961 09-02-2021 16:00:00 -3.45833 C 2.71 g/m*3 -6.57 C 7.375 km/h
1962 09-02-2021 17:00:00 -3.88333 C 2.71 g/m*3 -8.02 C 10.23333 km/h
1963 09-02-2021 18:00:00 -4.28333 C 2.6 g/m*3 -8.03 C 8.73333 km/h
1964 09-02-2021 19:00:00 -4.45833 C 2.66 g/m*3 -7.8 C 7.525 km/h
1965 09-02-2021 20:00:00 -4.75833 C 2.83 g/m*3 -4.76 C 2.4 km/h
1966 09-02-2021 21:00:00 -5.35833 C 2.73 g/m*3 -8.84 C 7.51667 km/h
1967 09-02-2021 22:00:00 -5.94167 C 2.53 g/m*3 -9.41 C 7.24167 km/h
1968 09-02-2021 23:00:00 -6.64167 C 2.38 g/m*3 -9.74 C 6.15833 km/h
1969 10-02-2021 00:00:00 -7.61667 C 2.23 g/m*3 -7.62 C 3.6 km/h
1970 10-02-2021 01:00:00 -8.38333 C 2.16 g/m*3 -8.38 C 1.46667 km/h
1971 10-02-2021 02:00:00 -9 C 2.13 g/m*3 -9 C 2.26667 km/h
1972 10-02-2021 03:00:00 -8.85 C 2.14 g/m*3 -8.85 C 4.95833 km/h
1973 10-02-2021 04:00:00 -9.15833 C 2.08 g/m*3 -9.16 C 2.8 km/h
1974 10-02-2021 05:00:00 -9.09167 C 2.1 g/m*3 -9.09 C 4.00833 km/h
1975 10-02-2021 06:00:00 -9.075 C 2.09 g/m*3 -9.07 C 3.06667 km/h
Sensor: Nr:Datum:Temp:Abs-Feuchte:Windchill:Wind:
Aussen-T/F 1976 10-02-2021 07:00:00 -8.88333 C 2.15 g/m*3 -8.88 C 4.00833 km/h
1977 10-02-2021 08:00:00 -8.58333 C 2.21 g/m*3 -8.58 C 4.55 km/h
1978 10-02-2021 09:00:00 -8.14167 C 2.23 g/m*3 -12.27 C 7.91667 km/h
1979 10-02-2021 10:00:00 -7.58333 C 2.24 g/m*3 -11.16 C 6.85833 km/h
1980 10-02-2021 11:00:00 -6.46667 C 2.39 g/m*3 -9.74 C 6.58333 km/h
1981 10-02-2021 12:00:00 -4.59167 C 2.59 g/m*3 -8.78 C 9.93333 km/h
1982 10-02-2021 13:00:00 -3.61667 C 2.74 g/m*3 -7.89 C 10.9 km/h
1983 10-02-2021 14:00:00 -2.65 C 2.83 g/m*3 -7.41 C 13.7 km/h
1984 10-02-2021 15:00:00 -2.16667 C 2.89 g/m*3 -5.65 C 9.125 km/h
1985 10-02-2021 16:00:00 -1.525 C 2.98 g/m*3 -5.08 C 9.8 km/h
1986 10-02-2021 17:00:00 -1.85 C 3.08 g/m*3 -3.73 C 5.09167 km/h
1987 10-02-2021 18:00:00 -2.6 C 3 g/m*3 -5.03 C 6.04167 km/h
1988 10-02-2021 19:00:00 -3.74167 C 3.02 g/m*3 -3.74 C 0.53333 km/h
1989 10-02-2021 20:00:00 -2.84167 C 3.21 g/m*3 -6.49 C 9.275 km/h
1990 10-02-2021 21:00:00 -2.65833 C 3.28 g/m*3 -5.69 C 7.50833 km/h
1991 10-02-2021 22:00:00 -3.05 C 3.28 g/m*3 -3.05 C 2.26667 km/h
1992 10-02-2021 23:00:00 -3.11667 C 3.3 g/m*3 -3.12 C 3.06667 km/h
1993 11-02-2021 00:00:00 -2.94167 C 3.31 g/m*3 -2.94 C 3.6 km/h
1994 11-02-2021 01:00:00 -2.98333 C 3.3 g/m*3 -2.98 C 4.15 km/h
1995 11-02-2021 02:00:00 -3.10833 C 3.3 g/m*3 -3.11 C 4.69167 km/h
1996 11-02-2021 03:00:00 -3.275 C 3.3 g/m*3 -3.28 C 2.66667 km/h
1997 11-02-2021 04:00:00 -3.64167 C 3.24 g/m*3 -5.96 C 5.475 km/h
1998 11-02-2021 05:00:00 -4.2 C 3.17 g/m*3 -4.2 C 1.46667 km/h
1999 11-02-2021 06:00:00 -4.81667 C 3.05 g/m*3 -4.82 C 1.6 km/h
2000 11-02-2021 07:00:00 -5.86667 C 2.88 g/m*3 -5.87 C 1.2 km/h
Sensor: Nr:Datum:Temp:Abs-Feuchte:Windchill:Wind:
Aussen-T/F 2001 11-02-2021 08:00:00 -6.35 C 2.82 g/m*3 -6.35 C 0.8 km/h
2002 11-02-2021 09:00:00 -6.11667 C 2.89 g/m*3 -6.12 C 0.8 km/h
2003 11-02-2021 10:00:00 -5.55 C 3.01 g/m*3 -5.55 C 1.2 km/h
2004 11-02-2021 11:00:00 -4.425 C 3.26 g/m*3 -4.43 C 2.53333 km/h
2005 11-02-2021 12:00:00 -2.89167 C 3.54 g/m*3 -2.89 C 0 km/h
2006 11-02-2021 13:00:00 -1.04167 C 3.56 g/m*3 -1.04 C 2.26667 km/h
2007 11-02-2021 14:00:00 0.03333 C 3.38 g/m*3 -2.26 C 6.71667 km/h
2008 11-02-2021 15:00:00 0.55 C 3.26 g/m*3 -1.29 C 5.74167 km/h
2009 11-02-2021 16:00:00 -0.33333 C 3.31 g/m*3 -0.33 C 1.46667 km/h
2010 11-02-2021 17:00:00 -1.23333 C 3.4 g/m*3 -1.23 C 3.46667 km/h
2011 11-02-2021 18:00:00 -2.19167 C 3.41 g/m*3 -2.19 C 2.53333 km/h
2012 11-02-2021 19:00:00 -2.81667 C 3.3 g/m*3 -2.82 C 4.13333 km/h
2013 11-02-2021 20:00:00 -3.95 C 3.11 g/m*3 -3.95 C 4.26667 km/h
2014 11-02-2021 21:00:00 -3.69167 C 3.19 g/m*3 -3.69 C 2.26667 km/h
2015 11-02-2021 22:00:00 -3.84167 C 3.18 g/m*3 -3.84 C 2.8 km/h
2016 11-02-2021 23:00:00 -4.19167 C 2.98 g/m*3 -4.19 C 4.40833 km/h
2017 12-02-2021 00:00:00 -4.94167 C 2.77 g/m*3 -4.94 C 4.69167 km/h
2018 12-02-2021 01:00:00 -5.375 C 2.7 g/m*3 -5.38 C 2.66667 km/h
2019 12-02-2021 02:00:00 -6.46667 C 2.6 g/m*3 -6.47 C 2.13333 km/h
2020 12-02-2021 03:00:00 -6.825 C 2.6 g/m*3 -6.83 C 3.075 km/h
2021 12-02-2021 04:00:00 -6.03333 C 2.75 g/m*3 -6.03 C 2.66667 km/h
2022 12-02-2021 05:00:00 -5.29167 C 2.81 g/m*3 -8.37 C 6.575 km/h
2023 12-02-2021 06:00:00 -5.81667 C 2.73 g/m*3 -5.82 C 1.74167 km/h
2024 12-02-2021 07:00:00 -6.825 C 2.6 g/m*3 -6.83 C 1.06667 km/h
2025 12-02-2021 08:00:00 -7.38333 C 2.55 g/m*3 -7.38 C 1.33333 km/h
Sensor: Nr:Datum:Temp:Abs-Feuchte:Windchill:Wind:
Aussen-T/F 2026 12-02-2021 09:00:00 -7.11667 C 2.63 g/m*3 -7.12 C 1.6 km/h
2027 12-02-2021 10:00:00 -6.16667 C 2.76 g/m*3 -6.17 C 3.20833 km/h
2028 12-02-2021 11:00:00 -3.975 C 2.8 g/m*3 -7.84 C 9.26667 km/h
2029 12-02-2021 12:00:00 -2.5 C 2.85 g/m*3 -6.89 C 12.23333 km/h
2030 12-02-2021 13:00:00 -1.525 C 2.85 g/m*3 -5.67 C 12.08333 km/h
2031 12-02-2021 14:00:00 -1.03333 C 2.86 g/m*3 -5.01 C 11.81667 km/h
2032 12-02-2021 15:00:00 -1.00833 C 2.82 g/m*3 -5.43 C 13.83333 km/h
2033 12-02-2021 16:00:00 -1.30833 C 2.83 g/m*3 -4.59 C 8.99167 km/h
2034 12-02-2021 17:00:00 -1.81667 C 2.91 g/m*3 -4.55 C 7.1 km/h
2035 12-02-2021 18:00:00 -3.19167 C 2.94 g/m*3 -3.19 C 4.81667 km/h
2036 12-02-2021 19:00:00 -4.525 C 2.87 g/m*3 -4.53 C 4.13333 km/h
2037 12-02-2021 20:00:00 -5.2 C 2.76 g/m*3 -5.2 C 4.55 km/h
2038 12-02-2021 21:00:00 -5.84167 C 2.68 g/m*3 -5.84 C 3.86667 km/h
2039 12-02-2021 22:00:00 -6.31667 C 2.61 g/m*3 -6.32 C 3.6 km/h
2040 12-02-2021 23:00:00 -6.96667 C 2.52 g/m*3 -6.97 C 3.35 km/h
2041 13-02-2021 00:00:00 -7.23333 C 2.45 g/m*3 -7.23 C 3.33333 km/h
2042 13-02-2021 01:00:00 -8.16667 C 2.33 g/m*3 -8.17 C 1.73333 km/h
2043 13-02-2021 02:00:00 -8.54167 C 2.29 g/m*3 -8.54 C 2 km/h
2044 13-02-2021 03:00:00 -8.91667 C 2.25 g/m*3 -8.92 C 3.33333 km/h
2045 13-02-2021 04:00:00 -8.98333 C 2.24 g/m*3 -8.98 C 3.73333 km/h
2046 13-02-2021 05:00:00 -9.275 C 2.19 g/m*3 -9.28 C 2.13333 km/h
2047 13-02-2021 06:00:00 -9.30833 C 2.21 g/m*3 -9.31 C 2.8 km/h
2048 13-02-2021 07:00:00 -9.20833 C 2.22 g/m*3 -9.21 C 3.06667 km/h
2049 13-02-2021 08:00:00 -9.36667 C 2.2 g/m*3 -9.37 C 1.2 km/h
2050 13-02-2021 09:00:00 -8.81667 C 2.33 g/m*3 -8.82 C 1.075 km/h
Sensor: Nr:Datum:Temp:Abs-Feuchte:Windchill:Wind:
Aussen-T/F 2051 13-02-2021 10:00:00 -7.29167 C 2.59 g/m*3 -7.29 C 3.2 km/h
2052 13-02-2021 11:00:00 -4.75833 C 2.91 g/m*3 -7.25 C 5.49167 km/h
2053 13-02-2021 12:00:00 -2.29167 C 3 g/m*3 -5.59 C 8.475 km/h
2054 13-02-2021 13:00:00 -0.41667 C 2.89 g/m*3 -2.73 C 6.58333 km/h
2055 13-02-2021 14:00:00 0.825 C 2.53 g/m*3 -2.76 C 11.825 km/h
2056 13-02-2021 15:00:00 0.76667 C 2.55 g/m*3 -1.86 C 8.05833 km/h
2057 13-02-2021 16:00:00 0.76667 C 2.66 g/m*3 -1.9 C 8.19167 km/h
2058 13-02-2021 17:00:00 -0.125 C 2.9 g/m*3 -0.13 C 3.6 km/h
2059 13-02-2021 18:00:00 -2.71667 C 2.98 g/m*3 -2.72 C 4 km/h
2060 13-02-2021 19:00:00 -4.21667 C 2.88 g/m*3 -4.22 C 3.2 km/h
2061 13-02-2021 20:00:00 -4.88333 C 2.82 g/m*3 -4.88 C 3.46667 km/h
2062 13-02-2021 21:00:00 -5.55833 C 2.74 g/m*3 -5.56 C 2.66667 km/h
2063 13-02-2021 22:00:00 -6.19167 C 2.68 g/m*3 -6.19 C 4 km/h
2064 13-02-2021 23:00:00 -6.58333 C 2.64 g/m*3 -6.58 C 2.66667 km/h
2065 14-02-2021 00:00:00 -7.39167 C 2.52 g/m*3 -7.39 C 1.33333 km/h
2066 14-02-2021 01:00:00 -8.10833 C 2.43 g/m*3 -8.11 C 1.2 km/h
2067 14-02-2021 02:00:00 -8.21667 C 2.44 g/m*3 -8.22 C 4 km/h
2068 14-02-2021 03:00:00 -7.96667 C 2.49 g/m*3 -7.97 C 2.4 km/h
2069 14-02-2021 04:00:00 -8.55 C 2.38 g/m*3 -8.55 C 1.86667 km/h
2070 14-02-2021 05:00:00 -8.66667 C 2.38 g/m*3 -8.67 C 2.13333 km/h
2071 14-02-2021 06:00:00 -8.95 C 2.34 g/m*3 -8.95 C 1.33333 km/h
2072 14-02-2021 07:00:00 -9.49167 C 2.24 g/m*3 -9.49 C 0.53333 km/h
2073 14-02-2021 08:00:00 -9.31667 C 2.28 g/m*3 -9.32 C 1.73333 km/h
2074 14-02-2021 09:00:00 -8.16667 C 2.51 g/m*3 -8.17 C 4.4 km/h
2075 14-02-2021 10:00:00 -6.625 C 2.81 g/m*3 -6.63 C 4.4 km/h
Sensor: Nr:Datum:Temp:Abs-Feuchte:Windchill:Wind:
Aussen-T/F 2076 14-02-2021 11:00:00 -4.275 C 3.31 g/m*3 -6.48 C 5.06667 km/h
2077 14-02-2021 12:00:00 -1.55 C 3.72 g/m*3 -3.57 C 5.475 km/h
2078 14-02-2021 13:00:00 1.44167 C 3.4 g/m*3 -0.47 C 6.28333 km/h
2079 14-02-2021 14:00:00 3.7 C 2.83 g/m*3 1.34 C 9 km/h
2080 14-02-2021 15:00:00 3.725 C 2.85 g/m*3 2.25 C 6.00833 km/h
2081 14-02-2021 16:00:00 3.175 C 3.3 g/m*3 3.18 C 3.86667 km/h
2082 14-02-2021 17:00:00 1.175 C 3.64 g/m*3 -0.4 C 5.33333 km/h
2083 14-02-2021 18:00:00 -0.13333 C 3.57 g/m*3 -0.13 C 4.53333 km/h
2084 14-02-2021 19:00:00 -0.38333 C 3.57 g/m*3 -0.38 C 4.66667 km/h
2085 14-02-2021 20:00:00 -0.825 C 3.43 g/m*3 -0.83 C 4.66667 km/h
2086 14-02-2021 21:00:00 -1.56667 C 3.4 g/m*3 -1.57 C 3.73333 km/h
2087 14-02-2021 22:00:00 -1.86667 C 3.37 g/m*3 -1.87 C 3.06667 km/h
2088 14-02-2021 23:00:00 -1.95833 C 3.15 g/m*3 -1.96 C 3.6 km/h
2089 15-02-2021 00:00:00 -1.79167 C 3.05 g/m*3 -1.79 C 4 km/h
2090 15-02-2021 01:00:00 -2.36667 C 3 g/m*3 -2.37 C 3.6 km/h
2091 15-02-2021 02:00:00 -2.40833 C 2.99 g/m*3 -2.41 C 4 km/h
2092 15-02-2021 03:00:00 -1.96667 C 2.9 g/m*3 -3.93 C 5.225 km/h
2093 15-02-2021 04:00:00 -0.44167 C 2.82 g/m*3 -4.07 C 10.88333 km/h
2094 15-02-2021 05:00:00 -0.39167 C 2.84 g/m*3 -2.65 C 6.43333 km/h
2095 15-02-2021 06:00:00 -0.43333 C 2.92 g/m*3 -0.43 C 3.74167 km/h
2096 15-02-2021 07:00:00 -0.325 C 2.96 g/m*3 -0.33 C 2.80833 km/h
2097 15-02-2021 08:00:00 -0.15833 C 3.05 g/m*3 -0.16 C 2.80833 km/h
2098 15-02-2021 09:00:00 0.475 C 3.12 g/m*3 0.48 C 3.35 km/h
2099 15-02-2021 10:00:00 1.45 C 3.28 g/m*3 1.45 C 2.26667 km/h
2100 15-02-2021 11:00:00 2.13333 C 3.45 g/m*3 2.13 C 3.06667 km/h
Sensor: Nr:Datum:Temp:Abs-Feuchte:Windchill:Wind:
Aussen-T/F 2101 15-02-2021 12:00:00 1.88333 C 4.27 g/m*3 1.88 C 2.66667 km/h
2102 15-02-2021 13:00:00 1.75 C 4.81 g/m*3 1.75 C 0.26667 km/h
2103 15-02-2021 14:00:00 1.825 C 5.01 g/m*3 1.83 C 1.06667 km/h
2104 15-02-2021 15:00:00 2.125 C 5.21 g/m*3 2.13 C 0.4 km/h
2105 15-02-2021 16:00:00 2.25 C 5.26 g/m*3 2.25 C 0.4 km/h
2106 15-02-2021 17:00:00 2.05 C 5.2 g/m*3 2.05 C 1.46667 km/h
2107 15-02-2021 18:00:00 1.80833 C 5.16 g/m*3 1.81 C 1.06667 km/h
2108 15-02-2021 19:00:00 1.75833 C 5.17 g/m*3 1.76 C 0 km/h
2109 15-02-2021 20:00:00 1.80833 C 5.21 g/m*3 1.81 C 0.13333 km/h
2110 15-02-2021 21:00:00 1.99167 C 5.3 g/m*3 1.99 C 0.53333 km/h
2111 15-02-2021 22:00:00 2.94167 C 5.69 g/m*3 2.94 C 3.20833 km/h
2112 15-02-2021 23:00:00 4 C 6.1 g/m*3 1.73 C 8.86667 km/h
2113 16-02-2021 00:00:00 4.13333 C 6.09 g/m*3 2.54 C 6.575 km/h
2114 16-02-2021 01:00:00 4.03333 C 6.05 g/m*3 4.03 C 2 km/h
2115 16-02-2021 02:00:00 4.075 C 6.11 g/m*3 4.08 C 2.93333 km/h
2116 16-02-2021 03:00:00 4.01667 C 6.11 g/m*3 4.02 C 2.93333 km/h
2117 16-02-2021 04:00:00 3.95 C 6.08 g/m*3 3.95 C 0.66667 km/h
2118 16-02-2021 05:00:00 3.94167 C 6.08 g/m*3 3.94 C 0 km/h
2119 16-02-2021 06:00:00 3.78333 C 6.02 g/m*3 3.78 C 0 km/h
2120 16-02-2021 07:00:00 3.34167 C 5.84 g/m*3 3.34 C 0 km/h
2121 16-02-2021 08:00:00 3.00833 C 5.73 g/m*3 3.01 C 0.53333 km/h
2122 16-02-2021 09:00:00 3.99167 C 6.16 g/m*3 3.99 C 0 km/h
2123 16-02-2021 10:00:00 5.025 C 6.6 g/m*3 5.03 C 0 km/h
2124 16-02-2021 11:00:00 6.3 C 7.18 g/m*3 6.3 C 0.13333 km/h
2125 16-02-2021 12:00:00 7.41667 C 7.69 g/m*3 7.42 C 0 km/h
Sensor: Nr:Datum:Temp:Abs-Feuchte:Windchill:Wind:
Aussen-T/F 2126 16-02-2021 13:00:00 8.89167 C 8.3 g/m*3 8.89 C 0.53333 km/h
2127 16-02-2021 14:00:00 9.775 C 8.56 g/m*3 9.78 C 0.93333 km/h
2128 16-02-2021 15:00:00 9.96667 C 8.23 g/m*3 9.97 C 3.2 km/h
2129 16-02-2021 16:00:00 8.75833 C 7.45 g/m*3 8.76 C 3.73333 km/h
2130 16-02-2021 17:00:00 6.99167 C 6.91 g/m*3 6.13 C 5.61667 km/h
2131 16-02-2021 18:00:00 5.89167 C 6.53 g/m*3 5.89 C 4.94167 km/h
2132 16-02-2021 19:00:00 5.4 C 6.45 g/m*3 4.46 C 5.20833 km/h
2133 16-02-2021 20:00:00 5.08333 C 6.38 g/m*3 5.08 C 3.73333 km/h
2134 16-02-2021 21:00:00 5.16667 C 6.47 g/m*3 5.17 C 1.6 km/h
2135 16-02-2021 22:00:00 5.75 C 6.78 g/m*3 5.75 C 1.86667 km/h
2136 16-02-2021 23:00:00 6.85 C 7.37 g/m*3 5.8 C 6.15833 km/h
2137 17-02-2021 00:00:00 7.325 C 7.52 g/m*3 5.13 C 11.68333 km/h
2138 17-02-2021 01:00:00 6.15 C 6.86 g/m*3 5.36 C 5.08333 km/h
2139 17-02-2021 02:00:00 6.31667 C 7.09 g/m*3 4.84 C 7.39167 km/h
2140 17-02-2021 03:00:00 6.55833 C 7.12 g/m*3 6.56 C 4.675 km/h
2141 17-02-2021 04:00:00 5.275 C 6.54 g/m*3 5.28 C 4.8 km/h
2142 17-02-2021 05:00:00 5.35833 C 6.67 g/m*3 4.41 C 5.20833 km/h
2143 17-02-2021 06:00:00 5.35 C 6.67 g/m*3 5.35 C 4.14167 km/h
2144 17-02-2021 07:00:00 4.86667 C 6.47 g/m*3 4.87 C 3.46667 km/h
2145 17-02-2021 08:00:00 5.575 C 6.82 g/m*3 4.66 C 5.20833 km/h
2146 17-02-2021 09:00:00 7.05 C 7.44 g/m*3 5.56 C 7.91667 km/h
2147 17-02-2021 10:00:00 8.7 C 7.84 g/m*3 6.6 C 12.89167 km/h
2148 17-02-2021 11:00:00 9.71667 C 7.9 g/m*3 7.71 C 13.83333 km/h
2149 17-02-2021 12:00:00 10.4 C 7.99 g/m*3 8.9 C 11.3 km/h
2150 17-02-2021 13:00:00 10.65 C 7.88 g/m*3 9.23 C 11.15833 km/h
Sensor: Nr:Datum:Temp:Abs-Feuchte:Windchill:Wind:
Aussen-T/F 2151 17-02-2021 14:00:00 10.85833 C 8.03 g/m*3 9.48 C 11.15833 km/h
2152 17-02-2021 15:00:00 11.06667 C 8.01 g/m*3 11.07 C 8.6 km/h
2153 17-02-2021 16:00:00 10.81667 C 8.09 g/m*3 10.15 C 7.1 km/h
2154 17-02-2021 17:00:00 9.55833 C 7.6 g/m*3 9.07 C 5.60833 km/h
2155 17-02-2021 18:00:00 7.375 C 7.1 g/m*3 7.38 C 4.93333 km/h
2156 17-02-2021 19:00:00 6.75833 C 7.02 g/m*3 6.76 C 3.73333 km/h
2157 17-02-2021 20:00:00 5.89167 C 6.63 g/m*3 5.89 C 1.06667 km/h
2158 17-02-2021 21:00:00 4.425 C 6.09 g/m*3 4.43 C 1.86667 km/h
2159 17-02-2021 22:00:00 3.29167 C 5.7 g/m*3 3.29 C 0.26667 km/h
2160 17-02-2021 23:00:00 2.375 C 5.39 g/m*3 2.38 C 0 km/h
2161 18-02-2021 00:00:00 1.64167 C 5.15 g/m*3 1.64 C 0 km/h
2162 18-02-2021 01:00:00 1.08333 C 4.96 g/m*3 1.08 C 0.13333 km/h
2163 18-02-2021 02:00:00 0.6 C 4.82 g/m*3 0.6 C 0 km/h
2164 18-02-2021 03:00:00 0.08333 C 4.67 g/m*3 0.08 C 0 km/h
2165 18-02-2021 04:00:00 -0.01667 C 4.65 g/m*3 -0.02 C 0 km/h
2166 18-02-2021 05:00:00 -0.26667 C 4.57 g/m*3 -0.27 C 0 km/h
2167 18-02-2021 06:00:00 -0.46667 C 4.5 g/m*3 -0.47 C 0 km/h
2168 18-02-2021 07:00:00 -0.31667 C 4.56 g/m*3 -0.32 C 0 km/h
2169 18-02-2021 08:00:00 0.30833 C 4.8 g/m*3 0.31 C 0.4 km/h
2170 18-02-2021 09:00:00 0.81667 C 4.97 g/m*3 0.82 C 0.26667 km/h
2171 18-02-2021 10:00:00 2.075 C 5.42 g/m*3 2.08 C 1.2 km/h
2172 18-02-2021 11:00:00 3.725 C 6.09 g/m*3 3.73 C 0.53333 km/h
2173 18-02-2021 12:00:00 5.55 C 6.9 g/m*3 5.55 C 0.13333 km/h
2174 18-02-2021 13:00:00 7.475 C 7.57 g/m*3 7.48 C 1.33333 km/h
2175 18-02-2021 14:00:00 8.58333 C 7.12 g/m*3 8.58 C 4.8 km/h
Sensor: Nr:Datum:Temp:Abs-Feuchte:Windchill:Wind:
Aussen-T/F 2176 18-02-2021 15:00:00 8.125 C 7.08 g/m*3 8.13 C 0.66667 km/h
2177 18-02-2021 16:00:00 8.48333 C 7.39 g/m*3 8.48 C 3.88333 km/h
2178 18-02-2021 17:00:00 8.25833 C 7.14 g/m*3 8.26 C 2.66667 km/h
2179 18-02-2021 18:00:00 6.88333 C 6.88 g/m*3 6.88 C 3.2 km/h
2180 18-02-2021 19:00:00 6.91667 C 6.94 g/m*3 6.92 C 4 km/h
2181 18-02-2021 20:00:00 7.375 C 7.13 g/m*3 7.38 C 3.06667 km/h
2182 18-02-2021 21:00:00 8.15 C 7.79 g/m*3 8.15 C 4.41667 km/h
2183 18-02-2021 22:00:00 8.15833 C 7.8 g/m*3 6.52 C 9.51667 km/h
2184 18-02-2021 23:00:00 6.80833 C 6.93 g/m*3 5.41 C 7.375 km/h
2185 19-02-2021 00:00:00 5.29167 C 6.31 g/m*3 3.23 C 9 km/h
2186 19-02-2021 01:00:00 5.11667 C 6.18 g/m*3 3.19 C 8.33333 km/h
2187 19-02-2021 02:00:00 4.01667 C 5.85 g/m*3 2.88 C 5.20833 km/h
2188 19-02-2021 03:00:00 3.65833 C 5.81 g/m*3 2.48 C 5.20833 km/h
2189 19-02-2021 04:00:00 3.54167 C 5.82 g/m*3 2.08 C 5.9 km/h
2190 19-02-2021 05:00:00 4.125 C 6.01 g/m*3 2.75 C 5.90833 km/h
2191 19-02-2021 06:00:00 3.25833 C 5.65 g/m*3 3.26 C 2 km/h
2192 19-02-2021 07:00:00 3.65 C 5.9 g/m*3 3.65 C 1.33333 km/h
2193 19-02-2021 08:00:00 4.2 C 6.15 g/m*3 4.2 C 1.73333 km/h
2194 19-02-2021 09:00:00 5.23333 C 6.54 g/m*3 5.23 C 0.53333 km/h
2195 19-02-2021 10:00:00 6.275 C 6.86 g/m*3 6.28 C 1.46667 km/h
2196 19-02-2021 11:00:00 7.65 C 7.21 g/m*3 7.65 C 0.53333 km/h
2197 19-02-2021 12:00:00 9 C 7.52 g/m*3 9 C 0.53333 km/h
2198 19-02-2021 13:00:00 10.01667 C 7.63 g/m*3 10.02 C 0.4 km/h
2199 19-02-2021 14:00:00 11.09167 C 7.79 g/m*3 11.09 C 3.08333 km/h
2200 19-02-2021 15:00:00 11.80833 C 7.56 g/m*3 11.81 C 6.99167 km/h
Sensor: Nr:Datum:Temp:Abs-Feuchte:Windchill:Wind:
Aussen-T/F 2201 19-02-2021 16:00:00 11.85 C 7.51 g/m*3 11.85 C 6.30833 km/h
2202 19-02-2021 17:00:00 10.28333 C 7.34 g/m*3 10.28 C 4.66667 km/h
2203 19-02-2021 18:00:00 7.3 C 6.76 g/m*3 6.37 C 6 km/h
2204 19-02-2021 19:00:00 6.275 C 6.64 g/m*3 6.28 C 4.26667 km/h
2205 19-02-2021 20:00:00 5.39167 C 6.35 g/m*3 5.39 C 0.8 km/h
2206 19-02-2021 21:00:00 4.175 C 5.96 g/m*3 4.18 C 0 km/h
2207 19-02-2021 22:00:00 3.71667 C 5.86 g/m*3 3.72 C 0.26667 km/h
2208 19-02-2021 23:00:00 3.19167 C 5.69 g/m*3 3.19 C 0 km/h
2209 20-02-2021 00:00:00 2.83333 C 5.59 g/m*3 2.83 C 0 km/h
2210 20-02-2021 01:00:00 2.48333 C 5.47 g/m*3 2.48 C 0 km/h
2211 20-02-2021 02:00:00 2.21667 C 5.39 g/m*3 2.22 C 0 km/h
2212 20-02-2021 03:00:00 2.125 C 5.38 g/m*3 2.13 C 0 km/h
2213 20-02-2021 04:00:00 1.58333 C 5.19 g/m*3 1.58 C 0 km/h
2214 20-02-2021 05:00:00 1.20833 C 5.05 g/m*3 1.21 C 0 km/h
2215 20-02-2021 06:00:00 0.85 C 4.93 g/m*3 0.85 C 0.26667 km/h
2216 20-02-2021 07:00:00 0.8 C 4.92 g/m*3 0.8 C 0.13333 km/h
2217 20-02-2021 08:00:00 1.25833 C 5.12 g/m*3 1.26 C 0 km/h
2218 20-02-2021 09:00:00 1.89167 C 5.35 g/m*3 1.89 C 0 km/h
2219 20-02-2021 10:00:00 3.41667 C 5.95 g/m*3 3.42 C 2 km/h
2220 20-02-2021 11:00:00 8.10833 C 8.16 g/m*3 8.11 C 3.2 km/h
2221 20-02-2021 12:00:00 11.60833 C 9.07 g/m*3 11.61 C 7.51667 km/h
2222 20-02-2021 13:00:00 14.96667 C 8.64 g/m*3 14.97 C 7.25 km/h
2223 20-02-2021 14:00:00 16.40833 C 8.6 g/m*3 16.41 C 6.83333 km/h
2224 20-02-2021 15:00:00 16.55833 C 8.67 g/m*3 16.56 C 3.75 km/h
2225 20-02-2021 16:00:00 16.01667 C 8.98 g/m*3 16.02 C 2.4 km/h
Sensor: Nr:Datum:Temp:Abs-Feuchte:Windchill:Wind:
Aussen-T/F 2226 20-02-2021 17:00:00 14.09167 C 9.02 g/m*3 14.09 C 4.13333 km/h
2227 20-02-2021 18:00:00 10.94167 C 8.29 g/m*3 10.52 C 6.14167 km/h
2228 20-02-2021 19:00:00 9.39167 C 7.94 g/m*3 8.7 C 6.275 km/h
2229 20-02-2021 20:00:00 8.46667 C 7.67 g/m*3 7.67 C 6.14167 km/h
2230 20-02-2021 21:00:00 7.675 C 7.36 g/m*3 7.68 C 3.86667 km/h
2231 20-02-2021 22:00:00 6.575 C 6.91 g/m*3 6.58 C 0.8 km/h
2232 20-02-2021 23:00:00 5.825 C 6.66 g/m*3 5.83 C 1.06667 km/h
2233 21-02-2021 00:00:00 4.53333 C 6.12 g/m*3 4.53 C 0 km/h
2234 21-02-2021 01:00:00 3.54167 C 5.81 g/m*3 3.54 C 0.53333 km/h
2235 21-02-2021 02:00:00 3.275 C 5.74 g/m*3 3.28 C 0 km/h
2236 21-02-2021 03:00:00 3.04167 C 5.66 g/m*3 3.04 C 0 km/h
2237 21-02-2021 04:00:00 2.325 C 5.42 g/m*3 2.33 C 0.26667 km/h
2238 21-02-2021 05:00:00 2.05 C 5.33 g/m*3 2.05 C 0.13333 km/h
2239 21-02-2021 06:00:00 1.70833 C 5.23 g/m*3 1.71 C 0.13333 km/h
2240 21-02-2021 07:00:00 1.19167 C 5.05 g/m*3 1.19 C 0.13333 km/h
2241 21-02-2021 08:00:00 1.21667 C 5.06 g/m*3 1.22 C 0.13333 km/h
2242 21-02-2021 09:00:00 2.01667 C 5.38 g/m*3 2.02 C 0.53333 km/h
2243 21-02-2021 10:00:00 3.925 C 6.15 g/m*3 3.93 C 0.8 km/h
2244 21-02-2021 11:00:00 7.24167 C 7.71 g/m*3 7.24 C 1.06667 km/h
2245 21-02-2021 12:00:00 11.425 C 8.78 g/m*3 11.43 C 4.14167 km/h
2246 21-02-2021 13:00:00 15.85 C 7.97 g/m*3 15.85 C 6.31667 km/h
2247 21-02-2021 14:00:00 17.91667 C 7.46 g/m*3 17.92 C 5.76667 km/h
2248 21-02-2021 15:00:00 17.48333 C 7.46 g/m*3 17.48 C 4.55 km/h
2249 21-02-2021 16:00:00 16.59167 C 7.66 g/m*3 16.59 C 5.06667 km/h
2250 21-02-2021 17:00:00 15.05833 C 7.71 g/m*3 15.06 C 6.68333 km/h
Sensor: Nr:Datum:Temp:Abs-Feuchte:Windchill:Wind:
Aussen-T/F 2251 21-02-2021 18:00:00 11.95833 C 7.5 g/m*3 11.96 C 8.21667 km/h
2252 21-02-2021 19:00:00 11.75833 C 7.57 g/m*3 11.76 C 9.425 km/h
2253 21-02-2021 20:00:00 10.83333 C 7.4 g/m*3 10.26 C 6.69167 km/h
2254 21-02-2021 21:00:00 8.63333 C 6.85 g/m*3 8.63 C 1.46667 km/h
2255 21-02-2021 22:00:00 6.55833 C 6.45 g/m*3 6.56 C 0 km/h
2256 21-02-2021 23:00:00 5.4 C 6.19 g/m*3 5.4 C 0 km/h
2257 22-02-2021 00:00:00 4.18333 C 5.85 g/m*3 4.18 C 0 km/h
2258 22-02-2021 01:00:00 3.50833 C 5.7 g/m*3 3.51 C 0.53333 km/h
2259 22-02-2021 02:00:00 2.675 C 5.41 g/m*3 2.68 C 0 km/h
2260 22-02-2021 03:00:00 1.88333 C 5.18 g/m*3 1.88 C 0 km/h
2261 22-02-2021 04:00:00 1.40833 C 5.05 g/m*3 1.41 C 0.13333 km/h
2262 22-02-2021 05:00:00 1.43333 C 5.09 g/m*3 1.43 C 2.4 km/h
2263 22-02-2021 06:00:00 1.05833 C 4.96 g/m*3 1.06 C 0.13333 km/h
2264 22-02-2021 07:00:00 1.25 C 5.07 g/m*3 1.25 C 1.06667 km/h
2265 22-02-2021 08:00:00 1.96667 C 5.32 g/m*3 1.97 C 1.33333 km/h
2266 22-02-2021 09:00:00 3.15833 C 5.79 g/m*3 3.16 C 0 km/h
2267 22-02-2021 10:00:00 4.85833 C 6.52 g/m*3 4.86 C 0.13333 km/h
2268 22-02-2021 11:00:00 6.3 C 6.93 g/m*3 6.3 C 0.93333 km/h
2269 22-02-2021 12:00:00 7.90833 C 7.18 g/m*3 7.91 C 1.2 km/h
2270 22-02-2021 13:00:00 9.33333 C 7.5 g/m*3 9.33 C 1.73333 km/h
2271 22-02-2021 14:00:00 11.34167 C 8.03 g/m*3 11.34 C 0 km/h
2272 22-02-2021 15:00:00 13.69167 C 8.28 g/m*3 13.69 C 0.8 km/h
2273 22-02-2021 16:00:00 14.44167 C 8.72 g/m*3 14.44 C 0 km/h
2274 22-02-2021 17:00:00 12.63333 C 8.37 g/m*3 12.63 C 2.93333 km/h
2275 22-02-2021 18:00:00 11.19167 C 8.1 g/m*3 11.19 C 1.6 km/h
Sensor: Nr:Datum:Temp:Abs-Feuchte:Windchill:Wind:
Aussen-T/F 2276 22-02-2021 19:00:00 10.50833 C 7.93 g/m*3 10.51 C 0 km/h
2277 22-02-2021 20:00:00 10.175 C 7.9 g/m*3 10.18 C 0 km/h
2278 22-02-2021 21:00:00 9.13333 C 7.5 g/m*3 9.13 C 0 km/h
2279 22-02-2021 22:00:00 7.86667 C 7.21 g/m*3 7.87 C 0 km/h
2280 22-02-2021 23:00:00 7.70833 C 7.3 g/m*3 7.71 C 0 km/h
2281 23-02-2021 00:00:00 7.375 C 7.19 g/m*3 7.38 C 0 km/h
2282 23-02-2021 01:00:00 7.2 C 7.18 g/m*3 7.2 C 0 km/h
2283 23-02-2021 02:00:00 7.26667 C 7.25 g/m*3 7.27 C 0 km/h
2284 23-02-2021 03:00:00 7.38333 C 7.32 g/m*3 7.38 C 0 km/h
2285 23-02-2021 04:00:00 7.36667 C 7.35 g/m*3 7.37 C 0 km/h
2286 23-02-2021 05:00:00 7.16667 C 7.24 g/m*3 7.17 C 0 km/h
2287 23-02-2021 06:00:00 6.33333 C 6.89 g/m*3 6.33 C 0 km/h
2288 23-02-2021 07:00:00 6.83333 C 7.27 g/m*3 6.83 C 1.2 km/h
2289 23-02-2021 08:00:00 7.975 C 7.78 g/m*3 7.98 C 1.73333 km/h
2290 23-02-2021 09:00:00 8.91667 C 8.13 g/m*3 8.92 C 0.13333 km/h
2291 23-02-2021 10:00:00 10.43333 C 8.69 g/m*3 10.43 C 0.66667 km/h
2292 23-02-2021 11:00:00 13.50833 C 9.58 g/m*3 13.51 C 1.2 km/h
2293 23-02-2021 12:00:00 16.23333 C 10.08 g/m*3 16.23 C 5.23333 km/h
2294 23-02-2021 13:00:00 18.51667 C 9.73 g/m*3 18.52 C 10.63333 km/h
2295 23-02-2021 14:00:00 19.725 C 9.76 g/m*3 19.73 C 6.43333 km/h
2296 23-02-2021 15:00:00 19.70833 C 9.71 g/m*3 19.71 C 8.19167 km/h
2297 23-02-2021 16:00:00 19.66667 C 9.58 g/m*3 19.67 C 4.26667 km/h
2298 23-02-2021 17:00:00 18.21667 C 9.46 g/m*3 18.22 C 5.88333 km/h
2299 23-02-2021 18:00:00 14.58333 C 9.24 g/m*3 14.58 C 6.4 km/h
2300 23-02-2021 19:00:00 12.85 C 9.03 g/m*3 12.85 C 4.66667 km/h
Sensor: Nr:Datum:Temp:Abs-Feuchte:Windchill:Wind:
Aussen-T/F 2301 23-02-2021 20:00:00 11.35 C 8.65 g/m*3 11.35 C 1.06667 km/h
2302 23-02-2021 21:00:00 10.10833 C 8.33 g/m*3 10.11 C 0 km/h
2303 23-02-2021 22:00:00 9.25 C 8.03 g/m*3 9.25 C 0 km/h
2304 23-02-2021 23:00:00 8.29167 C 7.7 g/m*3 8.29 C 0.4 km/h
2305 24-02-2021 00:00:00 7.91667 C 7.65 g/m*3 7.92 C 0.53333 km/h
2306 24-02-2021 01:00:00 7.1 C 7.27 g/m*3 7.1 C 0.13333 km/h
2307 24-02-2021 02:00:00 6.45833 C 7.02 g/m*3 6.46 C 0 km/h
2308 24-02-2021 03:00:00 5.96667 C 6.86 g/m*3 5.97 C 0 km/h
2309 24-02-2021 04:00:00 5.5 C 6.67 g/m*3 5.5 C 0 km/h
2310 24-02-2021 05:00:00 5.11667 C 6.51 g/m*3 5.12 C 0 km/h
2311 24-02-2021 06:00:00 4.65833 C 6.34 g/m*3 4.66 C 0 km/h
2312 24-02-2021 07:00:00 4.79167 C 6.43 g/m*3 4.79 C 0.4 km/h
2313 24-02-2021 08:00:00 5.55 C 6.8 g/m*3 5.55 C 0.4 km/h
2314 24-02-2021 09:00:00 6.575 C 7.31 g/m*3 6.58 C 0.26667 km/h
2315 24-02-2021 10:00:00 7.44167 C 7.73 g/m*3 7.44 C 0 km/h
2316 24-02-2021 11:00:00 9.74167 C 8.97 g/m*3 9.74 C 0 km/h
2317 24-02-2021 12:00:00 13.26667 C 10.67 g/m*3 13.27 C 0 km/h
2318 24-02-2021 13:00:00 17.18333 C 10.55 g/m*3 17.18 C 6.025 km/h
2319 24-02-2021 14:00:00 18.73333 C 10.36 g/m*3 18.73 C 4.28333 km/h
2320 24-02-2021 15:00:00 18.79167 C 10.41 g/m*3 18.79 C 1.475 km/h
2321 24-02-2021 16:00:00 18.89167 C 10.34 g/m*3 18.89 C 0.13333 km/h
2322 24-02-2021 17:00:00 16.73333 C 9.86 g/m*3 16.73 C 0.93333 km/h
2323 24-02-2021 18:00:00 13.725 C 9.11 g/m*3 13.73 C 0.26667 km/h
2324 24-02-2021 19:00:00 11.96667 C 8.69 g/m*3 11.97 C 0 km/h
2325 24-02-2021 20:00:00 10.1 C 8.15 g/m*3 10.1 C 0 km/h
Sensor: Nr:Datum:Temp:Abs-Feuchte:Windchill:Wind:
Aussen-T/F 2326 24-02-2021 21:00:00 8.825 C 7.84 g/m*3 8.82 C 0 km/h
2327 24-02-2021 22:00:00 8.05833 C 7.62 g/m*3 8.06 C 0 km/h
2328 24-02-2021 23:00:00 7.33333 C 7.36 g/m*3 7.33 C 0 km/h
2329 25-02-2021 00:00:00 6.60833 C 7.09 g/m*3 6.61 C 0.13333 km/h
2330 25-02-2021 01:00:00 6.15833 C 6.92 g/m*3 6.16 C 0.53333 km/h
2331 25-02-2021 02:00:00 5.61667 C 6.72 g/m*3 5.62 C 0 km/h
2332 25-02-2021 03:00:00 5.19167 C 6.54 g/m*3 5.19 C 0 km/h
2333 25-02-2021 04:00:00 4.475 C 6.23 g/m*3 4.47 C 0 km/h
2334 25-02-2021 05:00:00 4.175 C 6.14 g/m*3 4.18 C 0.13333 km/h
2335 25-02-2021 06:00:00 3.76667 C 6 g/m*3 3.77 C 0 km/h
2336 25-02-2021 07:00:00 3.33333 C 5.84 g/m*3 3.33 C 0 km/h
2337 25-02-2021 08:00:00 3.74167 C 6 g/m*3 3.74 C 0 km/h
2338 25-02-2021 09:00:00 4.56667 C 6.39 g/m*3 4.57 C 0 km/h
2339 25-02-2021 10:00:00 6.4 C 7.23 g/m*3 6.4 C 0.4 km/h
2340 25-02-2021 11:00:00 9.25833 C 8.68 g/m*3 9.26 C 1.33333 km/h
2341 25-02-2021 12:00:00 13.89167 C 8.89 g/m*3 13.89 C 1.2 km/h
2342 25-02-2021 13:00:00 17.64167 C 8.88 g/m*3 17.64 C 1.73333 km/h
2343 25-02-2021 14:00:00 19.93333 C 8.88 g/m*3 19.93 C 2.53333 km/h
2344 25-02-2021 15:00:00 18.975 C 8.53 g/m*3 18.98 C 5.475 km/h
2345 25-02-2021 16:00:00 18.51667 C 8.05 g/m*3 18.52 C 3.74167 km/h
2346 25-02-2021 17:00:00 15.69167 C 7.79 g/m*3 15.69 C 6.55 km/h
2347 25-02-2021 18:00:00 12.9 C 7.49 g/m*3 12.9 C 5.6 km/h
2348 25-02-2021 19:00:00 11.68333 C 7.31 g/m*3 11.68 C 2.13333 km/h
2349 25-02-2021 20:00:00 10.78333 C 7.36 g/m*3 10.78 C 0.8 km/h
2350 25-02-2021 21:00:00 10.03333 C 7.16 g/m*3 10.03 C 3.34167 km/h
Sensor: Nr:Datum:Temp:Abs-Feuchte:Windchill:Wind:
Aussen-T/F 2351 25-02-2021 22:00:00 8.75833 C 6.83 g/m*3 8.76 C 0.4 km/h
2352 25-02-2021 23:00:00 7.2 C 6.6 g/m*3 7.2 C 1.33333 km/h
2353 26-02-2021 00:00:00 6.60833 C 6.59 g/m*3 6.61 C 1.73333 km/h
2354 26-02-2021 01:00:00 6.425 C 6.64 g/m*3 6.43 C 2.53333 km/h
2355 26-02-2021 02:00:00 6.38333 C 6.67 g/m*3 6.38 C 0.8 km/h
2356 26-02-2021 03:00:00 7 C 6.9 g/m*3 7 C 0 km/h
2357 26-02-2021 04:00:00 7.225 C 6.94 g/m*3 7.23 C 0.13333 km/h
2358 26-02-2021 05:00:00 7.64167 C 7.1 g/m*3 7.64 C 3.075 km/h
2359 26-02-2021 06:00:00 8.03333 C 7.35 g/m*3 7.32 C 5.63333 km/h
2360 26-02-2021 07:00:00 8.38333 C 7.63 g/m*3 6.59 C 10.61667 km/h
2361 26-02-2021 08:00:00 7.8 C 7.36 g/m*3 6.38 C 8.19167 km/h
2362 26-02-2021 09:00:00 6.99167 C 7.01 g/m*3 5.56 C 7.64167 km/h
2363 26-02-2021 10:00:00 6.63333 C 6.97 g/m*3 6.63 C 2.26667 km/h
2364 26-02-2021 11:00:00 6.80833 C 7.11 g/m*3 6.81 C 3.88333 km/h
2365 26-02-2021 12:00:00 7.025 C 7.23 g/m*3 7.03 C 3.60833 km/h
2366 26-02-2021 13:00:00 7.50833 C 7.35 g/m*3 7.51 C 0.66667 km/h
2367 26-02-2021 14:00:00 8.44167 C 7.58 g/m*3 8.44 C 1.6 km/h
2368 26-02-2021 15:00:00 8.76667 C 7.71 g/m*3 8.77 C 0.8 km/h
2369 26-02-2021 16:00:00 9.29167 C 7.33 g/m*3 9.29 C 4.80833 km/h
2370 26-02-2021 17:00:00 9.35 C 6.69 g/m*3 8.99 C 5.09167 km/h
2371 26-02-2021 18:00:00 7.41667 C 6.16 g/m*3 7.42 C 3.20833 km/h
2372 26-02-2021 19:00:00 6.50833 C 6.22 g/m*3 6.51 C 3.06667 km/h
2373 26-02-2021 20:00:00 6.225 C 6.4 g/m*3 6.23 C 1.2 km/h
2374 26-02-2021 21:00:00 5.475 C 6.12 g/m*3 5.48 C 3.46667 km/h
2375 26-02-2021 22:00:00 3.73333 C 5.6 g/m*3 3.73 C 1.33333 km/h
Sensor: Nr:Datum:Temp:Abs-Feuchte:Windchill:Wind:
Aussen-T/F 2376 26-02-2021 23:00:00 2.55833 C 5.28 g/m*3 2.56 C 0.13333 km/h
2377 27-02-2021 00:00:00 1.79167 C 5.1 g/m*3 1.79 C 0.13333 km/h
2378 27-02-2021 01:00:00 1.38333 C 5.01 g/m*3 1.38 C 0.13333 km/h
2379 27-02-2021 02:00:00 0.85833 C 4.83 g/m*3 0.86 C 0.13333 km/h
2380 27-02-2021 03:00:00 0.46667 C 4.74 g/m*3 0.47 C 0 km/h
2381 27-02-2021 04:00:00 0.04167 C 4.62 g/m*3 0.04 C 0.13333 km/h
2382 27-02-2021 05:00:00 -0.175 C 4.55 g/m*3 -0.18 C 0 km/h
2383 27-02-2021 06:00:00 -0.40833 C 4.47 g/m*3 -0.41 C 0 km/h
2384 27-02-2021 07:00:00 -0.19167 C 4.57 g/m*3 -0.19 C 0.26667 km/h
2385 27-02-2021 08:00:00 1.25 C 5.08 g/m*3 1.25 C 0.4 km/h
2386 27-02-2021 09:00:00 2.35833 C 5.48 g/m*3 2.36 C 0.53333 km/h
2387 27-02-2021 10:00:00 3.1 C 5.75 g/m*3 3.1 C 0.66667 km/h
2388 27-02-2021 11:00:00 4.31667 C 6.17 g/m*3 4.32 C 1.73333 km/h
2389 27-02-2021 12:00:00 6.15 C 6.54 g/m*3 6.15 C 1.86667 km/h
2390 27-02-2021 13:00:00 8.29167 C 6.55 g/m*3 7.02 C 7.90833 km/h
2391 27-02-2021 14:00:00 9.35833 C 6.43 g/m*3 8.92 C 5.35833 km/h
2392 27-02-2021 15:00:00 9.85833 C 6.34 g/m*3 9.38 C 5.74167 km/h
2393 27-02-2021 16:00:00 10.59167 C 6.27 g/m*3 10.01 C 6.58333 km/h
2394 27-02-2021 17:00:00 10.86667 C 6.57 g/m*3 10.87 C 2.93333 km/h
2395 27-02-2021 18:00:00 7.25 C 6.22 g/m*3 7.25 C 4.4 km/h
2396 27-02-2021 19:00:00 5.225 C 5.91 g/m*3 5.23 C 4.93333 km/h
2397 27-02-2021 20:00:00 4.625 C 5.9 g/m*3 4.63 C 3.88333 km/h
2398 27-02-2021 21:00:00 5.84167 C 6.13 g/m*3 5.84 C 3.475 km/h
2399 27-02-2021 22:00:00 5.89167 C 6.03 g/m*3 4.78 C 5.9 km/h
2400 27-02-2021 23:00:00 5.8 C 5.94 g/m*3 5.8 C 2.66667 km/h
Sensor: Nr:Datum:Temp:Abs-Feuchte:Windchill:Wind:
Aussen-T/F 2401 28-02-2021 00:00:00 5.825 C 5.86 g/m*3 5.83 C 2.95833 km/h
2402 28-02-2021 01:00:00 5.825 C 5.76 g/m*3 4.94 C 5.225 km/h
2403 28-02-2021 02:00:00 5.68333 C 5.69 g/m*3 5.68 C 3.88333 km/h
2404 28-02-2021 03:00:00 5.43333 C 5.48 g/m*3 4.54 C 5.09167 km/h
2405 28-02-2021 04:00:00 5.06667 C 5.42 g/m*3 5.07 C 1.33333 km/h
2406 28-02-2021 05:00:00 4.75833 C 5.39 g/m*3 4.76 C 2.13333 km/h
2407 28-02-2021 06:00:00 3.28333 C 5.08 g/m*3 3.28 C 0.66667 km/h
2408 28-02-2021 07:00:00 1.58333 C 4.75 g/m*3 1.58 C 0.26667 km/h
2409 28-02-2021 08:00:00 1.09167 C 4.76 g/m*3 1.09 C 0.53333 km/h
2410 28-02-2021 09:00:00 1.65833 C 4.99 g/m*3 1.66 C 1.73333 km/h
2411 28-02-2021 10:00:00 3.55 C 5.45 g/m*3 3.55 C 3.73333 km/h
2412 28-02-2021 11:00:00 6.55833 C 5.63 g/m*3 5.77 C 5.23333 km/h
2413 28-02-2021 12:00:00 8.34167 C 5.66 g/m*3 8.34 C 4.54167 km/h
2414 28-02-2021 13:00:00 9.875 C 5.78 g/m*3 9.88 C 3.6 km/h
2415 28-02-2021 14:00:00 11.30833 C 5.49 g/m*3 11.31 C 10.725 km/h
2416 28-02-2021 15:00:00 11.63333 C 5.25 g/m*3 11.63 C 9.54167 km/h
2417 28-02-2021 16:00:00 12.35 C 5.26 g/m*3 12.35 C 6.575 km/h
2418 28-02-2021 17:00:00 12.00833 C 5.87 g/m*3 12.01 C 2.275 km/h
2419 28-02-2021 18:00:00 7.725 C 5.58 g/m*3 6.78 C 6.26667 km/h
2420 28-02-2021 19:00:00 5.575 C 5.43 g/m*3 4.38 C 6.01667 km/h
2421 28-02-2021 20:00:00 4.425 C 5.37 g/m*3 4.43 C 4.26667 km/h
2422 28-02-2021 21:00:00 3.14167 C 5.17 g/m*3 3.14 C 0 km/h
2423 28-02-2021 22:00:00 2.275 C 5.03 g/m*3 2.28 C 0 km/h
2424 28-02-2021 23:00:00 1.24167 C 4.78 g/m*3 1.24 C 0 km/h
2425 01-03-2021 00:00:00 0.76667 C 4.7 g/m*3 0.77 C 0 km/h
Sensor: Nr:Datum:Temp:Abs-Feuchte:Windchill:Wind:
Aussen-T/F 2426 01-03-2021 01:00:00 0.1 C 4.53 g/m*3 0.1 C 0 km/h
2427 01-03-2021 02:00:00 -0.25833 C 4.46 g/m*3 -0.26 C 0 km/h
2428 01-03-2021 03:00:00 -0.55833 C 4.38 g/m*3 -0.56 C 0 km/h
2429 01-03-2021 04:00:00 -0.9 C 4.29 g/m*3 -0.9 C 0 km/h
2430 01-03-2021 05:00:00 -1.275 C 4.2 g/m*3 -1.27 C 0 km/h
2431 01-03-2021 06:00:00 -1.475 C 4.15 g/m*3 -1.48 C 0.13333 km/h
2432 01-03-2021 07:00:00 -1.71667 C 4.08 g/m*3 -1.72 C 0 km/h
2433 01-03-2021 08:00:00 -1.45 C 4.17 g/m*3 -1.45 C 0 km/h
2434 01-03-2021 09:00:00 -0.575 C 4.46 g/m*3 -0.57 C 0 km/h
2435 01-03-2021 10:00:00 1.31667 C 5.11 g/m*3 1.32 C 2 km/h
2436 01-03-2021 11:00:00 3.9 C 6 g/m*3 2.4 C 6.175 km/h
2437 01-03-2021 12:00:00 7 C 6.2 g/m*3 6.15 C 5.6 km/h
2438 01-03-2021 13:00:00 9.88333 C 6.3 g/m*3 9.4 C 5.75 km/h
2439 01-03-2021 14:00:00 11.93333 C 6.09 g/m*3 11.93 C 4.94167 km/h
2440 01-03-2021 15:00:00 12.71667 C 6.12 g/m*3 12.72 C 5.89167 km/h
2441 01-03-2021 16:00:00 13.74167 C 6.4 g/m*3 13.74 C 6.71667 km/h
2442 01-03-2021 17:00:00 13.53333 C 6.85 g/m*3 13.53 C 4.80833 km/h
2443 01-03-2021 18:00:00 9.18333 C 6.52 g/m*3 9.18 C 0 km/h
2444 01-03-2021 19:00:00 6.8 C 6.16 g/m*3 6.8 C 3.73333 km/h
2445 01-03-2021 20:00:00 5.60833 C 5.93 g/m*3 5.61 C 3.46667 km/h
2446 01-03-2021 21:00:00 5.14167 C 5.93 g/m*3 5.14 C 4.26667 km/h
2447 01-03-2021 22:00:00 4.50833 C 5.86 g/m*3 4.51 C 3.6 km/h
2448 01-03-2021 23:00:00 3.26667 C 5.48 g/m*3 3.27 C 0 km/h
2449 02-03-2021 00:00:00 2.14167 C 5.18 g/m*3 2.14 C 0 km/h
2450 02-03-2021 01:00:00 1.66667 C 5.08 g/m*3 1.67 C 0 km/h
Sensor: Nr:Datum:Temp:Abs-Feuchte:Windchill:Wind:
Aussen-T/F 2451 02-03-2021 02:00:00 1 C 4.88 g/m*3 1 C 0 km/h
2452 02-03-2021 03:00:00 0.325 C 4.66 g/m*3 0.33 C 0 km/h
2453 02-03-2021 04:00:00 0.025 C 4.61 g/m*3 0.03 C 0 km/h
2454 02-03-2021 05:00:00 -0.325 C 4.5 g/m*3 -0.33 C 0 km/h
2455 02-03-2021 06:00:00 -0.45833 C 4.46 g/m*3 -0.46 C 0 km/h
2456 02-03-2021 07:00:00 -0.58333 C 4.43 g/m*3 -0.58 C 0 km/h
2457 02-03-2021 08:00:00 -0.83333 C 4.35 g/m*3 -0.83 C 0 km/h
2458 02-03-2021 09:00:00 -0.08333 C 4.62 g/m*3 -0.08 C 0 km/h
2459 02-03-2021 10:00:00 1.625 C 5.23 g/m*3 1.63 C 0 km/h
2460 02-03-2021 11:00:00 5.225 C 6.69 g/m*3 5.23 C 0 km/h
2461 02-03-2021 12:00:00 8.925 C 7.96 g/m*3 8.93 C 0 km/h
2462 02-03-2021 13:00:00 13.59167 C 8.19 g/m*3 13.59 C 0 km/h
2463 02-03-2021 14:00:00 16.175 C 7.49 g/m*3 16.18 C 1.2 km/h
2464 02-03-2021 15:00:00 15.58333 C 7.25 g/m*3 15.58 C 2 km/h
2465 02-03-2021 16:00:00 15.725 C 7.56 g/m*3 15.73 C 1.86667 km/h
2466 02-03-2021 17:00:00 14.525 C 7.54 g/m*3 14.53 C 5.46667 km/h
2467 02-03-2021 18:00:00 10.81667 C 6.91 g/m*3 10.27 C 6.575 km/h
2468 02-03-2021 19:00:00 8.775 C 6.67 g/m*3 8.78 C 4.93333 km/h
2469 02-03-2021 20:00:00 7.50833 C 6.55 g/m*3 6.86 C 5.2 km/h
2470 02-03-2021 21:00:00 6.21667 C 6.24 g/m*3 6.22 C 1.86667 km/h
2471 02-03-2021 22:00:00 4.79167 C 5.91 g/m*3 4.79 C 0.53333 km/h
2472 02-03-2021 23:00:00 3.46667 C 5.52 g/m*3 3.47 C 0 km/h
2473 03-03-2021 00:00:00 2.61667 C 5.32 g/m*3 2.62 C 0.13333 km/h
2474 03-03-2021 01:00:00 2.05 C 5.19 g/m*3 2.05 C 0 km/h
2475 03-03-2021 02:00:00 1.41667 C 5 g/m*3 1.42 C 0 km/h
Sensor: Nr:Datum:Temp:Abs-Feuchte:Windchill:Wind:
Aussen-T/F 2476 03-03-2021 03:00:00 1.09167 C 4.91 g/m*3 1.09 C 0 km/h
2477 03-03-2021 04:00:00 1.24167 C 5.01 g/m*3 1.24 C 0 km/h
2478 03-03-2021 05:00:00 0.89167 C 4.89 g/m*3 0.89 C 0.53333 km/h
2479 03-03-2021 06:00:00 0.83333 C 4.88 g/m*3 0.83 C 0 km/h
2480 03-03-2021 07:00:00 0.75833 C 4.86 g/m*3 0.76 C 0 km/h
2481 03-03-2021 08:00:00 1.54167 C 5.17 g/m*3 1.54 C 0 km/h
2482 03-03-2021 09:00:00 2.4 C 5.47 g/m*3 2.4 C 0.4 km/h
2483 03-03-2021 10:00:00 3.43333 C 5.83 g/m*3 3.43 C 0 km/h
2484 03-03-2021 11:00:00 6.2 C 6.61 g/m*3 6.2 C 0 km/h
2485 03-03-2021 12:00:00 10.13333 C 7.19 g/m*3 10.13 C 0 km/h
2486 03-03-2021 13:00:00 13.675 C 7.58 g/m*3 13.68 C 0.8 km/h
2487 03-03-2021 14:00:00 15.6 C 7.58 g/m*3 15.6 C 1.075 km/h
2488 03-03-2021 15:00:00 16.20833 C 7.58 g/m*3 16.21 C 0 km/h
2489 03-03-2021 16:00:00 16.59167 C 7.9 g/m*3 16.59 C 0 km/h
2490 03-03-2021 17:00:00 14.38333 C 7.98 g/m*3 14.38 C 0 km/h
2491 03-03-2021 18:00:00 11.225 C 7.33 g/m*3 11.23 C 0 km/h
2492 03-03-2021 19:00:00 9.75 C 7.11 g/m*3 9.75 C 0 km/h
2493 03-03-2021 20:00:00 8.625 C 6.91 g/m*3 8.63 C 0 km/h
2494 03-03-2021 21:00:00 7.79167 C 6.8 g/m*3 7.79 C 0 km/h
2495 03-03-2021 22:00:00 7.88333 C 6.87 g/m*3 7.88 C 0 km/h
2496 03-03-2021 23:00:00 7.79167 C 6.88 g/m*3 7.79 C 0 km/h
2497 04-03-2021 00:00:00 7.225 C 6.59 g/m*3 7.23 C 0 km/h
2498 04-03-2021 01:00:00 6.10833 C 6.44 g/m*3 6.11 C 0 km/h
2499 04-03-2021 02:00:00 5.425 C 6.21 g/m*3 5.43 C 0 km/h
2500 04-03-2021 03:00:00 4.73333 C 6.04 g/m*3 4.73 C 0.8 km/h
Sensor: Nr:Datum:Temp:Abs-Feuchte:Windchill:Wind:
Aussen-T/F 2501 04-03-2021 04:00:00 4.40833 C 6 g/m*3 4.41 C 0 km/h
2502 04-03-2021 05:00:00 4.68333 C 6.18 g/m*3 4.68 C 0.8 km/h
2503 04-03-2021 06:00:00 4 C 5.85 g/m*3 4 C 0.13333 km/h
2504 04-03-2021 07:00:00 3.60833 C 5.79 g/m*3 3.61 C 0.13333 km/h
2505 04-03-2021 08:00:00 4.75 C 6.31 g/m*3 4.75 C 0.66667 km/h
2506 04-03-2021 09:00:00 6.15833 C 6.75 g/m*3 6.16 C 0.53333 km/h
2507 04-03-2021 10:00:00 8.56667 C 7.41 g/m*3 8.57 C 3.34167 km/h
2508 04-03-2021 11:00:00 9.725 C 7.67 g/m*3 9.73 C 3.08333 km/h
2509 04-03-2021 12:00:00 10.55833 C 8.01 g/m*3 9.6 C 8.325 km/h
2510 04-03-2021 13:00:00 11.13333 C 8.18 g/m*3 11.13 C 2.94167 km/h
2511 04-03-2021 14:00:00 11.23333 C 8.2 g/m*3 11.23 C 3.73333 km/h
2512 04-03-2021 15:00:00 9.975 C 8.13 g/m*3 9.37 C 6.3 km/h
2513 04-03-2021 16:00:00 8.74167 C 8 g/m*3 8.74 C 0 km/h
2514 04-03-2021 17:00:00 8 C 7.63 g/m*3 5.99 C 11.40833 km/h
2515 04-03-2021 18:00:00 6.575 C 6.98 g/m*3 5.07 C 7.65 km/h
2516 04-03-2021 19:00:00 5.2 C 6.4 g/m*3 3.73 C 6.70833 km/h
2517 04-03-2021 20:00:00 4.175 C 5.94 g/m*3 1.94 C 8.88333 km/h
2518 04-03-2021 21:00:00 4.06667 C 5.94 g/m*3 1.88 C 8.6 km/h
2519 04-03-2021 22:00:00 4.13333 C 5.97 g/m*3 2.58 C 6.425 km/h
2520 04-03-2021 23:00:00 4.2 C 5.99 g/m*3 4.2 C 4.80833 km/h
2521 05-03-2021 00:00:00 4.15 C 5.99 g/m*3 4.15 C 0.13333 km/h
2522 05-03-2021 01:00:00 4.1 C 6.02 g/m*3 4.1 C 0.66667 km/h
2523 05-03-2021 02:00:00 4.15833 C 5.99 g/m*3 2.48 C 6.85 km/h
2524 05-03-2021 03:00:00 3.96667 C 5.7 g/m*3 2.48 C 6.15833 km/h
2525 05-03-2021 04:00:00 3.625 C 5.44 g/m*3 1.9 C 6.70833 km/h
Sensor: Nr:Datum:Temp:Abs-Feuchte:Windchill:Wind:
Aussen-T/F 2526 05-03-2021 05:00:00 3.25 C 5.34 g/m*3 3.25 C 2.40833 km/h
2527 05-03-2021 06:00:00 3.10833 C 5.39 g/m*3 3.11 C 1.2 km/h
2528 05-03-2021 07:00:00 3.2 C 5.44 g/m*3 3.2 C 3.74167 km/h
2529 05-03-2021 08:00:00 3.38333 C 5.55 g/m*3 3.38 C 1.86667 km/h
2530 05-03-2021 09:00:00 3.95833 C 5.57 g/m*3 2.75 C 5.375 km/h
2531 05-03-2021 10:00:00 4.54167 C 5.36 g/m*3 1.89 C 11.01667 km/h
2532 05-03-2021 11:00:00 5.21667 C 5.07 g/m*3 2.38 C 12.76667 km/h
2533 05-03-2021 12:00:00 5.95833 C 4.76 g/m*3 3.9 C 9.55 km/h
2534 05-03-2021 13:00:00 6.625 C 4.51 g/m*3 4.58 C 10.1 km/h
2535 05-03-2021 14:00:00 6.575 C 4.31 g/m*3 4.15 C 12.08333 km/h
2536 05-03-2021 15:00:00 6.44167 C 4.13 g/m*3 3.83 C 13.03333 km/h
2537 05-03-2021 16:00:00 6.28333 C 4.18 g/m*3 3.75 C 12.35833 km/h
2538 05-03-2021 17:00:00 5.85833 C 4.45 g/m*3 3.64 C 10.225 km/h
2539 05-03-2021 18:00:00 5.15 C 4.68 g/m*3 5.15 C 1.73333 km/h
2540 05-03-2021 19:00:00 2.61667 C 4.4 g/m*3 2.62 C 0 km/h
2541 05-03-2021 20:00:00 0.86667 C 4.26 g/m*3 0.87 C 3.73333 km/h
2542 05-03-2021 21:00:00 -0.15 C 4.12 g/m*3 -0.15 C 1.06667 km/h
2543 05-03-2021 22:00:00 -0.78333 C 4.04 g/m*3 -0.78 C 0 km/h
2544 05-03-2021 23:00:00 -1.49167 C 3.89 g/m*3 -1.49 C 0 km/h
2545 06-03-2021 00:00:00 -2.06667 C 3.78 g/m*3 -2.07 C 0 km/h
2546 06-03-2021 01:00:00 -2.60833 C 3.64 g/m*3 -2.61 C 0 km/h
2547 06-03-2021 02:00:00 -2.91667 C 3.6 g/m*3 -2.92 C 0 km/h
2548 06-03-2021 03:00:00 -3.34167 C 3.51 g/m*3 -3.34 C 0 km/h
2549 06-03-2021 04:00:00 -3.64167 C 3.45 g/m*3 -3.64 C 0 km/h
2550 06-03-2021 05:00:00 -4.00833 C 3.4 g/m*3 -4.01 C 0 km/h
Sensor: Nr:Datum:Temp:Abs-Feuchte:Windchill:Wind:
Aussen-T/F 2551 06-03-2021 06:00:00 -4.29167 C 3.33 g/m*3 -4.29 C 0 km/h
2552 06-03-2021 07:00:00 -4.325 C 3.34 g/m*3 -4.33 C 0 km/h
2553 06-03-2021 08:00:00 -4.05 C 3.43 g/m*3 -4.05 C 0 km/h
2554 06-03-2021 09:00:00 -3.06667 C 3.7 g/m*3 -3.07 C 0 km/h
2555 06-03-2021 10:00:00 -1.23333 C 4.23 g/m*3 -1.23 C 0.13333 km/h
2556 06-03-2021 11:00:00 1.91667 C 4.82 g/m*3 1.92 C 0.93333 km/h
2557 06-03-2021 12:00:00 5.55833 C 4.32 g/m*3 3.92 C 7.50833 km/h
2558 06-03-2021 13:00:00 7.06667 C 3.33 g/m*3 5.25 C 9.40833 km/h
2559 06-03-2021 14:00:00 7.58333 C 3.21 g/m*3 6.22 C 7.78333 km/h
2560 06-03-2021 15:00:00 7.68333 C 3.17 g/m*3 6.04 C 9.14167 km/h
2561 06-03-2021 16:00:00 8.26667 C 3.31 g/m*3 7.18 C 7.11667 km/h
2562 06-03-2021 17:00:00 8.73333 C 3.9 g/m*3 8.73 C 4.68333 km/h
2563 06-03-2021 18:00:00 4.44167 C 3.94 g/m*3 4.44 C 4.13333 km/h
2564 06-03-2021 19:00:00 1.85833 C 3.8 g/m*3 1.86 C 4.4 km/h
2565 06-03-2021 20:00:00 0.64167 C 3.85 g/m*3 0.64 C 3.33333 km/h
2566 06-03-2021 21:00:00 -0.54167 C 3.79 g/m*3 -0.54 C 0 km/h
2567 06-03-2021 22:00:00 -1.58333 C 3.6 g/m*3 -1.58 C 0 km/h
2568 06-03-2021 23:00:00 -2.28333 C 3.51 g/m*3 -2.28 C 0 km/h
2569 07-03-2021 00:00:00 -2.725 C 3.47 g/m*3 -2.73 C 0 km/h
2570 07-03-2021 01:00:00 -3.34167 C 3.37 g/m*3 -3.34 C 0 km/h
2571 07-03-2021 02:00:00 -3.74167 C 3.32 g/m*3 -3.74 C 0 km/h
2572 07-03-2021 03:00:00 -3.95 C 3.3 g/m*3 -3.95 C 0 km/h
2573 07-03-2021 04:00:00 -4.24167 C 3.25 g/m*3 -4.24 C 0 km/h
2574 07-03-2021 05:00:00 -4.85 C 3.15 g/m*3 -4.85 C 0 km/h
2575 07-03-2021 06:00:00 -4.91667 C 3.15 g/m*3 -4.92 C 0 km/h
Sensor: Nr:Datum:Temp:Abs-Feuchte:Windchill:Wind:
Aussen-T/F 2576 07-03-2021 07:00:00 -5.05 C 3.14 g/m*3 -5.05 C 0 km/h
2577 07-03-2021 08:00:00 -4.66667 C 3.24 g/m*3 -4.67 C 0 km/h
2578 07-03-2021 09:00:00 -3.975 C 3.42 g/m*3 -3.98 C 0 km/h
2579 07-03-2021 10:00:00 -2.175 C 3.9 g/m*3 -2.17 C 0 km/h
2580 07-03-2021 11:00:00 1.26667 C 4.56 g/m*3 1.27 C 0 km/h
2581 07-03-2021 12:00:00 5.475 C 4.62 g/m*3 5.48 C 0.26667 km/h
2582 07-03-2021 13:00:00 7.575 C 3.85 g/m*3 7.58 C 3.06667 km/h
2583 07-03-2021 14:00:00 8.60833 C 3.67 g/m*3 7.3 C 8.34167 km/h
2584 07-03-2021 15:00:00 8.38333 C 3.75 g/m*3 6.81 C 9.40833 km/h
2585 07-03-2021 16:00:00 8.65833 C 3.8 g/m*3 6.87 C 10.9 km/h
2586 07-03-2021 17:00:00 8.525 C 3.76 g/m*3 7.2 C 8.34167 km/h
2587 07-03-2021 18:00:00 6.3 C 4.02 g/m*3 4.93 C 6.975 km/h
2588 07-03-2021 19:00:00 4.8 C 4.32 g/m*3 3.07 C 7.39167 km/h
2589 07-03-2021 20:00:00 3.11667 C 4.22 g/m*3 3.12 C 4.41667 km/h
2590 07-03-2021 21:00:00 0.86667 C 4.15 g/m*3 -0.64 C 5.06667 km/h
2591 07-03-2021 22:00:00 -0.38333 C 3.97 g/m*3 -0.38 C 1.2 km/h
2592 07-03-2021 23:00:00 -1.1 C 3.89 g/m*3 -1.1 C 0 km/h
2593 08-03-2021 00:00:00 -1.91667 C 3.75 g/m*3 -1.92 C 0 km/h
2594 08-03-2021 01:00:00 -2.53333 C 3.65 g/m*3 -2.53 C 0 km/h
2595 08-03-2021 02:00:00 -2.89167 C 3.6 g/m*3 -2.89 C 0 km/h
2596 08-03-2021 03:00:00 -3.11667 C 3.57 g/m*3 -3.12 C 0 km/h
2597 08-03-2021 04:00:00 -2.98333 C 3.63 g/m*3 -2.98 C 0.66667 km/h
2598 08-03-2021 05:00:00 -2.91667 C 3.65 g/m*3 -2.92 C 0.26667 km/h
2599 08-03-2021 06:00:00 -3.46667 C 3.51 g/m*3 -3.47 C 0.26667 km/h
2600 08-03-2021 07:00:00 -3.56667 C 3.51 g/m*3 -3.57 C 0.53333 km/h
Sensor: Nr:Datum:Temp:Abs-Feuchte:Windchill:Wind:
Aussen-T/F 2601 08-03-2021 08:00:00 -2.43333 C 3.84 g/m*3 -2.43 C 1.06667 km/h
2602 08-03-2021 09:00:00 -0.69167 C 4.23 g/m*3 -0.69 C 1.6 km/h
2603 08-03-2021 10:00:00 1.275 C 4.59 g/m*3 1.27 C 0.4 km/h
2604 08-03-2021 11:00:00 3.55 C 4.99 g/m*3 3.55 C 1.73333 km/h
2605 08-03-2021 12:00:00 5.03333 C 5.27 g/m*3 5.03 C 2.94167 km/h
2606 08-03-2021 13:00:00 5.53333 C 5.39 g/m*3 5.53 C 2.93333 km/h
2607 08-03-2021 14:00:00 5.91667 C 5.47 g/m*3 5.92 C 3.60833 km/h
2608 08-03-2021 15:00:00 6.15 C 5.51 g/m*3 6.15 C 3.34167 km/h
2609 08-03-2021 16:00:00 6.39167 C 5.55 g/m*3 6.39 C 0.93333 km/h
2610 08-03-2021 17:00:00 6.28333 C 5.64 g/m*3 6.28 C 3.06667 km/h
2611 08-03-2021 18:00:00 5.31667 C 5.44 g/m*3 5.32 C 2.26667 km/h
2612 08-03-2021 19:00:00 3.04167 C 5.1 g/m*3 3.04 C 4.66667 km/h
2613 08-03-2021 20:00:00 1.76667 C 4.87 g/m*3 1.77 C 2.8 km/h
2614 08-03-2021 21:00:00 0.79167 C 4.66 g/m*3 0.79 C 0 km/h
2615 08-03-2021 22:00:00 0.24167 C 4.57 g/m*3 0.24 C 0 km/h
2616 08-03-2021 23:00:00 0.33333 C 4.65 g/m*3 0.33 C 0 km/h
2617 09-03-2021 00:00:00 0.34167 C 4.66 g/m*3 0.34 C 0 km/h
2618 09-03-2021 01:00:00 0.54167 C 4.74 g/m*3 0.54 C 0.26667 km/h
2619 09-03-2021 02:00:00 0.5 C 4.73 g/m*3 0.5 C 0 km/h
2620 09-03-2021 03:00:00 0.21667 C 4.62 g/m*3 0.22 C 0 km/h
2621 09-03-2021 04:00:00 0.15833 C 4.65 g/m*3 0.16 C 0 km/h
2622 09-03-2021 05:00:00 0.1 C 4.63 g/m*3 0.1 C 0.53333 km/h
2623 09-03-2021 06:00:00 0.1 C 4.63 g/m*3 0.1 C 0 km/h
2624 09-03-2021 07:00:00 -0.06667 C 4.58 g/m*3 -0.07 C 0 km/h
2625 09-03-2021 08:00:00 0.41667 C 4.77 g/m*3 0.42 C 0.8 km/h
Sensor: Nr:Datum:Temp:Abs-Feuchte:Windchill:Wind:
Aussen-T/F 2626 09-03-2021 09:00:00 1.88333 C 5.25 g/m*3 1.88 C 3.6 km/h
2627 09-03-2021 10:00:00 3.86667 C 5.69 g/m*3 3.87 C 4.94167 km/h
2628 09-03-2021 11:00:00 5.575 C 5.69 g/m*3 3.16 C 10.89167 km/h
2629 09-03-2021 12:00:00 5.69167 C 5.85 g/m*3 3.28 C 11.025 km/h
2630 09-03-2021 13:00:00 5.45 C 6.1 g/m*3 3.23 C 9.825 km/h
2631 09-03-2021 14:00:00 5.49167 C 6.28 g/m*3 3.28 C 9.83333 km/h
2632 09-03-2021 15:00:00 5.38333 C 6.25 g/m*3 3.5 C 8.33333 km/h
2633 09-03-2021 16:00:00 5.36667 C 6.2 g/m*3 3.62 C 7.78333 km/h
2634 09-03-2021 17:00:00 5.53333 C 6.32 g/m*3 5.53 C 3.2 km/h
2635 09-03-2021 18:00:00 5.125 C 6.31 g/m*3 5.13 C 1.6 km/h
2636 09-03-2021 19:00:00 4.90833 C 6.34 g/m*3 4.91 C 1.2 km/h
2637 09-03-2021 20:00:00 4.74167 C 6.29 g/m*3 4.74 C 0.66667 km/h
2638 09-03-2021 21:00:00 4.7 C 6.33 g/m*3 4.7 C 0.66667 km/h
2639 09-03-2021 22:00:00 4.5 C 6.24 g/m*3 4.5 C 0.53333 km/h
2640 09-03-2021 23:00:00 4.325 C 6.17 g/m*3 4.33 C 1.33333 km/h
2641 10-03-2021 00:00:00 4.225 C 6.15 g/m*3 4.22 C 0.93333 km/h
2642 10-03-2021 01:00:00 3.94167 C 6.04 g/m*3 3.94 C 1.06667 km/h
2643 10-03-2021 02:00:00 3.8 C 6.02 g/m*3 3.8 C 1.06667 km/h
2644 10-03-2021 03:00:00 3.78333 C 6.02 g/m*3 3.78 C 0.8 km/h
2645 10-03-2021 04:00:00 3.75833 C 6.01 g/m*3 3.76 C 1.33333 km/h
2646 10-03-2021 05:00:00 3.68333 C 5.98 g/m*3 3.68 C 1.6 km/h
2647 10-03-2021 06:00:00 3.60833 C 5.9 g/m*3 3.61 C 0.26667 km/h
2648 10-03-2021 07:00:00 3.7 C 5.96 g/m*3 3.7 C 4.01667 km/h
2649 10-03-2021 08:00:00 4.25833 C 6.17 g/m*3 4.26 C 4.13333 km/h
2650 10-03-2021 09:00:00 5.21667 C 6.51 g/m*3 5.22 C 3.34167 km/h
Sensor: Nr:Datum:Temp:Abs-Feuchte:Windchill:Wind:
Aussen-T/F 2651 10-03-2021 10:00:00 6.59167 C 6.83 g/m*3 5.58 C 5.9 km/h
2652 10-03-2021 11:00:00 6.95 C 6.87 g/m*3 6 C 5.89167 km/h
2653 10-03-2021 12:00:00 7.73333 C 7.08 g/m*3 6.04 C 9.41667 km/h
2654 10-03-2021 13:00:00 9.18333 C 7.28 g/m*3 7.27 C 12.36667 km/h
2655 10-03-2021 14:00:00 10.675 C 6.99 g/m*3 8.84 C 14.23333 km/h
2656 10-03-2021 15:00:00 11.18333 C 6.48 g/m*3 11.18 C 10.33333 km/h
2657 10-03-2021 16:00:00 11.05 C 6.42 g/m*3 11.05 C 3.075 km/h
2658 10-03-2021 17:00:00 10.46667 C 6.4 g/m*3 10.47 C 2.00833 km/h
2659 10-03-2021 18:00:00 9.43333 C 6.4 g/m*3 9.43 C 1.34167 km/h
2660 10-03-2021 19:00:00 8.775 C 6.34 g/m*3 8.78 C 0.26667 km/h
2661 10-03-2021 20:00:00 7.98333 C 6.43 g/m*3 7.98 C 0 km/h
2662 10-03-2021 21:00:00 7.88333 C 6.37 g/m*3 7.88 C 1.46667 km/h
2663 10-03-2021 22:00:00 8.55833 C 6.16 g/m*3 8.56 C 4.56667 km/h
2664 10-03-2021 23:00:00 7.79167 C 6.76 g/m*3 6.67 C 6.96667 km/h
2665 11-03-2021 00:00:00 6.475 C 6.79 g/m*3 6.48 C 2.8 km/h
2666 11-03-2021 01:00:00 6.33333 C 6.82 g/m*3 6.33 C 4.40833 km/h
2667 11-03-2021 02:00:00 6.90833 C 6.81 g/m*3 5.01 C 9.66667 km/h
2668 11-03-2021 03:00:00 7.85 C 6.72 g/m*3 6.21 C 9.26667 km/h
2669 11-03-2021 04:00:00 8.2 C 6.87 g/m*3 5.54 C 16.23333 km/h
2670 11-03-2021 05:00:00 8.325 C 7.08 g/m*3 5.08 C 21.85833 km/h
2671 11-03-2021 06:00:00 8.26667 C 7.31 g/m*3 5.69 C 15.7 km/h
2672 11-03-2021 07:00:00 8.88333 C 7.56 g/m*3 6.43 C 15.83333 km/h
2673 11-03-2021 08:00:00 9.725 C 7.89 g/m*3 7.01 C 20.24167 km/h
2674 11-03-2021 09:00:00 10.64167 C 8.19 g/m*3 8.33 C 18.50833 km/h
2675 11-03-2021 10:00:00 11.64167 C 8.56 g/m*3 11.64 C 21.04167 km/h
Sensor: Nr:Datum:Temp:Abs-Feuchte:Windchill:Wind:
Aussen-T/F 2676 11-03-2021 11:00:00 11.58333 C 9.03 g/m*3 11.58 C 13.81667 km/h
2677 11-03-2021 12:00:00 10.86667 C 9.12 g/m*3 8.84 C 16.23333 km/h
2678 11-03-2021 13:00:00 12.65833 C 9.49 g/m*3 12.66 C 18.1 km/h
2679 11-03-2021 14:00:00 10.30833 C 8.42 g/m*3 7.86 C 19.05833 km/h
2680 11-03-2021 15:00:00 9.85 C 8.19 g/m*3 7.31 C 18.775 km/h
2681 11-03-2021 16:00:00 12.15 C 8.22 g/m*3 12.15 C 18.11667 km/h
2682 11-03-2021 17:00:00 11.11818 C 7.6 g/m*3 11.12 C 18.00909 km/h
2683 11-03-2021 18:00:00 9.74167 C 7.16 g/m*3 7.76 C 13.7 km/h
2684 11-03-2021 19:00:00 8.68333 C 6.67 g/m*3 6.3 C 14.9 km/h
2685 11-03-2021 20:00:00 8.38333 C 6.57 g/m*3 5.26 C 20.775 km/h
2686 11-03-2021 21:00:00 8.05833 C 6.55 g/m*3 5.66 C 13.96667 km/h
2687 11-03-2021 22:00:00 7.825 C 6.42 g/m*3 5.46 C 13.43333 km/h
2688 11-03-2021 23:00:00 6.55833 C 6.37 g/m*3 3.14 C 19.05 km/h

Maximal/Minimal-Werte vom 14.04.2020 - 16.05.2020

Sensor Min Max Avg
Temp
(Aussen-T/F)
-0.1 °C
15-04-2020  06:55:00
26.2 °C
17-04-2020  18:05:00
11.98 °C

Die Daten stammen von einer Davis Vantage Pro 2 Wetter-Station und werden unter Linux mit der Software wview2wettercgi und aufbereitet. Alle Angaben erfolgen ohne Gewähr für ihre Vollständigkeit oder Richtigkeit.
Kontakt: Rainer Krienke krienke@uni-koblenz.de . Meine Webseiten an der Uni Koblenz oder privat.
Version: $Revision: 0.78 $